Provisional Data: Mill Creek near Lancaster, PA


Please select a monitoring station.
Please select start date.
Please select start date.

Toggle Unit: C/F Toggle Unit: C/F
Sample Time Temperature (C) Temperature (F) Specific Conductivity (mS/cm) pH   Turbidity (NTU+) DO (mg/L)
12/4/2020 12:00:00 AM 6.31 43.358 0.57 8.07 51.54 11.28
12/4/2020 12:15:00 AM 6.3 43.34 0.57 8.07 76.24 11.26
12/4/2020 12:30:00 AM 6.3 43.34 0.572 8.07 85.23 11.25
12/4/2020 12:45:00 AM 6.29 43.322 0.572 8.06 74.83 11.25
12/4/2020 1:00:00 AM 6.29 43.322 0.575 8.06 63.72 11.23
12/4/2020 1:15:00 AM 6.27 43.286 0.576 8.06 52.02 11.23
12/4/2020 1:30:00 AM 6.27 43.286 0.577 8.06 61.05 11.22
12/4/2020 1:45:00 AM 6.27 43.286 0.577 8.06 56.92 11.23
12/4/2020 2:00:00 AM 6.27 43.286 0.577 8.06 61.33 11.23
12/4/2020 2:15:00 AM 6.26 43.268 0.575 8.05 61.84 11.22
12/4/2020 2:30:00 AM 6.26 43.268 0.577 8.05 67.01 11.22
12/4/2020 2:45:00 AM 6.26 43.268 0.578 8.05 71.23 11.21
12/4/2020 3:00:00 AM 6.26 43.268 0.578 8.05 81.05 11.21
12/4/2020 3:15:00 AM 6.25 43.25 0.578 8.05 63.67 11.2
12/4/2020 3:30:00 AM 6.25 43.25 0.577 8.05 80.82 11.21
12/4/2020 3:45:00 AM 6.25 43.25 0.578 8.05 109.9 11.19
12/4/2020 4:00:00 AM 6.25 43.25 0.578 8.05 72.11 11.19
12/4/2020 4:15:00 AM 6.25 43.25 0.579 8.05 72.69 11.19
12/4/2020 4:30:00 AM 6.24 43.232 0.579 8.05 82.15 11.19
12/4/2020 4:45:00 AM 6.24 43.232 0.579 8.05 81.46 11.2
12/4/2020 5:00:00 AM 6.24 43.232 0.579 8.05 76.69 11.2
12/4/2020 5:15:00 AM 6.25 43.25 0.579 8.05 58.41 11.2
12/4/2020 5:30:00 AM 6.25 43.25 0.579 8.05 67.96 11.19
12/4/2020 5:45:00 AM 6.26 43.268 0.579 8.05 104.6 11.2
12/4/2020 6:00:00 AM 6.26 43.268 0.579 8.05 105.7 11.19
12/4/2020 6:15:00 AM 6.26 43.268 0.576 8.05 92.71 11.19
12/4/2020 6:30:00 AM 6.27 43.286 0.576 8.05 95.17 11.19
12/4/2020 6:45:00 AM 6.27 43.286 0.577 8.05 81.02 11.19
12/4/2020 7:00:00 AM 6.27 43.286 0.576 8.05 78.43 11.18
12/4/2020 7:15:00 AM 6.28 43.304 0.576 8.05 79.26 11.19
12/4/2020 7:30:00 AM 6.28 43.304 0.578 8.04 86.44 11.19
12/4/2020 7:45:00 AM 6.29 43.322 0.577 8.05 87.92 11.2
12/4/2020 8:00:00 AM 6.3 43.34 0.58 8.05 95.94 11.22
12/4/2020 8:15:00 AM 6.32 43.376 0.58 8.05 78.08 11.24
12/4/2020 8:30:00 AM 6.34 43.412 0.574 8.05 86.91 11.28
12/4/2020 8:45:00 AM 6.35 43.43 0.576 8.05 91.74 11.32
12/4/2020 9:00:00 AM 6.38 43.484 0.575 8.05 80.87 11.36
12/4/2020 9:15:00 AM 6.41 43.538 0.574 8.06 111.3 11.4
12/4/2020 9:30:00 AM 6.44 43.592 0.573 8.06 86.13 11.45
12/4/2020 9:45:00 AM 6.47 43.646 0.573 8.06 90.92 11.46
12/4/2020 10:00:00 AM 6.5 43.7 0.573 8.06 87.35 11.52
12/4/2020 10:15:00 AM 6.53 43.754 0.573 8.07 82.09 11.57
12/4/2020 10:30:00 AM 6.55 43.79 0.573 8.07 58.85 11.61
12/4/2020 10:45:00 AM 6.58 43.844 0.572 8.08 100.9 11.65
12/4/2020 11:00:00 AM 6.62 43.916 0.575 8.08 81.73 11.69
12/4/2020 11:15:00 AM 6.65 43.97 0.574 8.08 103.4 11.72
12/4/2020 11:30:00 AM 6.67 44.006 0.574 8.08 76.17 11.71
12/4/2020 11:45:00 AM 6.7 44.06 0.574 8.09 69.99 11.69
12/4/2020 12:00:00 PM 6.73 44.114 0.572 8.09 83.32 11.71
12/4/2020 12:15:00 PM 6.75 44.15 0.573 8.09 97.81 11.72
12/4/2020 12:30:00 PM 6.79 44.222 0.572 8.1 89.7 11.75
12/4/2020 12:45:00 PM 6.82 44.276 0.571 8.1 104.6 11.76
12/4/2020 1:00:00 PM 6.85 44.33 0.57 8.1 89.01 11.75
12/4/2020 1:15:00 PM 6.87 44.366 0.57 8.1 102 11.74
12/4/2020 1:30:00 PM 6.9 44.42 0.575 8.11 103.5 11.74
12/4/2020 1:45:00 PM 6.93 44.474 0.571 8.11 92.93 11.73
12/4/2020 2:00:00 PM 6.95 44.51 0.57 8.11 98.05 11.75
12/4/2020 2:15:00 PM 6.98 44.564 0.569 8.11 78.18 11.75
12/4/2020 2:30:00 PM 7 44.6 0.57 8.12 103.9 11.72
12/4/2020 2:45:00 PM 7.02 44.636 0.57 8.12 95.4 11.7
12/4/2020 3:00:00 PM 7.04 44.672 0.568 8.12 80 11.67
12/4/2020 3:15:00 PM 7.07 44.726 0.568 8.12 66.98 11.67
12/4/2020 3:30:00 PM 7.1 44.78 0.569 8.12 73.94 11.65
12/4/2020 3:45:00 PM 7.12 44.816 0.57 8.12 81.21 11.64
12/4/2020 4:00:00 PM 7.13 44.834 0.57 8.12 86.29 11.59
12/4/2020 4:15:00 PM 7.15 44.87 0.574 8.12 82.33 11.54
12/4/2020 4:30:00 PM 7.16 44.888 0.57 8.13 93.26 11.5
12/4/2020 4:45:00 PM 7.17 44.906 0.57 8.12 92.94 11.45
12/4/2020 5:00:00 PM 7.18 44.924 0.572 8.12 107 11.41
12/4/2020 5:15:00 PM 7.19 44.942 0.574 8.12 97.25 11.39
12/4/2020 5:30:00 PM 7.2 44.96 0.571 8.12 80.86 11.36
12/4/2020 5:45:00 PM 7.21 44.978 0.575 8.12 80.92 11.31
12/4/2020 6:00:00 PM 7.21 44.978 0.575 8.12 100 11.28
12/4/2020 6:15:00 PM 7.22 44.996 0.575 8.12 96.12 11.25
12/4/2020 6:30:00 PM 7.22 44.996 0.576 8.11 92.94 11.23
12/4/2020 6:45:00 PM 7.23 45.014 0.571 8.11 112.3 11.2
12/4/2020 7:00:00 PM 7.23 45.014 0.57 8.11 67.45 11.17
12/4/2020 7:15:00 PM 7.23 45.014 0.57 8.1 68.52 11.14
12/4/2020 7:30:00 PM 7.23 45.014 0.571 8.1 55.59 11.11
12/4/2020 7:45:00 PM 7.23 45.014 0.57 8.1 102.4 11.09
12/4/2020 8:00:00 PM 7.24 45.032 0.573 8.1 81.08 11.06
12/4/2020 8:15:00 PM 7.24 45.032 0.571 8.09 66.01 11.03
12/4/2020 8:30:00 PM 7.24 45.032 0.572 8.09 49.86 10.99
12/4/2020 8:45:00 PM 7.25 45.05 0.572 8.09 31.25 10.99
12/4/2020 9:00:00 PM 7.25 45.05 0.574 8.09 25.32 10.97
12/4/2020 9:15:00 PM 7.26 45.068 0.574 8.09 29.57 10.94
12/4/2020 9:30:00 PM 7.26 45.068 0.572 8.08 65.36 10.94
12/4/2020 9:45:00 PM 7.27 45.086 0.577 8.08 85.01 10.93
12/4/2020 10:00:00 PM 7.29 45.122 0.577 8.08 69.91 10.9
12/4/2020 10:15:00 PM 7.3 45.14 0.578 8.07 95.63 10.89
12/4/2020 10:30:00 PM 7.32 45.176 0.577 8.07 71.28 10.86
12/4/2020 10:45:00 PM 7.33 45.194 0.577 8.07 59.44 10.86
12/4/2020 11:00:00 PM 7.34 45.212 0.576 8.06 37.65 10.82
12/4/2020 11:15:00 PM 7.36 45.248 0.575 8.06 58.81 10.79
12/4/2020 11:30:00 PM 7.38 45.284 0.576 8.06 36.11 10.79
12/4/2020 11:45:00 PM 7.4 45.32 0.575 8.05 69.51 10.78
12/5/2020 12:00:00 AM 7.4 45.32 0.575 8.05 71.99 10.77
12/5/2020 12:15:00 AM 7.41 45.338 0.574 8.04 67.16 10.76
12/5/2020 12:30:00 AM 7.42 45.356 0.574 8.04 98.29 10.73
12/5/2020 12:45:00 AM 7.43 45.374 0.573 8.04 91.43 10.72
12/5/2020 1:00:00 AM 7.43 45.374 0.573 8.04 54.27 10.72
12/5/2020 1:15:00 AM 7.44 45.392 0.573 8.04 100.6 10.72
12/5/2020 1:30:00 AM 7.44 45.392 0.572 8.03 77.77 10.68
12/5/2020 1:45:00 AM 7.45 45.41 0.571 8.04 75.59 10.67
12/5/2020 2:00:00 AM 7.46 45.428 0.57 8.03 86.67 10.67
12/5/2020 2:15:00 AM 7.47 45.446 0.57 8.03 62.53 10.69
12/5/2020 2:30:00 AM 7.49 45.482 0.568 8.03 42.98 10.67
12/5/2020 2:45:00 AM 7.49 45.482 0.564 8.03 48.96 10.65
12/5/2020 3:00:00 AM 7.51 45.518 0.562 8.03 46.93 10.63
12/5/2020 3:15:00 AM 7.51 45.518 0.559 8.02 34.28 10.63
12/5/2020 3:30:00 AM 7.54 45.572 0.555 8.02 42.17 10.63
12/5/2020 3:45:00 AM 7.55 45.59 0.557 8.01 36.58 10.65
12/5/2020 4:00:00 AM 7.55 45.59 0.553 8.02 34.15 10.64
12/5/2020 4:15:00 AM 7.55 45.59 0.551 8.01 32.96 10.64
12/5/2020 4:30:00 AM 7.55 45.59 0.547 8.01 49.57 10.64
12/5/2020 4:45:00 AM 7.55 45.59 0.549 8.01 41.66 10.65
12/5/2020 5:00:00 AM 7.55 45.59 0.547 8 36.45 10.62
12/5/2020 5:15:00 AM 7.55 45.59 0.545 8 35.98 10.63
12/5/2020 5:30:00 AM 7.54 45.572 0.543 8 39.22 10.63
12/5/2020 5:45:00 AM 7.54 45.572 0.541 7.99 42.09 10.63
12/5/2020 6:00:00 AM 7.53 45.554 0.537 7.99 39.96 10.63
12/5/2020 6:15:00 AM 7.54 45.572 0.536 7.99 35.2 10.64
12/5/2020 6:30:00 AM 7.54 45.572 0.534 7.99 37.68 10.62
12/5/2020 6:45:00 AM 7.54 45.572 0.533 7.99 41.78 10.63
12/5/2020 7:00:00 AM 7.57 45.626 0.532 7.99 38.36 10.62
12/5/2020 7:15:00 AM 7.58 45.644 0.53 7.99 38.38 10.61
12/5/2020 7:30:00 AM 7.61 45.698 0.528 7.99 45.52 10.63
12/5/2020 7:45:00 AM 7.63 45.734 0.524 7.99 44.25 10.62
12/5/2020 8:00:00 AM 7.65 45.77 0.522 7.98 44.98 10.63
12/5/2020 8:15:00 AM 7.67 45.806 0.518 7.98 51.78 10.63
12/5/2020 8:30:00 AM 7.66 45.788 0.515 7.98 45.98 10.63
12/5/2020 8:45:00 AM 7.69 45.842 0.514 7.98 43.72 10.64
12/5/2020 9:00:00 AM 7.71 45.878 0.516 7.98 43.58 10.66
12/5/2020 9:15:00 AM 7.76 45.968 0.515 7.98 43.77 10.69
12/5/2020 9:30:00 AM 7.79 46.022 0.514 7.98 53.35 10.71
12/5/2020 9:45:00 AM 7.81 46.058 0.513 7.98 46.65 10.77
12/5/2020 10:00:00 AM 7.82 46.076 0.512 7.98 39.08 10.77
12/5/2020 10:15:00 AM 7.84 46.112 0.512 7.98 36.35 10.8
12/5/2020 10:30:00 AM 7.86 46.148 0.512 7.98 43.51 10.81
12/5/2020 10:45:00 AM 7.87 46.166 0.512 7.98 42.98 10.84
12/5/2020 11:00:00 AM 7.93 46.274 0.514 7.98 50.02 10.9
12/5/2020 11:15:00 AM 7.98 46.364 0.514 7.98 48.09 10.96
12/5/2020 11:30:00 AM 8.01 46.418 0.514 7.98 46.49 10.98
12/5/2020 11:45:00 AM 8.09 46.562 0.516 7.99 40.24 11.05
12/5/2020 12:00:00 PM 8.14 46.652 0.516 7.99 52.1 11.08
12/5/2020 12:15:00 PM 8.13 46.634 0.518 7.99 36.1 11.11
12/5/2020 12:30:00 PM 8.16 46.688 0.518 7.99 45.25 11.12
12/5/2020 12:45:00 PM 8.19 46.742 0.519 7.99 40.94 11.16
12/5/2020 1:00:00 PM 8.19 46.742 0.52 8 39.4 11.19
12/5/2020 1:15:00 PM 8.2 46.76 0.521 8 49.85 11.18
12/5/2020 1:30:00 PM 8.21 46.778 0.521 8 43.36 11.19
12/5/2020 1:45:00 PM 8.21 46.778 0.521 8 39.6 11.18
12/5/2020 2:00:00 PM 8.21 46.778 0.521 8.01 32.99 11.18
12/5/2020 2:15:00 PM 8.24 46.832 0.521 8.01 43.64 11.22
12/5/2020 2:30:00 PM 8.25 46.85 0.521 8.01 33.77 11.24
12/5/2020 2:45:00 PM 8.25 46.85 0.521 8.01 40.79 11.23
12/5/2020 3:00:00 PM 8.24 46.832 0.521 8.02 52.27 11.21
12/5/2020 3:15:00 PM 8.23 46.814 0.522 8.02 44.63 11.2
12/5/2020 3:30:00 PM 8.23 46.814 0.523 8.02 33.6 11.19
12/5/2020 3:45:00 PM 8.21 46.778 0.524 8.02 49.32 11.15
12/5/2020 4:00:00 PM 8.19 46.742 0.526 8.01 40.7 11.12
12/5/2020 4:15:00 PM 8.17 46.706 0.529 8.02 38.36 11.09
12/5/2020 4:30:00 PM 8.15 46.67 0.53 8.02 42.16 11.05
12/5/2020 4:45:00 PM 8.14 46.652 0.533 8.02 31.1 11.03
12/5/2020 5:00:00 PM 8.11 46.598 0.534 8.02 48.85 11.01
12/5/2020 5:15:00 PM 8.09 46.562 0.537 8.02 41.93 10.97
12/5/2020 5:30:00 PM 8.06 46.508 0.54 8.02 47.93 10.97
12/5/2020 5:45:00 PM 8.05 46.49 0.541 8.02 42.33 10.93
12/5/2020 6:00:00 PM 8.03 46.454 0.543 8.02 46.04 10.88
12/5/2020 6:15:00 PM 8.01 46.418 0.546 8.02 50.85 10.86
12/5/2020 6:30:00 PM 7.99 46.382 0.548 8.02 38.31 10.81
12/5/2020 6:45:00 PM 7.97 46.346 0.55 8.02 45.65 10.79
12/5/2020 7:00:00 PM 7.95 46.31 0.55 8.01 37.31 10.77
12/5/2020 7:15:00 PM 7.93 46.274 0.551 8.01 37.03 10.74
12/5/2020 7:30:00 PM 7.91 46.238 0.549 8.01 41.15 10.73
12/5/2020 7:45:00 PM 7.89 46.202 0.549 8 45.66 10.7
12/5/2020 8:00:00 PM 7.87 46.166 0.549 8 52.03 10.69
12/5/2020 8:15:00 PM 7.86 46.148 0.547 8 58.96 10.66
12/5/2020 8:30:00 PM 7.84 46.112 0.548 7.99 52.94 10.65
12/5/2020 8:45:00 PM 7.83 46.094 0.548 7.99 44.83 10.62
12/5/2020 9:00:00 PM 7.81 46.058 0.543 7.99 40.92 10.6
12/5/2020 9:15:00 PM 7.8 46.04 0.542 7.98 38.87 10.61
12/5/2020 9:30:00 PM 7.78 46.004 0.541 7.98 46 10.6
12/5/2020 9:45:00 PM 7.76 45.968 0.54 7.98 38.66 10.59
12/5/2020 10:00:00 PM 7.74 45.932 0.538 7.97 40.38 10.58
12/5/2020 10:15:00 PM 7.72 45.896 0.538 7.97 43.67 10.58
12/5/2020 10:30:00 PM 7.7 45.86 0.538 7.97 48.15 10.58
12/5/2020 10:45:00 PM 7.67 45.806 0.538 7.97 44.62 10.57
12/5/2020 11:00:00 PM 7.64 45.752 0.537 7.96 32.7 10.58
12/5/2020 11:15:00 PM 7.62 45.716 0.534 7.97 38.11 10.59
12/5/2020 11:30:00 PM 7.6 45.68 0.536 7.96 40.12 10.57
12/5/2020 11:45:00 PM 7.59 45.662 0.538 7.96 41 10.6
12/6/2020 12:00:00 AM 7.56 45.608 0.537 7.96 35.5 10.59
12/6/2020 12:15:00 AM 7.54 45.572 0.536 7.96 38.28 10.59
12/6/2020 12:30:00 AM 7.53 45.554 0.538 7.96 32.87 10.59
12/6/2020 12:45:00 AM 7.52 45.536 0.538 7.96 35.19 10.6
12/6/2020 1:00:00 AM 7.5 45.5 0.538 7.95 39.02 10.61
12/6/2020 1:15:00 AM 7.48 45.464 0.541 7.95 41.82 10.6
12/6/2020 1:30:00 AM 7.46 45.428 0.54 7.96 43.5 10.61
12/6/2020 1:45:00 AM 7.44 45.392 0.541 7.96 37.49 10.59
12/6/2020 2:00:00 AM 7.42 45.356 0.545 7.95 41.77 10.61
12/6/2020 2:15:00 AM 7.4 45.32 0.546 7.95 36.88 10.61
12/6/2020 2:30:00 AM 7.38 45.284 0.548 7.95 37.89 10.62
12/6/2020 2:45:00 AM 7.36 45.248 0.55 7.95 31.62 10.61
12/6/2020 3:00:00 AM 7.33 45.194 0.551 7.95 36.49 10.62
12/6/2020 3:15:00 AM 7.3 45.14 0.553 7.95 37.61 10.63
12/6/2020 3:30:00 AM 7.27 45.086 0.553 7.95 49.94 10.62
12/6/2020 3:45:00 AM 7.23 45.014 0.551 7.95 44.64 10.62
12/6/2020 4:00:00 AM 7.19 44.942 0.552 7.95 38.1 10.63
12/6/2020 4:15:00 AM 7.16 44.888 0.553 7.95 44.2 10.63
12/6/2020 4:30:00 AM 7.11 44.798 0.552 7.95 38.84 10.63
12/6/2020 4:45:00 AM 7.08 44.744 0.552 7.95 38.78 10.64
12/6/2020 5:00:00 AM 7.04 44.672 0.551 7.95 36.58 10.65
12/6/2020 5:15:00 AM 7 44.6 0.549 7.95 44 10.65
12/6/2020 5:30:00 AM 6.96 44.528 0.548 7.94 35.04 10.65
12/6/2020 5:45:00 AM 6.92 44.456 0.548 7.94 37.22 10.68
12/6/2020 6:00:00 AM 6.89 44.402 0.544 7.94 40.6 10.68
12/6/2020 6:15:00 AM 6.85 44.33 0.541 7.94 39.78 10.68
12/6/2020 6:30:00 AM 6.81 44.258 0.54 7.94 46.64 10.69
12/6/2020 6:45:00 AM 6.77 44.186 0.539 7.94 37.3 10.69
12/6/2020 7:00:00 AM 6.73 44.114 0.537 7.94 42.36 10.7
12/6/2020 7:15:00 AM 6.69 44.042 0.537 7.93 44.13 10.71
12/6/2020 7:30:00 AM 6.66 43.988 0.537 7.93 39.97 10.72
12/6/2020 7:45:00 AM 6.62 43.916 0.535 7.93 38.85 10.74
12/6/2020 8:00:00 AM 6.59 43.862 0.534 7.93 40.73 10.77
12/6/2020 8:15:00 AM 6.56 43.808 0.536 7.93 42.92 10.81
12/6/2020 8:30:00 AM 6.53 43.754 0.534 7.93 45.55 10.83
12/6/2020 8:45:00 AM 6.52 43.736 0.533 7.93 45.49 10.86
12/6/2020 9:00:00 AM 6.49 43.682 0.532 7.94 43.51 10.88
12/6/2020 9:15:00 AM 6.48 43.664 0.537 7.93 39.56 10.93
12/6/2020 9:30:00 AM 6.48 43.664 0.53 7.94 43.56 10.98
12/6/2020 9:45:00 AM 6.49 43.682 0.532 7.94 39.19 11.06
12/6/2020 10:00:00 AM 6.52 43.736 0.532 7.94 47.81 11.14
12/6/2020 10:15:00 AM 6.59 43.862 0.531 7.95 42.94 11.21
12/6/2020 10:30:00 AM 6.63 43.934 0.529 7.95 40.42 11.27
12/6/2020 10:45:00 AM 6.7 44.06 0.529 7.95 40.77 11.36
12/6/2020 11:00:00 AM 6.74 44.132 0.526 7.95 41.53 11.43
12/6/2020 11:15:00 AM 6.73 44.114 0.527 7.96 37.09 11.47
12/6/2020 11:30:00 AM 6.81 44.258 0.528 7.96 38.64 11.52
12/6/2020 11:45:00 AM 6.8 44.24 0.527 7.96 43.78 11.58
12/6/2020 12:00:00 PM 6.73 44.114 0.525 7.97 44.34 11.58
12/6/2020 12:15:00 PM 6.77 44.186 0.525 7.97 44.73 11.6
12/6/2020 12:30:00 PM 6.84 44.312 0.523 7.97 45.06 11.66
12/6/2020 12:45:00 PM 6.89 44.402 0.526 7.98 45.4 11.72
12/6/2020 1:00:00 PM 6.94 44.492 0.524 7.99 45.35 11.79
12/6/2020 1:15:00 PM 7 44.6 0.523 7.99 43.85 11.8
12/6/2020 1:30:00 PM 7.06 44.708 0.524 8 42.94 11.85
12/6/2020 1:45:00 PM 7.08 44.744 0.523 7.99 41.43 11.87
12/6/2020 2:00:00 PM 7.08 44.744 0.523 8 45.19 11.88
12/6/2020 2:15:00 PM 7.09 44.762 0.523 8 44.34 11.85
12/6/2020 2:30:00 PM 7.09 44.762 0.52 8 39.01 11.89
12/6/2020 2:45:00 PM 7.07 44.726 0.521 8.01 31.54 11.86
12/6/2020 3:00:00 PM 7.07 44.726 0.525 8.02 56.81 11.86
12/6/2020 3:15:00 PM 7.07 44.726 0.527 8.02 52.72 11.84
12/6/2020 3:30:00 PM 7.07 44.726 0.52 8.02 45.1 11.83
12/6/2020 3:45:00 PM 7.06 44.708 0.52 8.02 44.5 11.79
12/6/2020 4:00:00 PM 7.05 44.69 0.517 8.03 45.13 11.75
12/6/2020 4:15:00 PM 7.02 44.636 0.515 8.03 42.27 11.72
12/6/2020 4:30:00 PM 7 44.6 0.513 8.03 52.52 11.69
12/6/2020 4:45:00 PM 6.97 44.546 0.515 8.03 42.27 11.63
12/6/2020 5:00:00 PM 6.94 44.492 0.515 8.03 56.55 11.61
12/6/2020 5:15:00 PM 6.91 44.438 0.519 8.03 44.74 11.57
12/6/2020 5:30:00 PM 6.87 44.366 0.519 8.03 36.76 11.51
12/6/2020 5:45:00 PM 6.82 44.276 0.518 8.02 43.49 11.48
12/6/2020 6:00:00 PM 6.78 44.204 0.518 8.02 39.97 11.45
12/6/2020 6:15:00 PM 6.73 44.114 0.517 8.02 44.3 11.41
12/6/2020 6:30:00 PM 6.68 44.024 0.516 8.02 47.86 11.37
12/6/2020 6:45:00 PM 6.63 43.934 0.514 8.01 33.84 11.33
12/6/2020 7:00:00 PM 6.58 43.844 0.514 8.01 42.06 11.29
12/6/2020 7:15:00 PM 6.54 43.772 0.512 8.01 44.4 11.26
12/6/2020 7:30:00 PM 6.49 43.682 0.511 8 50.61 11.22
12/6/2020 7:45:00 PM 6.44 43.592 0.512 8 41.29 11.21
12/6/2020 8:00:00 PM 6.38 43.484 0.511 8 48.63 11.18
12/6/2020 8:15:00 PM 6.33 43.394 0.509 7.99 52.69 11.15
12/6/2020 8:30:00 PM 6.28 43.304 0.509 7.99 46.56 11.14
12/6/2020 8:45:00 PM 6.23 43.214 0.508 7.99 44.33 11.12
12/6/2020 9:00:00 PM 6.17 43.106 0.507 7.98 50.85 11.1
12/6/2020 9:15:00 PM 6.12 43.016 0.506 7.98 45.3 11.09
12/6/2020 9:30:00 PM 6.05 42.89 0.505 7.98 39.57 11.09
12/6/2020 9:45:00 PM 6.01 42.818 0.504 7.97 39.52 11.08
12/6/2020 10:00:00 PM 5.96 42.728 0.503 7.97 53.75 11.06
12/6/2020 10:15:00 PM 5.91 42.638 0.502 7.97 48.7 11.07
12/6/2020 10:30:00 PM 5.85 42.53 0.502 7.97 42.73 11.07
12/6/2020 10:45:00 PM 5.8 42.44 0.501 7.96 48.83 11.08
12/6/2020 11:00:00 PM 5.76 42.368 0.5 7.96 41.12 11.06
12/6/2020 11:15:00 PM 5.7 42.26 0.497 7.96 47.5 11.07
12/6/2020 11:30:00 PM 5.66 42.188 0.497 7.96 53.18 11.08
12/6/2020 11:45:00 PM 5.62 42.116 0.495 7.96 70.88 11.1
12/7/2020 12:00:00 AM 5.57 42.026 0.497 7.95 50.09 11.1
12/7/2020 12:15:00 AM 5.53 41.954 0.496 7.95 51.16 11.11
12/7/2020 12:30:00 AM 5.48 41.864 0.496 7.95 53.09 11.12
12/7/2020 12:45:00 AM 5.44 41.792 0.494 7.95 57.3 11.12
12/7/2020 1:00:00 AM 5.39 41.702 0.495 7.95 47.84 11.13
12/7/2020 1:15:00 AM 5.35 41.63 0.492 7.95 51.74 11.14
12/7/2020 1:30:00 AM 5.31 41.558 0.493 7.95 56.04 11.17
12/7/2020 1:45:00 AM 5.27 41.486 0.492 7.95 45.22 11.19
12/7/2020 2:00:00 AM 5.23 41.414 0.491 7.95 46.99 11.19
12/7/2020 2:15:00 AM 5.18 41.324 0.49 7.95 44.3 11.2
12/7/2020 2:30:00 AM 5.15 41.27 0.49 7.95 49.64 11.22
12/7/2020 2:45:00 AM 5.12 41.216 0.49 7.95 52.98 11.23
12/7/2020 3:00:00 AM 5.08 41.144 0.489 7.95 58.47 11.24
12/7/2020 3:15:00 AM 5.05 41.09 0.488 7.94 54.04 11.26
12/7/2020 3:30:00 AM 5.01 41.018 0.488 7.95 45.82 11.26
12/7/2020 3:45:00 AM 4.97 40.946 0.487 7.95 56.04 11.29
12/7/2020 4:00:00 AM 4.94 40.892 0.487 7.95 54.17 11.3
12/7/2020 4:15:00 AM 4.91 40.838 0.487 7.95 49.05 11.31
12/7/2020 4:30:00 AM 4.88 40.784 0.487 7.95 63.89 11.33
12/7/2020 4:45:00 AM 4.85 40.73 0.487 7.95 53.6 11.33
12/7/2020 5:00:00 AM 4.81 40.658 0.489 7.95 48.99 11.35
12/7/2020 5:15:00 AM 4.78 40.604 0.488 7.95 54.56 11.35
12/7/2020 5:30:00 AM 4.75 40.55 0.488 7.95 46.98 11.36
12/7/2020 5:45:00 AM 4.71 40.478 0.488 7.95 55.98 11.38
12/7/2020 6:00:00 AM 4.69 40.442 0.489 7.95 47.72 11.4
12/7/2020 6:15:00 AM 4.66 40.388 0.489 7.95 49.99 11.41
12/7/2020 6:30:00 AM 4.64 40.352 0.49 7.95 43.97 11.43
12/7/2020 6:45:00 AM 4.62 40.316 0.491 7.95 57.34 11.43
12/7/2020 7:00:00 AM 4.59 40.262 0.491 7.95 44.98 11.43
12/7/2020 7:15:00 AM 4.57 40.226 0.492 7.95 53.86 11.45
12/7/2020 7:30:00 AM 4.55 40.19 0.494 7.95 51.48 11.47
12/7/2020 7:45:00 AM 4.55 40.19 0.494 7.95 54.87 11.5
12/7/2020 8:00:00 AM 4.54 40.172 0.494 7.95 51.36 11.52
12/7/2020 8:15:00 AM 4.55 40.19 0.495 7.95 51.97 11.54
12/7/2020 8:30:00 AM 4.54 40.172 0.497 7.96 46.01 11.59
12/7/2020 8:45:00 AM 4.55 40.19 0.496 7.96 59.45 11.63
12/7/2020 9:00:00 AM 4.56 40.208 0.498 7.96 51.9 11.68
12/7/2020 9:15:00 AM 4.58 40.244 0.499 7.96 49.5 11.72
12/7/2020 9:30:00 AM 4.61 40.298 0.5 7.97 41.28 11.79
12/7/2020 9:45:00 AM 4.66 40.388 0.5 7.97 45.93 11.88
12/7/2020 10:00:00 AM 4.7 40.46 0.502 7.98 47.73 11.93
12/7/2020 10:15:00 AM 4.75 40.55 0.502 7.98 57.11 11.98
12/7/2020 10:30:00 AM 4.79 40.622 0.504 7.99 47.91 12.05
12/7/2020 10:45:00 AM 4.89 40.802 0.504 8 49.71 12.12
12/7/2020 11:00:00 AM 5 41 0.506 8 44.15 12.18
12/7/2020 11:15:00 AM 5.1 41.18 0.507 8 45.77 12.25
12/7/2020 11:30:00 AM 5.19 41.342 0.509 8.01 57.68 12.3
12/7/2020 11:45:00 AM 5.24 41.432 0.51 8.01 44.17 12.36
12/7/2020 12:00:00 PM 5.29 41.522 0.511 8.02 60.61 12.4
12/7/2020 12:15:00 PM 5.34 41.612 0.512 8.03 53.27 12.44
12/7/2020 12:30:00 PM 5.37 41.666 0.513 8.03 45.47 12.48
12/7/2020 12:45:00 PM 5.41 41.738 0.514 8.04 45.01 12.51
12/7/2020 1:00:00 PM 5.45 41.81 0.516 8.04 48.15 12.53
12/7/2020 1:15:00 PM 5.49 41.882 0.517 8.05 42.93 12.55
12/7/2020 1:30:00 PM 5.55 41.99 0.518 8.05 51.53 12.59
12/7/2020 1:45:00 PM 5.57 42.026 0.518 8.06 46.32 12.6
12/7/2020 2:00:00 PM 5.59 42.062 0.519 8.06 52.31 12.62
12/7/2020 2:15:00 PM 5.61 42.098 0.52 8.07 53.95 12.61
12/7/2020 2:30:00 PM 5.62 42.116 0.522 8.07 60.85 12.61
12/7/2020 2:45:00 PM 5.63 42.134 0.522 8.08 48.48 12.6
12/7/2020 3:00:00 PM 5.62 42.116 0.523 8.08 45.42 12.58
12/7/2020 3:15:00 PM 5.63 42.134 0.524 8.09 50.22 12.55
12/7/2020 3:30:00 PM 5.63 42.134 0.525 8.09 58.15 12.53
12/7/2020 3:45:00 PM 5.63 42.134 0.526 8.09 39.37 12.51
12/7/2020 4:00:00 PM 5.64 42.152 0.527 8.09 45.76 12.49
12/7/2020 4:15:00 PM 5.63 42.134 0.528 8.1 46.57 12.46
12/7/2020 4:30:00 PM 5.62 42.116 0.529 8.1 33.62 12.43
12/7/2020 4:45:00 PM 5.58 42.044 0.53 8.1 50.29 12.38
12/7/2020 5:00:00 PM 5.57 42.026 0.53 8.1 41.01 12.34
12/7/2020 5:15:00 PM 5.55 41.99 0.531 8.11 40.73 12.3
12/7/2020 5:30:00 PM 5.52 41.936 0.534 8.11 34.63 12.26
12/7/2020 5:45:00 PM 5.48 41.864 0.533 8.11 38.04 12.21
12/7/2020 6:00:00 PM 5.43 41.774 0.533 8.11 43.99 12.16
12/7/2020 6:15:00 PM 5.39 41.702 0.534 8.11 40.86 12.13
12/7/2020 6:30:00 PM 5.34 41.612 0.535 8.11 50.16 12.08
12/7/2020 6:45:00 PM 5.29 41.522 0.536 8.11 38.88 12.04
12/7/2020 7:00:00 PM 5.25 41.45 0.537 8.1 44.61 12.01
12/7/2020 7:15:00 PM 5.2 41.36 0.538 8.1 35.5 11.97
12/7/2020 7:30:00 PM 5.15 41.27 0.539 8.1 32.16 11.93
12/7/2020 7:45:00 PM 5.11 41.198 0.54 8.1 37.26 11.9
12/7/2020 8:00:00 PM 5.07 41.126 0.542 8.1 36.83 11.87
12/7/2020 8:15:00 PM 5.03 41.054 0.542 8.1 31.87 11.83
12/7/2020 8:30:00 PM 4.98 40.964 0.543 8.09 33.03 11.82
12/7/2020 8:45:00 PM 4.94 40.892 0.543 8.09 35.38 11.8
12/7/2020 9:00:00 PM 4.9 40.82 0.546 8.09 31.17 11.78
12/7/2020 9:15:00 PM 4.85 40.73 0.547 8.09 32.75 11.76
12/7/2020 9:30:00 PM 4.81 40.658 0.548 8.09 32.13 11.74
12/7/2020 9:45:00 PM 4.76 40.568 0.547 8.08 37.32 11.74
12/7/2020 10:00:00 PM 4.72 40.496 0.548 8.08 31.94 11.72
12/7/2020 10:15:00 PM 4.67 40.406 0.549 8.08 31.45 11.72
12/7/2020 10:30:00 PM 4.63 40.334 0.55 8.08 33.03 11.69
12/7/2020 10:45:00 PM 4.59 40.262 0.551 8.08 30.34 11.7
12/7/2020 11:00:00 PM 4.55 40.19 0.552 8.07 35.01 11.69
12/7/2020 11:15:00 PM 4.51 40.118 0.553 8.07 31.75 11.68
12/7/2020 11:30:00 PM 4.48 40.064 0.553 8.07 35.03 11.68
12/7/2020 11:45:00 PM 4.43 39.974 0.554 8.07 30.68 11.67
12/8/2020 12:00:00 AM 4.4 39.92 0.555 8.07 34.6 11.7
12/8/2020 12:15:00 AM 4.36 39.848 0.556 8.07 32.95 11.69
12/8/2020 12:30:00 AM 4.33 39.794 0.556 8.06 33.57 11.69
12/8/2020 12:45:00 AM 4.3 39.74 0.556 8.06 36.77 11.71
12/8/2020 1:00:00 AM 4.27 39.686 0.557 8.06 31.31 11.72
12/8/2020 1:15:00 AM 4.26 39.668 0.559 8.06 35.49 11.72
12/8/2020 1:30:00 AM 4.23 39.614 0.558 8.06 28.92 11.72
12/8/2020 1:45:00 AM 4.2 39.56 0.559 8.06 33.01 11.74
12/8/2020 2:00:00 AM 4.17 39.506 0.561 8.06 38.27 11.75
12/8/2020 2:15:00 AM 4.14 39.452 0.561 8.06 30.82 11.76
12/8/2020 2:30:00 AM 4.11 39.398 0.561 8.06 34.88 11.76
12/8/2020 2:45:00 AM 4.09 39.362 0.561 8.06 33.99 11.77
12/8/2020 3:00:00 AM 4.08 39.344 0.562 8.06 30.5 11.8
12/8/2020 3:15:00 AM 4.07 39.326 0.562 8.06 32.25 11.81
12/8/2020 3:30:00 AM 4.05 39.29 0.562 8.06 30.01 11.81
12/8/2020 3:45:00 AM 4.05 39.29 0.562 8.06 31.18 11.82
12/8/2020 4:00:00 AM 4.05 39.29 0.562 8.06 32.2 11.82
12/8/2020 4:15:00 AM 4.05 39.29 0.562 8.06 28.34 11.81
12/8/2020 4:30:00 AM 4.05 39.29 0.562 8.06 34.38 11.83
12/8/2020 4:45:00 AM 4.05 39.29 0.563 8.06 30.86 11.84
12/8/2020 5:00:00 AM 4.05 39.29 0.563 8.06 32.88 11.85
12/8/2020 5:15:00 AM 4.05 39.29 0.563 8.06 39.42 11.85
12/8/2020 5:30:00 AM 4.04 39.272 0.562 8.06 31.22 11.84
12/8/2020 5:45:00 AM 4.04 39.272 0.562 8.07 27.04 11.86
12/8/2020 6:00:00 AM 4.04 39.272 0.562 8.07 29.17 11.86
12/8/2020 6:15:00 AM 4.02 39.236 0.562 8.07 29.42 11.85
12/8/2020 6:30:00 AM 3.99 39.182 0.562 8.07 30.46 11.89
12/8/2020 6:45:00 AM 3.99 39.182 0.562 8.07 30.6 11.87
12/8/2020 7:00:00 AM 3.97 39.146 0.562 8.07 30.59 11.9
12/8/2020 7:15:00 AM 3.95 39.11 0.563 8.07 25.64 11.9
12/8/2020 7:30:00 AM 3.94 39.092 0.562 8.07 23.62 11.92
12/8/2020 7:45:00 AM 3.93 39.074 0.562 8.07 26.89 11.93
12/8/2020 8:00:00 AM 3.93 39.074 0.562 8.07 27.1 11.96
12/8/2020 8:15:00 AM 3.92 39.056 0.561 8.07 26.27 12
12/8/2020 8:30:00 AM 3.92 39.056 0.562 8.08 23.65 12.02
12/8/2020 8:45:00 AM 3.91 39.038 0.561 8.08 22.62 12.06
12/8/2020 9:00:00 AM 3.9 39.02 0.56 8.08 26.18 12.09
12/8/2020 9:15:00 AM 3.91 39.038 0.561 8.08 24.03 12.13
12/8/2020 9:30:00 AM 3.93 39.074 0.56 8.09 24.99 12.19
12/8/2020 9:45:00 AM 3.97 39.146 0.559 8.09 20.06 12.25
12/8/2020 10:00:00 AM 4.02 39.236 0.559 8.09 22.39 12.31
12/8/2020 10:15:00 AM 4.1 39.38 0.559 8.09 23.43 12.37
12/8/2020 10:30:00 AM 4.19 39.542 0.558 8.1 21.26 12.43
12/8/2020 10:45:00 AM 4.3 39.74 0.558 8.1 20.5 12.51
12/8/2020 11:00:00 AM 4.4 39.92 0.558 8.1 23.79 12.55
12/8/2020 11:15:00 AM 4.48 40.064 0.558 8.11 23.54 12.61
12/8/2020 11:30:00 AM 4.58 40.244 0.558 8.11 19.69 12.66
12/8/2020 11:45:00 AM 4.62 40.316 0.558 8.11 24.45 12.7
12/8/2020 12:00:00 PM 4.65 40.37 0.558 8.12 24.32 12.75
12/8/2020 12:15:00 PM 4.69 40.442 0.558 8.12 23.9 12.76
12/8/2020 12:30:00 PM 4.73 40.514 0.558 8.13 20.43 12.81
12/8/2020 12:45:00 PM 4.78 40.604 0.558 8.13 19.39 12.82
12/8/2020 1:00:00 PM 4.85 40.73 0.558 8.14 20.61 12.86
12/8/2020 1:15:00 PM 4.91 40.838 0.558 8.14 22.11 12.89
12/8/2020 1:30:00 PM 4.96 40.928 0.558 8.14 24.46 12.92
12/8/2020 1:45:00 PM 5 41 0.558 8.15 27.05 12.92
12/8/2020 2:00:00 PM 5.06 41.108 0.558 8.15 23.37 12.96
12/8/2020 2:15:00 PM 5.11 41.198 0.558 8.15 28.25 12.98
12/8/2020 2:30:00 PM 5.13 41.234 0.558 8.16 24.62 12.99
12/8/2020 2:45:00 PM 5.15 41.27 0.559 8.16 28.11 12.97
12/8/2020 3:00:00 PM 5.16 41.288 0.559 8.16 28.75 12.95
12/8/2020 3:15:00 PM 5.16 41.288 0.559 8.16 28.87 12.92
12/8/2020 3:30:00 PM 5.17 41.306 0.559 8.16 33.75 12.88
12/8/2020 3:45:00 PM 5.17 41.306 0.559 8.17 31.42 12.86
12/8/2020 4:00:00 PM 5.18 41.324 0.56 8.17 27.74 12.83
12/8/2020 4:15:00 PM 5.18 41.324 0.56 8.18 31.57 12.8
12/8/2020 4:30:00 PM 5.17 41.306 0.561 8.17 28.39 12.72
12/8/2020 4:45:00 PM 5.16 41.288 0.559 8.18 27.28 12.7
12/8/2020 5:00:00 PM 5.14 41.252 0.56 8.18 28.24 12.65
12/8/2020 5:15:00 PM 5.12 41.216 0.564 8.18 24.9 12.59
12/8/2020 5:30:00 PM 5.09 41.162 0.563 8.18 29.97 12.57
12/8/2020 5:45:00 PM 5.06 41.108 0.564 8.18 28.42 12.52
12/8/2020 6:00:00 PM 5.02 41.036 0.565 8.18 26.27 12.48
12/8/2020 6:15:00 PM 4.99 40.982 0.567 8.18 24.56 12.44
12/8/2020 6:30:00 PM 4.95 40.91 0.565 8.18 29.64 12.4
12/8/2020 6:45:00 PM 4.92 40.856 0.566 8.18 28.68 12.37
12/8/2020 7:00:00 PM 4.88 40.784 0.569 8.18 26.06 12.32
12/8/2020 7:15:00 PM 4.84 40.712 0.569 8.18 25.97 12.27
12/8/2020 7:30:00 PM 4.82 40.676 0.568 8.17 26.1 12.24
12/8/2020 7:45:00 PM 4.79 40.622 0.569 8.17 25.92 12.19
12/8/2020 8:00:00 PM 4.76 40.568 0.569 8.17 31.34 12.16
12/8/2020 8:15:00 PM 4.73 40.514 0.57 8.17 25.23 12.13
12/8/2020 8:30:00 PM 4.7 40.46 0.572 8.17 20.39 12.1
12/8/2020 8:45:00 PM 4.67 40.406 0.572 8.16 24.73 12.06
12/8/2020 9:00:00 PM 4.64 40.352 0.572 8.16 29.38 12.05
12/8/2020 9:15:00 PM 4.61 40.298 0.573 8.16 28.12 12.03
12/8/2020 9:30:00 PM 4.58 40.244 0.572 8.16 20.25 12.01
12/8/2020 9:45:00 PM 4.55 40.19 0.572 8.16 30.21 11.99
12/8/2020 10:00:00 PM 4.52 40.136 0.574 8.15 32.4 11.97
12/8/2020 10:15:00 PM 4.5 40.1 0.575 8.15 29.39 11.96
12/8/2020 10:30:00 PM 4.46 40.028 0.575 8.15 29.84 11.96
12/8/2020 10:45:00 PM 4.43 39.974 0.575 8.15 26.39 11.94
12/8/2020 11:00:00 PM 4.4 39.92 0.575 8.15 29.83 11.93
12/8/2020 11:15:00 PM 4.37 39.866 0.575 8.14 31.06 11.92
12/8/2020 11:30:00 PM 4.34 39.812 0.574 8.14 26.61 11.91
12/8/2020 11:45:00 PM 4.3 39.74 0.575 8.14 22.52 11.92
12/9/2020 12:00:00 AM 4.27 39.686 0.574 8.13 35.51 11.91
12/9/2020 12:15:00 AM 4.23 39.614 0.574 8.13 33.59 11.92
12/9/2020 12:30:00 AM 4.2 39.56 0.574 8.13 29.2 11.92
12/9/2020 12:45:00 AM 4.16 39.488 0.576 8.13 29.16 11.9
12/9/2020 1:00:00 AM 4.13 39.434 0.574 8.12 29.86 11.91
12/9/2020 1:15:00 AM 4.09 39.362 0.573 8.12 28.03 11.93
12/9/2020 1:30:00 AM 4.08 39.344 0.572 8.12 34.84 11.93
12/9/2020 1:45:00 AM 4.07 39.326 0.571 8.12 30.84 11.94
12/9/2020 2:00:00 AM 4.06 39.308 0.572 8.12 29.03 11.94
12/9/2020 2:15:00 AM 4.05 39.29 0.571 8.12 36.5 11.95
12/9/2020 2:30:00 AM 4.04 39.272 0.571 8.12 30.69 11.95
12/9/2020 2:45:00 AM 4.03 39.254 0.571 8.12 30.13 11.96
12/9/2020 3:00:00 AM 4.02 39.236 0.571 8.12 23.44 11.96
12/9/2020 3:15:00 AM 3.99 39.182 0.57 8.11 29.15 11.97
12/9/2020 3:30:00 AM 3.97 39.146 0.57 8.11 40.4 11.98
12/9/2020 3:45:00 AM 3.96 39.128 0.569 8.11 30.48 11.99
12/9/2020 4:00:00 AM 3.95 39.11 0.569 8.11 31.44 11.99
12/9/2020 4:15:00 AM 3.93 39.074 0.569 8.11 36.3 12
12/9/2020 4:30:00 AM 3.92 39.056 0.568 8.11 36.24 11.99
12/9/2020 4:45:00 AM 3.9 39.02 0.568 8.11 36.87 11.99
12/9/2020 5:00:00 AM 3.88 38.984 0.567 8.11 31.97 12.01
12/9/2020 5:15:00 AM 3.86 38.948 0.567 8.11 34.73 12
12/9/2020 5:30:00 AM 3.84 38.912 0.567 8.11 39.54 12.02
12/9/2020 5:45:00 AM 3.83 38.894 0.566 8.11 35.1 12.02
12/9/2020 6:00:00 AM 3.84 38.912 0.566 8.11 37.17 12.04
12/9/2020 6:15:00 AM 3.85 38.93 0.566 8.11 31.09 12.03
12/9/2020 6:30:00 AM 3.85 38.93 0.565 8.11 32.78 12.03
12/9/2020 6:45:00 AM 3.85 38.93 0.565 8.11 34.81 12.03
12/9/2020 7:00:00 AM 3.85 38.93 0.565 8.11 40.71 12.03
12/9/2020 7:15:00 AM 3.84 38.912 0.566 8.11 35.19 12.04
12/9/2020 7:30:00 AM 3.84 38.912 0.566 8.11 39.19 12.05
12/9/2020 7:45:00 AM 3.84 38.912 0.566 8.11 35.39 12.04
12/9/2020 8:00:00 AM 3.84 38.912 0.566 8.11 34.72 12.07
12/9/2020 8:15:00 AM 3.85 38.93 0.566 8.11 37.76 12.1
12/9/2020 8:30:00 AM 3.87 38.966 0.566 8.11 36.54 12.15
12/9/2020 8:45:00 AM 3.89 39.002 0.566 8.11 38.7 12.18
12/9/2020 9:00:00 AM 3.93 39.074 0.566 8.11 39.14 12.22
12/9/2020 9:15:00 AM 3.96 39.128 0.566 8.11 38.29 12.26
12/9/2020 9:30:00 AM 3.99 39.182 0.566 8.11 29.13 12.3
12/9/2020 9:45:00 AM 4.04 39.272 0.566 8.12 38.45 12.37
12/9/2020 10:00:00 AM 4.06 39.308 0.564 8.12 36.72 12.39
12/9/2020 10:15:00 AM 4.1 39.38 0.562 8.12 30.18 12.42
12/9/2020 10:30:00 AM 4.13 39.434 0.563 8.12 37.41 12.46
12/9/2020 10:45:00 AM 4.14 39.452 0.565 8.13 33.42 12.47
12/9/2020 11:00:00 AM 4.14 39.452 0.565 8.13 40.19 12.47
12/9/2020 11:15:00 AM 4.17 39.506 0.565 8.13 33.25 12.5
12/9/2020 11:30:00 AM 4.21 39.578 0.563 8.13 34.61 12.57
12/9/2020 11:45:00 AM 4.27 39.686 0.569 8.14 32.84 12.61
12/9/2020 12:00:00 PM 4.32 39.776 0.565 8.14 26.98 12.66
12/9/2020 12:15:00 PM 4.36 39.848 0.571 8.14 35.54 12.7
12/9/2020 12:30:00 PM 4.4 39.92 0.573 8.15 32.08 12.69
12/9/2020 12:45:00 PM 4.45 40.01 0.571 8.15 32.49 12.74
12/9/2020 1:00:00 PM 4.49 40.082 0.569 8.16 31.12 12.77
12/9/2020 1:15:00 PM 4.52 40.136 0.569 8.16 22.99 12.8
12/9/2020 1:30:00 PM 4.55 40.19 0.569 8.16 30.8 12.77
12/9/2020 1:45:00 PM 4.59 40.262 0.572 8.16 30.68 12.79
12/9/2020 2:00:00 PM 4.63 40.334 0.573 8.17 28.4 12.81
12/9/2020 2:15:00 PM 4.66 40.388 0.575 8.17 34.72 12.83
12/9/2020 2:30:00 PM 4.69 40.442 0.576 8.17 28.74 12.82
12/9/2020 2:45:00 PM 4.72 40.496 0.576 8.18 31.69 12.81
12/9/2020 3:00:00 PM 4.76 40.568 0.575 8.18 24.02 12.81
12/9/2020 3:15:00 PM 4.8 40.64 0.578 8.18 32.5 12.84
12/9/2020 3:30:00 PM 4.83 40.694 0.579 8.19 30.4 12.85
12/9/2020 3:45:00 PM 4.85 40.73 0.58 8.19 34.9 12.83
12/9/2020 4:00:00 PM 4.86 40.748 0.581 8.19 26.02 12.79
12/9/2020 4:15:00 PM 4.87 40.766 0.58 8.19 36.55 12.73
12/9/2020 4:30:00 PM 4.88 40.784 0.581 8.19 29.5 12.67
12/9/2020 4:45:00 PM 4.88 40.784 0.582 8.19 32.2 12.66
12/9/2020 5:00:00 PM 4.89 40.802 0.583 8.2 38.27 12.6
12/9/2020 5:15:00 PM 4.89 40.802 0.583 8.2 36.75 12.55
12/9/2020 5:30:00 PM 4.9 40.82 0.585 8.19 30.39 12.53
12/9/2020 5:45:00 PM 4.9 40.82 0.585 8.19 31.35 12.47
12/9/2020 6:00:00 PM 4.9 40.82 0.59 8.19 26.66 12.45
12/9/2020 6:15:00 PM 4.9 40.82 0.59 8.19 32.36 12.39
12/9/2020 6:30:00 PM 4.9 40.82 0.593 8.19 31.93 12.36
12/9/2020 6:45:00 PM 4.91 40.838 0.592 8.19 31.5 12.31
12/9/2020 7:00:00 PM 4.91 40.838 0.593 8.19 34.74 12.28
12/9/2020 7:15:00 PM 4.91 40.838 0.589 8.19 33.73 12.24
12/9/2020 7:30:00 PM 4.91 40.838 0.59 8.19 27.87 12.2
12/9/2020 7:45:00 PM 4.9 40.82 0.591 8.18 37.61 12.16
12/9/2020 8:00:00 PM 4.9 40.82 0.594 8.18 32.02 12.13
12/9/2020 8:15:00 PM 4.9 40.82 0.594 8.18 38.06 12.09
12/9/2020 8:30:00 PM 4.9 40.82 0.594 8.18 29.15 12.07
12/9/2020 8:45:00 PM 4.9 40.82 0.595 8.17 38.7 12.01
12/9/2020 9:00:00 PM 4.9 40.82 0.593 8.17 39.4 11.99
12/9/2020 9:15:00 PM 4.89 40.802 0.596 8.17 32.04 11.98
12/9/2020 9:30:00 PM 4.89 40.802 0.596 8.16 36.67 11.94
12/9/2020 9:45:00 PM 4.9 40.82 0.596 8.16 37.39 11.9
12/9/2020 10:00:00 PM 4.9 40.82 0.597 8.16 33.59 11.89
12/9/2020 10:15:00 PM 4.9 40.82 0.598 8.15 37.42 11.87
12/9/2020 10:30:00 PM 4.9 40.82 0.598 8.15 30.2 11.85
12/9/2020 10:45:00 PM 4.91 40.838 0.599 8.15 33.5 11.82
12/9/2020 11:00:00 PM 4.91 40.838 0.599 8.14 27.79 11.81
12/9/2020 11:15:00 PM 4.91 40.838 0.597 8.14 28.58 11.8
12/9/2020 11:30:00 PM 4.91 40.838 0.6 8.14 27.46 11.76
12/9/2020 11:45:00 PM 4.92 40.856 0.603 8.13 36.06 11.76
12/10/2020 12:00:00 AM 4.92 40.856 0.603 8.13 28.08 11.75
12/10/2020 12:15:00 AM 4.92 40.856 0.603 8.13 31.74 11.74
12/10/2020 12:30:00 AM 4.93 40.874 0.6 8.12 24.8 11.73
12/10/2020 12:45:00 AM 4.93 40.874 0.604 8.12 32.89 11.73
12/10/2020 1:00:00 AM 4.94 40.892 0.599 8.12 27.21 11.71
12/10/2020 1:15:00 AM 4.94 40.892 0.599 8.12 29.86 11.7
12/10/2020 1:30:00 AM 4.95 40.91 0.599 8.12 35.29 11.7
12/10/2020 1:45:00 AM 4.96 40.928 0.603 8.12 33.76 11.7
12/10/2020 2:00:00 AM 4.97 40.946 0.601 8.12 27.66 11.7
12/10/2020 2:15:00 AM 4.97 40.946 0.6 8.11 36.18 11.69
12/10/2020 2:30:00 AM 4.98 40.964 0.6 8.11 33.06 11.69
12/10/2020 2:45:00 AM 4.99 40.982 0.603 8.11 34.74 11.66
12/10/2020 3:00:00 AM 4.99 40.982 0.603 8.11 40.55 11.68
12/10/2020 3:15:00 AM 5 41 0.605 8.11 34.31 11.68
12/10/2020 3:30:00 AM 5 41 0.602 8.11 33.1 11.68
12/10/2020 3:45:00 AM 4.99 40.982 0.604 8.11 41.28 11.67
12/10/2020 4:00:00 AM 4.97 40.946 0.602 8.11 36.83 11.67
12/10/2020 4:15:00 AM 4.95 40.91 0.608 8.11 38.6 11.67
12/10/2020 4:30:00 AM 4.93 40.874 0.608 8.11 40.93 11.68
12/10/2020 4:45:00 AM 4.91 40.838 0.608 8.11 37.36 11.67
12/10/2020 5:00:00 AM 4.9 40.82 0.608 8.11 40.25 11.67
12/10/2020 5:15:00 AM 4.88 40.784 0.608 8.1 33.49 11.69
12/10/2020 5:30:00 AM 4.86 40.748 0.609 8.1 42.63 11.68
12/10/2020 5:45:00 AM 4.84 40.712 0.609 8.1 31.26 11.68
12/10/2020 6:00:00 AM 4.83 40.694 0.609 8.1 35.38 11.68
12/10/2020 6:15:00 AM 4.82 40.676 0.61 8.1 33.15 11.69
12/10/2020 6:30:00 AM 4.79 40.622 0.61 8.1 34.32 11.7
12/10/2020 6:45:00 AM 4.78 40.604 0.61 8.1 38.79 11.7
12/10/2020 7:00:00 AM 4.75 40.55 0.61 8.1 36.52 11.73
12/10/2020 7:15:00 AM 4.73 40.514 0.61 8.1 33.54 11.73
12/10/2020 7:30:00 AM 4.71 40.478 0.61 8.1 39.16 11.74
12/10/2020 7:45:00 AM 4.69 40.442 0.61 8.1 39.56 11.75
12/10/2020 8:00:00 AM 4.69 40.442 0.61 8.1 35.92 11.79
12/10/2020 8:15:00 AM 4.7 40.46 0.61 8.11 42.2 11.85
12/10/2020 8:30:00 AM 4.72 40.496 0.61 8.11 41.54 11.9
12/10/2020 8:45:00 AM 4.72 40.496 0.61 8.11 36.18 11.94
12/10/2020 9:00:00 AM 4.73 40.514 0.61 8.11 39.72 11.97
12/10/2020 9:15:00 AM 4.78 40.604 0.609 8.11 38.05 12.02
12/10/2020 9:30:00 AM 4.86 40.748 0.609 8.11 38.24 12.09
12/10/2020 9:45:00 AM 4.93 40.874 0.609 8.12 39.39 12.18
12/10/2020 10:00:00 AM 4.98 40.964 0.609 8.12 46.91 12.24
12/10/2020 10:15:00 AM 5.05 41.09 0.609 8.12 32.96 12.3
12/10/2020 10:30:00 AM 5.11 41.198 0.608 8.13 46.02 12.36
12/10/2020 10:45:00 AM 5.24 41.432 0.608 8.13 39.53 12.45
12/10/2020 11:00:00 AM 5.34 41.612 0.608 8.13 42.41 12.5
12/10/2020 11:15:00 AM 5.46 41.828 0.608 8.14 37.81 12.54
12/10/2020 11:30:00 AM 5.56 42.008 0.608 8.14 43.7 12.56
12/10/2020 11:45:00 AM 5.64 42.152 0.608 8.14 49.67 12.64
12/10/2020 12:00:00 PM 5.7 42.26 0.607 8.15 38.25 12.69
12/10/2020 12:15:00 PM 5.75 42.35 0.607 8.15 44.42 12.73
12/10/2020 12:30:00 PM 5.8 42.44 0.607 8.15 47.9 12.76
12/10/2020 12:45:00 PM 5.86 42.548 0.607 8.16 44.55 12.77
12/10/2020 1:00:00 PM 5.91 42.638 0.607 8.16 35.96 12.81
12/10/2020 1:15:00 PM 5.97 42.746 0.607 8.17 31.47 12.82
12/10/2020 1:30:00 PM 6.03 42.854 0.607 8.17 44.04 12.83
12/10/2020 1:45:00 PM 6.07 42.926 0.607 8.17 36.86 12.84
12/10/2020 2:00:00 PM 6.11 42.998 0.607 8.18 39.68 12.86
12/10/2020 2:15:00 PM 6.15 43.07 0.608 8.18 41.67 12.83
12/10/2020 2:30:00 PM 6.18 43.124 0.608 8.18 41.04 12.84
12/10/2020 2:45:00 PM 6.2 43.16 0.608 8.19 37.8 12.81
12/10/2020 3:00:00 PM 6.22 43.196 0.608 8.19 39 12.78
12/10/2020 3:15:00 PM 6.25 43.25 0.608 8.19 36.81 12.75
12/10/2020 3:30:00 PM 6.28 43.304 0.608 8.2 42.16 12.72
12/10/2020 3:45:00 PM 6.31 43.358 0.609 8.2 41.29 12.69
12/10/2020 4:00:00 PM 6.34 43.412 0.609 8.2 40.97 12.66
12/10/2020 4:15:00 PM 6.36 43.448 0.609 8.21 41.35 12.6
12/10/2020 4:30:00 PM 6.36 43.448 0.61 8.21 38.09 12.55
12/10/2020 4:45:00 PM 6.36 43.448 0.61 8.21 49.37 12.5
12/10/2020 5:00:00 PM 6.35 43.43 0.61 8.21 40.06 12.44
12/10/2020 5:15:00 PM 6.34 43.412 0.611 8.21 39.01 12.38
12/10/2020 5:30:00 PM 6.33 43.394 0.612 8.21 41.95 12.34
12/10/2020 5:45:00 PM 6.3 43.34 0.612 8.21 37.43 12.28
12/10/2020 6:00:00 PM 6.28 43.304 0.613 8.21 34.18 12.23
12/10/2020 6:15:00 PM 6.24 43.232 0.613 8.22 40.84 12.19
12/10/2020 6:30:00 PM 6.21 43.178 0.613 8.21 46.7 12.12
12/10/2020 6:45:00 PM 6.17 43.106 0.614 8.21 34.53 12.07
12/10/2020 7:00:00 PM 6.13 43.034 0.615 8.21 46.45 12.04
12/10/2020 7:15:00 PM 6.09 42.962 0.615 8.21 46.79 11.98
12/10/2020 7:30:00 PM 6.05 42.89 0.615 8.21 39.3 11.95
12/10/2020 7:45:00 PM 6 42.8 0.616 8.2 49.42 11.91
12/10/2020 8:00:00 PM 5.95 42.71 0.616 8.2 47.28 11.87
12/10/2020 8:15:00 PM 5.91 42.638 0.617 8.2 42.73 11.83
12/10/2020 8:30:00 PM 5.86 42.548 0.617 8.19 44.66 11.8
12/10/2020 8:45:00 PM 5.81 42.458 0.618 8.19 45.12 11.77
12/10/2020 9:00:00 PM 5.76 42.368 0.618 8.19 43.17 11.76
12/10/2020 9:15:00 PM 5.72 42.296 0.619 8.18 42.99 11.74
12/10/2020 9:30:00 PM 5.67 42.206 0.62 8.18 42.25 11.69
12/10/2020 9:45:00 PM 5.62 42.116 0.62 8.17 36.92 11.7
12/10/2020 10:00:00 PM 5.57 42.026 0.621 8.17 40.59 11.68
12/10/2020 10:15:00 PM 5.52 41.936 0.621 8.17 37.22 11.67
12/10/2020 10:30:00 PM 5.48 41.864 0.622 8.16 38.67 11.65
12/10/2020 10:45:00 PM 5.43 41.774 0.622 8.16 44.91 11.64
12/10/2020 11:00:00 PM 5.39 41.702 0.622 8.16 41.15 11.64
12/10/2020 11:15:00 PM 5.34 41.612 0.623 8.15 44.05 11.62
12/10/2020 11:30:00 PM 5.3 41.54 0.623 8.15 36.01 11.62
12/10/2020 11:45:00 PM 5.26 41.468 0.624 8.14 40.71 11.6
12/11/2020 12:00:00 AM 5.22 41.396 0.624 8.14 37.46 11.62
12/11/2020 12:15:00 AM 5.18 41.324 0.625 8.14 40.92 11.61
12/11/2020 12:30:00 AM 5.15 41.27 0.625 8.13 40.68 11.61
12/11/2020 12:45:00 AM 5.11 41.198 0.625 8.13 41.08 11.61
12/11/2020 1:00:00 AM 5.07 41.126 0.626 8.13 34.09 11.61
12/11/2020 1:15:00 AM 5.04 41.072 0.626 8.13 38.18 11.62
12/11/2020 1:30:00 AM 5 41 0.626 8.13 44.1 11.62
12/11/2020 1:45:00 AM 4.97 40.946 0.626 8.12 37.35 11.63
12/11/2020 2:00:00 AM 4.93 40.874 0.626 8.12 38.91 11.63
12/11/2020 2:15:00 AM 4.9 40.82 0.627 8.12 40.54 11.63
12/11/2020 2:30:00 AM 4.87 40.766 0.627 8.12 37.06 11.63
12/11/2020 2:45:00 AM 4.83 40.694 0.627 8.11 40.94 11.66
12/11/2020 3:00:00 AM 4.81 40.658 0.627 8.11 41.11 11.67
12/11/2020 3:15:00 AM 4.78 40.604 0.627 8.11 44.02 11.67
12/11/2020 3:30:00 AM 4.75 40.55 0.627 8.11 39.54 11.67
12/11/2020 3:45:00 AM 4.73 40.514 0.628 8.11 35.91 11.69
12/11/2020 4:00:00 AM 4.7 40.46 0.628 8.11 45.92 11.7
12/11/2020 4:15:00 AM 4.68 40.424 0.628 8.11 42.09 11.71
12/11/2020 4:30:00 AM 4.65 40.37 0.628 8.11 37.74 11.73
12/11/2020 4:45:00 AM 4.63 40.334 0.628 8.11 40.98 11.73
12/11/2020 5:00:00 AM 4.61 40.298 0.628 8.1 44.81 11.74
12/11/2020 5:15:00 AM 4.59 40.262 0.628 8.1 39.74 11.75
12/11/2020 5:30:00 AM 4.57 40.226 0.628 8.1 37.01 11.76
12/11/2020 5:45:00 AM 4.55 40.19 0.628 8.11 42.1 11.75
12/11/2020 6:00:00 AM 4.54 40.172 0.628 8.1 43.35 11.77
12/11/2020 6:15:00 AM 4.52 40.136 0.628 8.1 37.32 11.79
12/11/2020 6:30:00 AM 4.5 40.1 0.628 8.1 40.41 11.8
12/11/2020 6:45:00 AM 4.48 40.064 0.628 8.1 44.01 11.77
12/11/2020 7:00:00 AM 4.47 40.046 0.628 8.1 45.33 11.8
12/11/2020 7:15:00 AM 4.45 40.01 0.628 8.1 37.84 11.8
12/11/2020 7:30:00 AM 4.44 39.992 0.628 8.1 47.54 11.81
12/11/2020 7:45:00 AM 4.44 39.992 0.628 8.1 49.13 11.85
12/11/2020 8:00:00 AM 4.44 39.992 0.627 8.1 42.93 11.87
12/11/2020 8:15:00 AM 4.44 39.992 0.627 8.1 47.15 11.9
12/11/2020 8:30:00 AM 4.44 39.992 0.627 8.1 43.99 11.96
12/11/2020 8:45:00 AM 4.46 40.028 0.627 8.1 39.84 12
12/11/2020 9:00:00 AM 4.47 40.046 0.627 8.1 49.42 12.06
12/11/2020 9:15:00 AM 4.5 40.1 0.626 8.1 45.15 12.09
12/11/2020 9:30:00 AM 4.53 40.154 0.626 8.11 38.91 12.15
12/11/2020 9:45:00 AM 4.58 40.244 0.626 8.11 37 12.2
12/11/2020 10:00:00 AM 4.66 40.388 0.625 8.11 36.81 12.25
12/11/2020 10:15:00 AM 4.77 40.586 0.625 8.11 40.34 12.33
12/11/2020 10:30:00 AM 4.88 40.784 0.624 8.12 37.81 12.4
12/11/2020 10:45:00 AM 5.03 41.054 0.624 8.12 38.56 12.44
12/11/2020 11:00:00 AM 5.16 41.288 0.623 8.12 41.11 12.51
12/11/2020 11:15:00 AM 5.3 41.54 0.623 8.12 39.83 12.56
12/11/2020 11:30:00 AM 5.42 41.756 0.622 8.13 39.79 12.59
12/11/2020 11:45:00 AM 5.52 41.936 0.622 8.13 38.64 12.63
12/11/2020 12:00:00 PM 5.62 42.116 0.622 8.13 38.91 12.67
12/11/2020 12:15:00 PM 5.7 42.26 0.622 8.13 41.12 12.7
12/11/2020 12:30:00 PM 5.79 42.422 0.621 8.14 42.72 12.73
12/11/2020 12:45:00 PM 5.89 42.602 0.621 8.14 49.08 12.74
12/11/2020 1:00:00 PM 5.99 42.782 0.62 8.15 39.38 12.76
12/11/2020 1:15:00 PM 6.1 42.98 0.62 8.15 44.66 12.79
12/11/2020 1:30:00 PM 6.21 43.178 0.619 8.15 42 12.8
12/11/2020 1:45:00 PM 6.29 43.322 0.619 8.16 43.38 12.81
12/11/2020 2:00:00 PM 6.37 43.466 0.619 8.16 49.69 12.8
12/11/2020 2:15:00 PM 6.46 43.628 0.619 8.17 47.52 12.79
12/11/2020 2:30:00 PM 6.55 43.79 0.618 8.17 41.03 12.79
12/11/2020 2:45:00 PM 6.62 43.916 0.618 8.17 44.02 12.77
12/11/2020 3:00:00 PM 6.71 44.078 0.618 8.18 40.78 12.77
12/11/2020 3:15:00 PM 6.78 44.204 0.618 8.18 35.94 12.74
12/11/2020 3:30:00 PM 6.84 44.312 0.617 8.19 37.15 12.7
12/11/2020 3:45:00 PM 6.9 44.42 0.617 8.19 31.44 12.67
12/11/2020 4:00:00 PM 6.95 44.51 0.618 8.19 37.31 12.61
12/11/2020 4:15:00 PM 6.98 44.564 0.617 8.2 37.43 12.55
12/11/2020 4:30:00 PM 7 44.6 0.618 8.2 38.24 12.51
12/11/2020 4:45:00 PM 7.02 44.636 0.618 8.2 30.2 12.43
12/11/2020 5:00:00 PM 7.02 44.636 0.618 8.2 34.51 12.36
12/11/2020 5:15:00 PM 7.01 44.618 0.618 8.2 40.71 12.29
12/11/2020 5:30:00 PM 7 44.6 0.618 8.2 46.7 12.23
12/11/2020 5:45:00 PM 6.99 44.582 0.618 8.21 34.51 12.18
12/11/2020 6:00:00 PM 6.97 44.546 0.618 8.21 36.16 12.1
12/11/2020 6:15:00 PM 6.96 44.528 0.618 8.21 41.58 12.06
12/11/2020 6:30:00 PM 6.94 44.492 0.619 8.2 44.54 11.99
12/11/2020 6:45:00 PM 6.91 44.438 0.619 8.2 32.92 11.93
12/11/2020 7:00:00 PM 6.88 44.384 0.619 8.2 40.48 11.87
12/11/2020 7:15:00 PM 6.86 44.348 0.619 8.2 36.63 11.81
12/11/2020 7:30:00 PM 6.82 44.276 0.619 8.2 42.43 11.77
12/11/2020 7:45:00 PM 6.79 44.222 0.62 8.2 38.56 11.74
12/11/2020 8:00:00 PM 6.76 44.168 0.62 8.2 36.19 11.67
12/11/2020 8:15:00 PM 6.72 44.096 0.62 8.19 43.45 11.62
12/11/2020 8:30:00 PM 6.68 44.024 0.621 8.19 29.63 11.6
12/11/2020 8:45:00 PM 6.63 43.934 0.621 8.19 41.94 11.56
12/11/2020 9:00:00 PM 6.59 43.862 0.621 8.19 33.21 11.52
12/11/2020 9:15:00 PM 6.55 43.79 0.622 8.18 35.02 11.49
12/11/2020 9:30:00 PM 6.51 43.718 0.622 8.18 49.18 11.46
12/11/2020 9:45:00 PM 6.45 43.61 0.622 8.17 37.51 11.43
12/11/2020 10:00:00 PM 6.41 43.538 0.623 8.17 42.9 11.41
12/11/2020 10:15:00 PM 6.37 43.466 0.623 8.17 46.32 11.4
12/11/2020 10:30:00 PM 6.32 43.376 0.623 8.16 33.25 11.38
12/11/2020 10:45:00 PM 6.28 43.304 0.623 8.16 42.23 11.36
12/11/2020 11:00:00 PM 6.23 43.214 0.624 8.15 38.09 11.35
12/11/2020 11:15:00 PM 6.18 43.124 0.624 8.15 41.28 11.34
12/11/2020 11:30:00 PM 6.14 43.052 0.624 8.15 45.11 11.34
12/11/2020 11:45:00 PM 6.1 42.98 0.625 8.14 43.61 11.31
12/12/2020 12:00:00 AM 6.05 42.89 0.625 8.14 41.22 11.31
12/12/2020 12:15:00 AM 6.01 42.818 0.625 8.13 45.05 11.32
12/12/2020 12:30:00 AM 5.96 42.728 0.626 8.13 47.07 11.31
12/12/2020 12:45:00 AM 5.92 42.656 0.626 8.13 40.98 11.31
12/12/2020 1:00:00 AM 5.87 42.566 0.626 8.12 40.04 11.31
12/12/2020 1:15:00 AM 5.83 42.494 0.626 8.12 41.32 11.31
12/12/2020 1:30:00 AM 5.8 42.44 0.627 8.12 39.81 11.31
12/12/2020 1:45:00 AM 5.76 42.368 0.627 8.11 35.7 11.32
12/12/2020 2:00:00 AM 5.73 42.314 0.627 8.11 41.82 11.31
12/12/2020 2:15:00 AM 5.7 42.26 0.627 8.11 51.52 11.32
12/12/2020 2:30:00 AM 5.67 42.206 0.627 8.11 43.53 11.31
12/12/2020 2:45:00 AM 5.64 42.152 0.627 8.11 49.29 11.33
12/12/2020 3:00:00 AM 5.61 42.098 0.628 8.1 39.83 11.35
12/12/2020 3:15:00 AM 5.59 42.062 0.628 8.1 46.66 11.35
12/12/2020 3:30:00 AM 5.56 42.008 0.628 8.1 49.11 11.35
12/12/2020 3:45:00 AM 5.54 41.972 0.629 8.1 51.89 11.37
12/12/2020 4:00:00 AM 5.52 41.936 0.629 8.1 47.52 11.37
12/12/2020 4:15:00 AM 5.51 41.918 0.629 8.09 41.57 11.37
12/12/2020 4:30:00 AM 5.5 41.9 0.629 8.09 40.82 11.38
12/12/2020 4:45:00 AM 5.49 41.882 0.629 8.09 42.33 11.39
12/12/2020 5:00:00 AM 5.47 41.846 0.629 8.09 47.64 11.38
12/12/2020 5:15:00 AM 5.46 41.828 0.629 8.09 42.3 11.39
12/12/2020 5:30:00 AM 5.46 41.828 0.629 8.09 39.16 11.4
12/12/2020 5:45:00 AM 5.47 41.846 0.629 8.09 46.02 11.4
12/12/2020 6:00:00 AM 5.48 41.864 0.629 8.09 38.04 11.4
12/12/2020 6:15:00 AM 5.49 41.882 0.63 8.09 36.73 11.42
12/12/2020 6:30:00 AM 5.5 41.9 0.63 8.09 45.1 11.41
12/12/2020 6:45:00 AM 5.51 41.918 0.629 8.09 40.61 11.42
12/12/2020 7:00:00 AM 5.52 41.936 0.63 8.08 45.66 11.4
12/12/2020 7:15:00 AM 5.53 41.954 0.63 8.08 45.03 11.39
12/12/2020 7:30:00 AM 5.55 41.99 0.63 8.08 37.38 11.41
12/12/2020 7:45:00 AM 5.56 42.008 0.63 8.08 45.4 11.4
12/12/2020 8:00:00 AM 5.59 42.062 0.629 8.08 46.91 11.41
12/12/2020 8:15:00 AM 5.62 42.116 0.629 8.08 37.69 11.45
12/12/2020 8:30:00 AM 5.66 42.188 0.629 8.08 41.63 11.48
12/12/2020 8:45:00 AM 5.71 42.278 0.629 8.08 43.27 11.51
12/12/2020 9:00:00 AM 5.75 42.35 0.629 8.08 46.46 11.52
12/12/2020 9:15:00 AM 5.8 42.44 0.629 8.08 44.62 11.54
12/12/2020 9:30:00 AM 5.85 42.53 0.628 8.08 42.99 11.57
12/12/2020 9:45:00 AM 5.91 42.638 0.628 8.08 41.63 11.62
12/12/2020 10:00:00 AM 5.98 42.764 0.628 8.08 48.68 11.66
12/12/2020 10:15:00 AM 6.05 42.89 0.628 8.08 41.01 11.72
12/12/2020 10:30:00 AM 6.12 43.016 0.627 8.08 45.71 11.76
12/12/2020 10:45:00 AM 6.2 43.16 0.627 8.08 42.71 11.82
12/12/2020 11:00:00 AM 6.28 43.304 0.626 8.09 39.75 11.88
12/12/2020 11:15:00 AM 6.38 43.484 0.626 8.09 50.11 11.94
12/12/2020 11:30:00 AM 6.45 43.61 0.626 8.1 44.9 11.98
12/12/2020 11:45:00 AM 6.55 43.79 0.625 8.1 38.63 12.03
12/12/2020 12:00:00 PM 6.67 44.006 0.624 8.1 31.75 12.11
12/12/2020 12:15:00 PM 6.78 44.204 0.624 8.11 35.1 12.14
12/12/2020 12:30:00 PM 6.9 44.42 0.624 8.11 45.4 12.19
12/12/2020 12:45:00 PM 7 44.6 0.623 8.12 43.41 12.22
12/12/2020 1:00:00 PM 7.11 44.798 0.623 8.12 44.7 12.26
12/12/2020 1:15:00 PM 7.2 44.96 0.622 8.13 46.71 12.28
12/12/2020 1:30:00 PM 7.31 45.158 0.622 8.13 45.72 12.32
12/12/2020 1:45:00 PM 7.42 45.356 0.621 8.14 46.74 12.34
12/12/2020 2:00:00 PM 7.5 45.5 0.621 8.14 41.7 12.37
12/12/2020 2:15:00 PM 7.58 45.644 0.621 8.15 46.77 12.39
12/12/2020 2:30:00 PM 7.65 45.77 0.62 8.15 43.31 12.37
12/12/2020 2:45:00 PM 7.72 45.896 0.62 8.16 44.35 12.35
12/12/2020 3:00:00 PM 7.79 46.022 0.619 8.16 40.91 12.35
12/12/2020 3:15:00 PM 7.83 46.094 0.619 8.16 40.58 12.3
12/12/2020 3:30:00 PM 7.85 46.13 0.619 8.17 49.17 12.25
12/12/2020 3:45:00 PM 7.9 46.22 0.619 8.17 42.6 12.2
12/12/2020 4:00:00 PM 7.94 46.292 0.619 8.18 44.48 12.15
12/12/2020 4:15:00 PM 7.98 46.364 0.619 8.17 41.25 12.07
12/12/2020 4:30:00 PM 8.01 46.418 0.619 8.18 38.07 12.01
12/12/2020 4:45:00 PM 8.04 46.472 0.62 8.18 36.14 11.92
12/12/2020 5:00:00 PM 8.06 46.508 0.62 8.17 37.71 11.8
12/12/2020 5:15:00 PM 8.07 46.526 0.62 8.17 44.38 11.72
12/12/2020 5:30:00 PM 8.08 46.544 0.62 8.17 36.52 11.63
12/12/2020 5:45:00 PM 8.09 46.562 0.622 8.16 38.16 11.57
12/12/2020 6:00:00 PM 8.1 46.58 0.623 8.16 37.52 11.47
12/12/2020 6:15:00 PM 8.1 46.58 0.623 8.15 38.29 11.38
12/12/2020 6:30:00 PM 8.1 46.58 0.624 8.14 35.02 11.29
12/12/2020 6:45:00 PM 8.09 46.562 0.625 8.13 32.64 11.18
12/12/2020 7:00:00 PM 8.07 46.526 0.626 8.13 36 11.1
12/12/2020 7:15:00 PM 8.06 46.508 0.627 8.12 33.94 11.02
12/12/2020 7:30:00 PM 8.06 46.508 0.627 8.11 35.79 10.95
12/12/2020 7:45:00 PM 8.05 46.49 0.628 8.1 35.63 10.88
12/12/2020 8:00:00 PM 8.05 46.49 0.629 8.09 36.43 10.81
12/12/2020 8:15:00 PM 8.05 46.49 0.63 8.09 30.78 10.75
12/12/2020 8:30:00 PM 8.04 46.472 0.63 8.08 34.08 10.71
12/12/2020 8:45:00 PM 8.04 46.472 0.63 8.07 34.48 10.66
12/12/2020 9:00:00 PM 8.03 46.454 0.631 8.07 36.2 10.63
12/12/2020 9:15:00 PM 8.02 46.436 0.631 8.06 32.93 10.58
12/12/2020 9:30:00 PM 8.01 46.418 0.632 8.06 33.17 10.56
12/12/2020 9:45:00 PM 8.01 46.418 0.632 8.06 33.49 10.52
12/12/2020 10:00:00 PM 8.01 46.418 0.632 8.05 34.99 10.51
12/12/2020 10:15:00 PM 8 46.4 0.632 8.05 29.22 10.49
12/12/2020 10:30:00 PM 8 46.4 0.633 8.05 35.37 10.46
12/12/2020 10:45:00 PM 8 46.4 0.633 8.04 31.08 10.45
12/12/2020 11:00:00 PM 7.99 46.382 0.633 8.04 33.93 10.43
12/12/2020 11:15:00 PM 7.98 46.364 0.633 8.04 33.88 10.42
12/12/2020 11:30:00 PM 7.97 46.346 0.634 8.03 33.31 10.4
12/12/2020 11:45:00 PM 7.95 46.31 0.634 8.03 29.25 10.4
12/13/2020 12:00:00 AM 7.92 46.256 0.634 8.03 32.65 10.38
12/13/2020 12:15:00 AM 7.9 46.22 0.634 8.03 38.3 10.38
12/13/2020 12:30:00 AM 7.88 46.184 0.635 8.03 34.08 10.37
12/13/2020 12:45:00 AM 7.88 46.184 0.635 8.03 39.17 10.38
12/13/2020 1:00:00 AM 7.86 46.148 0.635 8.03 37.11 10.37
12/13/2020 1:15:00 AM 7.84 46.112 0.635 8.03 39.43 10.39
12/13/2020 1:30:00 AM 7.83 46.094 0.635 8.03 34.87 10.38
12/13/2020 1:45:00 AM 7.82 46.076 0.636 8.03 34.66 10.37
12/13/2020 2:00:00 AM 7.83 46.094 0.636 8.02 38.59 10.38
12/13/2020 2:15:00 AM 7.82 46.076 0.636 8.03 35.52 10.39
12/13/2020 2:30:00 AM 7.79 46.022 0.636 8.02 38.3 10.41
12/13/2020 2:45:00 AM 7.77 45.986 0.637 8.03 38.86 10.41
12/13/2020 3:00:00 AM 7.74 45.932 0.637 8.02 38.34 10.41
12/13/2020 3:15:00 AM 7.72 45.896 0.637 8.02 41.78 10.42
12/13/2020 3:30:00 AM 7.7 45.86 0.637 8.03 38.9 10.43
12/13/2020 3:45:00 AM 7.68 45.824 0.637 8.03 40.88 10.45
12/13/2020 4:00:00 AM 7.66 45.788 0.637 8.03 35.06 10.45
12/13/2020 4:15:00 AM 7.64 45.752 0.638 8.03 39.39 10.45
12/13/2020 4:30:00 AM 7.62 45.716 0.638 8.03 34.92 10.46
12/13/2020 4:45:00 AM 7.6 45.68 0.638 8.03 37.24 10.47
12/13/2020 5:00:00 AM 7.58 45.644 0.638 8.03 38.59 10.46
12/13/2020 5:15:00 AM 7.56 45.608 0.638 8.03 50.19 10.49
12/13/2020 5:30:00 AM 7.54 45.572 0.638 8.03 45.32 10.49
12/13/2020 5:45:00 AM 7.52 45.536 0.638 8.03 40 10.49
12/13/2020 6:00:00 AM 7.5 45.5 0.638 8.03 42.88 10.5
12/13/2020 6:15:00 AM 7.48 45.464 0.638 8.03 44.15 10.5
12/13/2020 6:30:00 AM 7.47 45.446 0.638 8.03 42.08 10.51
12/13/2020 6:45:00 AM 7.47 45.446 0.638 8.03 37.23 10.52
12/13/2020 7:00:00 AM 7.47 45.446 0.638 8.03 37.12 10.53
12/13/2020 7:15:00 AM 7.48 45.464 0.638 8.03 42.92 10.54
12/13/2020 7:30:00 AM 7.48 45.464 0.638 8.03 43.01 10.55
12/13/2020 7:45:00 AM 7.47 45.446 0.638 8.03 42 10.55
12/13/2020 8:00:00 AM 7.48 45.464 0.638 8.03 43.66 10.59
12/13/2020 8:15:00 AM 7.5 45.5 0.638 8.03 41.63 10.64
12/13/2020 8:30:00 AM 7.51 45.518 0.638 8.03 41.9 10.68
12/13/2020 8:45:00 AM 7.51 45.518 0.638 8.03 41.23 10.72
12/13/2020 9:00:00 AM 7.5 45.5 0.637 8.03 41.92 10.75
12/13/2020 9:15:00 AM 7.51 45.518 0.637 8.03 35.55 10.79
12/13/2020 9:30:00 AM 7.54 45.572 0.637 8.03 38.62 10.84
12/13/2020 9:45:00 AM 7.62 45.716 0.636 8.03 42.33 10.93
12/13/2020 10:00:00 AM 7.74 45.932 0.635 8.04 42.86 11.06
12/13/2020 10:15:00 AM 7.86 46.148 0.635 8.04 42.68 11.16
12/13/2020 10:30:00 AM 7.93 46.274 0.635 8.04 46.15 11.23
12/13/2020 10:45:00 AM 8.03 46.454 0.632 8.05 55.9 11.25
12/13/2020 11:00:00 AM 8.13 46.634 0.632 8.06 44.02 11.32
12/13/2020 11:15:00 AM 8.3 46.94 0.631 8.07 40.31 11.43
12/13/2020 11:30:00 AM 8.43 47.174 0.631 8.08 44.49 11.5
12/13/2020 11:45:00 AM 8.53 47.354 0.63 8.09 31.46 11.6
12/13/2020 12:00:00 PM 8.55 47.39 0.63 8.1 32.45 11.66
12/13/2020 12:15:00 PM 8.6 47.48 0.629 8.11 61.73 11.71
12/13/2020 12:30:00 PM 8.68 47.624 0.628 8.12 30.56 11.75
12/13/2020 12:45:00 PM 8.75 47.75 0.627 8.13 44.27 11.81
12/13/2020 1:00:00 PM 8.82 47.876 0.627 8.14 55.94 11.85
12/13/2020 1:15:00 PM 8.96 48.128 0.625 8.14 46.02 11.92
12/13/2020 1:30:00 PM 9.04 48.272 0.625 8.15 51.89 11.96
12/13/2020 1:45:00 PM 9.06 48.308 0.624 8.16 33.67 12
12/13/2020 2:00:00 PM 9.1 48.38 0.624 8.17 43.3 12
12/13/2020 2:15:00 PM 9.15 48.47 0.623 8.17 43.89 12
12/13/2020 2:30:00 PM 9.2 48.56 0.623 8.17 54.92 12
12/13/2020 2:45:00 PM 9.23 48.614 0.622 8.18 37.2 12.03
12/13/2020 3:00:00 PM 9.28 48.704 0.621 8.19 49.16 12.03
12/13/2020 3:15:00 PM 9.31 48.758 0.621 8.2 50.27 12
12/13/2020 3:30:00 PM 9.34 48.812 0.62 8.2 30.92 11.97
12/13/2020 3:45:00 PM 9.36 48.848 0.62 8.2 37.77 11.92
12/13/2020 4:00:00 PM 9.37 48.866 0.619 8.21 50.84 11.9
12/13/2020 4:15:00 PM 9.37 48.866 0.619 8.22 39.23 11.85
12/13/2020 4:30:00 PM 9.35 48.83 0.619 8.22 51.39 11.76
12/13/2020 4:45:00 PM 9.33 48.794 0.619 8.22 47.39 11.69
12/13/2020 5:00:00 PM 9.33 48.794 0.618 8.22 58.91 11.62
12/13/2020 5:15:00 PM 9.31 48.758 0.619 8.23 55.99 11.53
12/13/2020 5:30:00 PM 9.28 48.704 0.618 8.23 58.2 11.5
12/13/2020 5:45:00 PM 9.25 48.65 0.618 8.23 38.83 11.42
12/13/2020 6:00:00 PM 9.21 48.578 0.618 8.24 32.13 11.34
12/13/2020 6:15:00 PM 9.18 48.524 0.619 8.24 41.95 11.28
12/13/2020 6:30:00 PM 9.14 48.452 0.619 8.24 32.31 11.23
12/13/2020 6:45:00 PM 9.1 48.38 0.619 8.24 48.15 11.17
12/13/2020 7:00:00 PM 9.05 48.29 0.619 8.24 38.88 11.11
12/13/2020 7:15:00 PM 9.01 48.218 0.619 8.24 46.21 11.05
12/13/2020 7:30:00 PM 8.97 48.146 0.62 8.24 40.5 10.99
12/13/2020 7:45:00 PM 8.93 48.074 0.62 8.24 36.26 10.94
12/13/2020 8:00:00 PM 8.88 47.984 0.621 8.23 43.52 10.88
12/13/2020 8:15:00 PM 8.83 47.894 0.622 8.23 40.18 10.84
12/13/2020 8:30:00 PM 8.78 47.804 0.622 8.23 30.6 10.8
12/13/2020 8:45:00 PM 8.73 47.714 0.623 8.23 45.32 10.76
12/13/2020 9:00:00 PM 8.68 47.624 0.624 8.22 52.8 10.71
12/13/2020 9:15:00 PM 8.66 47.588 0.624 8.22 38.59 10.7
12/13/2020 9:30:00 PM 8.62 47.516 0.625 8.21 42.16 10.66
12/13/2020 9:45:00 PM 8.57 47.426 0.626 8.2 49.32 10.63
12/13/2020 10:00:00 PM 8.54 47.372 0.626 8.2 51.15 10.6
12/13/2020 10:15:00 PM 8.49 47.282 0.627 8.19 42.48 10.55
12/13/2020 10:30:00 PM 8.43 47.174 0.628 8.19 48.75 10.55
12/13/2020 10:45:00 PM 8.38 47.084 0.628 8.18 31.8 10.52
12/13/2020 11:00:00 PM 8.33 46.994 0.629 8.17 41.94 10.5
12/13/2020 11:15:00 PM 8.26 46.868 0.629 8.17 37.02 10.48
12/13/2020 11:30:00 PM 8.2 46.76 0.63 8.16 49.65 10.47
12/13/2020 11:45:00 PM 8.14 46.652 0.631 8.15 55.72 10.47
12/14/2020 12:00:00 AM 8.09 46.562 0.631 8.15 38.22 10.45
12/14/2020 12:15:00 AM 8.04 46.472 0.632 8.15 48.73 10.44
12/14/2020 12:30:00 AM 8 46.4 0.632 8.14 45.32 10.44
12/14/2020 12:45:00 AM 7.96 46.328 0.632 8.13 58.88 10.44
12/14/2020 1:00:00 AM 7.93 46.274 0.633 8.13 47.66 10.42
12/14/2020 1:15:00 AM 7.9 46.22 0.633 8.12 55.96 10.43
12/14/2020 1:30:00 AM 7.86 46.148 0.633 8.12 40.77 10.43
12/14/2020 1:45:00 AM 7.83 46.094 0.634 8.12 42.96 10.43
12/14/2020 2:00:00 AM 7.81 46.058 0.634 8.11 31.99 10.43
12/14/2020 2:15:00 AM 7.79 46.022 0.634 8.11 37.8 10.43
12/14/2020 2:30:00 AM 7.77 45.986 0.634 8.11 42.82 10.44
12/14/2020 2:45:00 AM 7.74 45.932 0.634 8.1 52.16 10.44
12/14/2020 3:00:00 AM 7.73 45.914 0.634 8.1 45.65 10.44
12/14/2020 3:15:00 AM 7.71 45.878 0.634 8.1 60.03 10.44
12/14/2020 3:30:00 AM 7.7 45.86 0.634 8.1 38.42 10.44
12/14/2020 3:45:00 AM 7.69 45.842 0.634 8.1 40.27 10.46
12/14/2020 4:00:00 AM 7.68 45.824 0.634 8.09 50.15 10.45
12/14/2020 4:15:00 AM 7.68 45.824 0.634 8.09 45.44 10.45
12/14/2020 4:30:00 AM 7.67 45.806 0.633 8.09 43.04 10.47
12/14/2020 4:45:00 AM 7.67 45.806 0.633 8.09 44.85 10.44
12/14/2020 5:00:00 AM 7.66 45.788 0.634 8.09 50.17 10.46
12/14/2020 5:15:00 AM 7.66 45.788 0.624 8.09 47.75 10.45
12/14/2020 5:30:00 AM 7.66 45.788 0.633 8.09 51.23 10.46
12/14/2020 5:45:00 AM 7.66 45.788 0.634 8.09 48.87 10.46
12/14/2020 6:00:00 AM 7.66 45.788 0.634 8.08 49.95 10.44
12/14/2020 6:15:00 AM 7.66 45.788 0.635 8.08 52.95 10.47
12/14/2020 6:30:00 AM 7.66 45.788 0.635 8.08 64.46 10.46
12/14/2020 6:45:00 AM 7.65 45.77 0.634 8.08 56.23 10.5
12/14/2020 7:00:00 AM 7.64 45.752 0.622 8.09 56.46 10.5
12/14/2020 7:15:00 AM 7.64 45.752 0.629 8.08 37.15 10.49
12/14/2020 7:30:00 AM 7.63 45.734 0.621 8.09 48.38 10.51
12/14/2020 7:45:00 AM 7.63 45.734 0.615 8.08 26.35 10.52
12/14/2020 8:00:00 AM 7.63 45.734 0.619 8.09 54.79 10.53
12/14/2020 8:15:00 AM 7.63 45.734 0.614 8.09 70.98 10.54
12/14/2020 8:30:00 AM 7.63 45.734 0.617 8.09 51.92 10.57
12/14/2020 8:45:00 AM 7.63 45.734 0.612 8.08 52.04 10.56
12/14/2020 9:00:00 AM 7.63 45.734 0.611 8.08 57 10.58
12/14/2020 9:15:00 AM 7.62 45.716 0.612 8.08 45.49 10.61
12/14/2020 9:30:00 AM 7.61 45.698 0.62 8.08 51.07 10.61
12/14/2020 9:45:00 AM 7.61 45.698 0.62 8.09 49.79 10.66
12/14/2020 10:00:00 AM 7.6 45.68 0.62 8.09 40.83 10.7
12/14/2020 10:15:00 AM 7.57 45.626 0.618 8.09 38.13 10.71
12/14/2020 10:30:00 AM 7.53 45.554 0.615 8.09 61.36 10.73
12/14/2020 10:45:00 AM 7.46 45.428 0.591 8.09 41.3 10.75
12/14/2020 11:00:00 AM 7.47 45.446 0.59 8.09 47.11 10.75
12/14/2020 11:15:00 AM 7.42 45.356 0.61 8.09 42.46 10.78
12/14/2020 11:30:00 AM 7.32 45.176 0.598 8.09 43.65 10.79
12/14/2020 11:45:00 AM 7.23 45.014 0.603 8.09 38.9 10.83
12/14/2020 12:00:00 PM 7.14 44.852 0.594 8.09 57.95 10.87
12/14/2020 12:15:00 PM 7.08 44.744 0.584 8.09 56.52 10.92
12/14/2020 12:30:00 PM 7.02 44.636 0.587 8.09 36.12 10.94
12/14/2020 12:45:00 PM 6.86 44.348 0.589 8.09 51.68 11.01
12/14/2020 1:00:00 PM 7.05 44.69 0.589 8.08 37.04 10.95
12/14/2020 1:15:00 PM 6.94 44.492 0.582 8.08 56.8 10.97
12/14/2020 1:30:00 PM 6.98 44.564 0.583 8.08 42.5 10.97
12/14/2020 1:45:00 PM 7.04 44.672 0.579 8.08 41.17 10.96
12/14/2020 2:00:00 PM 7.16 44.888 0.576 8.08 52.48 10.96
12/14/2020 2:15:00 PM 7.05 44.69 0.573 8.08 52.26 10.92
12/14/2020 2:30:00 PM 7.11 44.798 0.569 8.07 53.14 10.9
12/14/2020 2:45:00 PM 7.11 44.798 0.567 8.07 52.16 10.89
12/14/2020 3:00:00 PM 7.14 44.852 0.562 8.07 57.65 10.92
12/14/2020 3:15:00 PM 7.15 44.87 0.537 8.06 54.11 10.94
12/14/2020 3:30:00 PM 7.17 44.906 0.534 8.06 47.35 10.95
12/14/2020 3:45:00 PM 7.14 44.852 0.549 8.06 52.2 10.98
12/14/2020 4:00:00 PM 7.1 44.78 0.545 8.06 53.12 10.98
12/14/2020 4:15:00 PM 7.1 44.78 0.52 8.06 49.98 10.99
12/14/2020 4:30:00 PM 7.06 44.708 0.53 8.05 56.96 11
12/14/2020 4:45:00 PM 7.06 44.708 0.537 8.05 48.93 11.01
12/14/2020 5:00:00 PM 7.03 44.654 0.536 8.05 55.23 11.01
12/14/2020 5:15:00 PM 7.02 44.636 0.536 8.05 49.6 11.03
12/14/2020 5:30:00 PM 6.99 44.582 0.532 8.04 49.69 11.02
12/14/2020 5:45:00 PM 6.93 44.474 0.529 8.04 56.93 11.03
12/14/2020 6:00:00 PM 6.93 44.474 0.537 8.04 53.74 11.03
12/14/2020 6:15:00 PM 6.92 44.456 0.539 8.04 49.19 11.01
12/14/2020 6:30:00 PM 6.89 44.402 0.538 8.04 52.16 11.03
12/14/2020 6:45:00 PM 6.85 44.33 0.538 8.03 45.76 11.02
12/14/2020 7:00:00 PM 6.87 44.366 0.537 8.03 56.33 11
12/14/2020 7:15:00 PM 6.84 44.312 0.537 8.03 48.37 11
12/14/2020 7:30:00 PM 6.86 44.348 0.537 8.02 55.62 10.98
12/14/2020 7:45:00 PM 6.84 44.312 0.537 8.02 50.99 10.97
12/14/2020 8:00:00 PM 6.82 44.276 0.538 8.02 52.47 10.95
12/14/2020 8:15:00 PM 6.8 44.24 0.537 8.02 45.41 10.93
12/14/2020 8:30:00 PM 6.78 44.204 0.536 8.02 52.98 10.93
12/14/2020 8:45:00 PM 6.78 44.204 0.536 8.01 46.12 10.9
12/14/2020 9:00:00 PM 6.76 44.168 0.536 8.01 43.09 10.92
12/14/2020 9:15:00 PM 6.74 44.132 0.534 8.01 53.88 10.9
12/14/2020 9:30:00 PM 6.7 44.06 0.523 8.01 49.46 10.89
12/14/2020 9:45:00 PM 6.66 43.988 0.536 8.01 61.45 10.87
12/14/2020 10:00:00 PM 6.62 43.916 0.536 8 53.49 10.88
12/14/2020 10:15:00 PM 6.58 43.844 0.532 8 48.86 10.87
12/14/2020 10:30:00 PM 6.54 43.772 0.535 8 49.41 10.86
12/14/2020 10:45:00 PM 6.5 43.7 0.511 8 44.47 10.85
12/14/2020 11:00:00 PM 6.46 43.628 0.537 7.99 51.18 10.84
12/14/2020 11:15:00 PM 6.42 43.556 0.537 7.99 48.71 10.83
12/14/2020 11:30:00 PM 6.38 43.484 0.538 7.99 47.4 10.84
12/14/2020 11:45:00 PM 6.34 43.412 0.539 7.99 53.62 10.85
12/15/2020 12:00:00 AM 6.31 43.358 0.515 7.99 60.02 10.85
12/15/2020 12:15:00 AM 6.28 43.304 0.516 7.99 56.83 10.85
12/15/2020 12:30:00 AM 6.25 43.25 0.514 7.99 58.05 10.85
12/15/2020 12:45:00 AM 6.23 43.214 0.515 7.99 65.56 10.88
12/15/2020 1:00:00 AM 6.2 43.16 0.524 7.99 52.8 10.88
12/15/2020 1:15:00 AM 6.17 43.106 0.544 7.99 55.25 10.9
12/15/2020 1:30:00 AM 6.13 43.034 0.545 7.98 47.09 10.9
12/15/2020 1:45:00 AM 6.11 42.998 0.544 7.98 54.56 10.9
12/15/2020 2:00:00 AM 6.09 42.962 0.545 7.98 49.75 10.93
12/15/2020 2:15:00 AM 6.05 42.89 0.545 7.99 57.8 10.93
12/15/2020 2:30:00 AM 6.02 42.836 0.544 7.99 45.34 10.96
12/15/2020 2:45:00 AM 5.99 42.782 0.543 7.99 49.3 10.98
12/15/2020 3:00:00 AM 5.96 42.728 0.542 7.98 49.42 10.99
12/15/2020 3:15:00 AM 5.92 42.656 0.54 7.98 48.87 11.01
12/15/2020 3:30:00 AM 5.89 42.602 0.538 7.99 52 11.03
12/15/2020 3:45:00 AM 5.86 42.548 0.536 7.98 52.99 11.06
12/15/2020 4:00:00 AM 5.82 42.476 0.535 7.99 49.71 11.08
12/15/2020 4:15:00 AM 5.78 42.404 0.533 7.98 54.63 11.09
12/15/2020 4:30:00 AM 5.74 42.332 0.532 7.99 44.07 11.13
12/15/2020 4:45:00 AM 5.7 42.26 0.531 7.99 50.22 11.15
12/15/2020 5:00:00 AM 5.66 42.188 0.529 7.99 48.41 11.16
12/15/2020 5:15:00 AM 5.62 42.116 0.529 7.99 50.72 11.2
12/15/2020 5:30:00 AM 5.58 42.044 0.528 7.99 46.14 11.22
12/15/2020 5:45:00 AM 5.53 41.954 0.528 7.99 47 11.25
12/15/2020 6:00:00 AM 5.5 41.9 0.528 7.99 46.41 11.28
12/15/2020 6:15:00 AM 5.45 41.81 0.528 7.99 48.74 11.29
12/15/2020 6:30:00 AM 5.41 41.738 0.514 7.99 50.55 11.32
12/15/2020 6:45:00 AM 5.38 41.684 0.53 7.99 51.5 11.33
12/15/2020 7:00:00 AM 5.34 41.612 0.531 7.99 50.14 11.34
12/15/2020 7:15:00 AM 5.31 41.558 0.532 7.99 54.87 11.38
12/15/2020 7:30:00 AM 5.28 41.504 0.534 7.99 57.5 11.37
12/15/2020 7:45:00 AM 5.26 41.468 0.535 7.99 49.59 11.4
12/15/2020 8:00:00 AM 5.25 41.45 0.536 8 54.78 11.44
12/15/2020 8:15:00 AM 5.25 41.45 0.537 8 56.47 11.49
12/15/2020 8:30:00 AM 5.25 41.45 0.538 8 54.22 11.52
12/15/2020 8:45:00 AM 5.25 41.45 0.539 8.01 55.99 11.58
12/15/2020 9:00:00 AM 5.25 41.45 0.54 8.01 49.72 11.64
12/15/2020 9:15:00 AM 5.27 41.486 0.541 8.01 52.47 11.7
12/15/2020 9:30:00 AM 5.29 41.522 0.542 8.01 61.36 11.75
12/15/2020 9:45:00 AM 5.32 41.576 0.543 8.02 40.06 11.81
12/15/2020 10:00:00 AM 5.34 41.612 0.544 8.03 55.56 11.87
12/15/2020 10:15:00 AM 5.42 41.756 0.545 8.03 53.66 11.96
12/15/2020 10:30:00 AM 5.49 41.882 0.545 8.04 46.28 12.05
12/15/2020 10:45:00 AM 5.56 42.008 0.547 8.04 55.34 12.13
12/15/2020 11:00:00 AM 5.64 42.152 0.547 8.04 49.58 12.19
12/15/2020 11:15:00 AM 5.7 42.26 0.548 8.05 52.67 12.26
12/15/2020 11:30:00 AM 5.74 42.332 0.548 8.06 57.84 12.32
12/15/2020 11:45:00 AM 5.77 42.386 0.549 8.06 55.23 12.39
12/15/2020 12:00:00 PM 5.79 42.422 0.549 8.07 49 12.44
12/15/2020 12:15:00 PM 5.8 42.44 0.549 8.07 50.99 12.48
12/15/2020 12:30:00 PM 5.83 42.494 0.548 8.08 48.1 12.55
12/15/2020 12:45:00 PM 5.85 42.53 0.548 8.08 53.46 12.59
12/15/2020 1:00:00 PM 5.87 42.566 0.548 8.09 62.93 12.63
12/15/2020 1:15:00 PM 5.9 42.62 0.547 8.1 53.38 12.7
12/15/2020 1:30:00 PM 5.95 42.71 0.546 8.1 59.08 12.72
12/15/2020 1:45:00 PM 5.97 42.746 0.545 8.11 43.95 12.77
12/15/2020 2:00:00 PM 5.98 42.764 0.545 8.11 42.72 12.81
12/15/2020 2:15:00 PM 5.99 42.782 0.544 8.11 47.71 12.83
12/15/2020 2:30:00 PM 6.02 42.836 0.543 8.11 55.1 12.86
12/15/2020 2:45:00 PM 6.02 42.836 0.542 8.12 53.73 12.88
12/15/2020 3:00:00 PM 6.03 42.854 0.542 8.13 42.78 12.91
12/15/2020 3:15:00 PM 6.04 42.872 0.54 8.13 62.95 12.9
12/15/2020 3:30:00 PM 6.05 42.89 0.539 8.13 55.87 12.9
12/15/2020 3:45:00 PM 6.05 42.89 0.539 8.13 47.54 12.88
12/15/2020 4:00:00 PM 6.04 42.872 0.538 8.13 58.41 12.87
12/15/2020 4:15:00 PM 6.02 42.836 0.538 8.14 50.08 12.84
12/15/2020 4:30:00 PM 5.99 42.782 0.537 8.14 50.21 12.78
12/15/2020 4:45:00 PM 5.96 42.728 0.537 8.14 52.02 12.73
12/15/2020 5:00:00 PM 5.92 42.656 0.537 8.14 45.42 12.69
12/15/2020 5:15:00 PM 5.88 42.584 0.536 8.14 46.96 12.63
12/15/2020 5:30:00 PM 5.85 42.53 0.536 8.15 48.36 12.58
12/15/2020 5:45:00 PM 5.81 42.458 0.535 8.15 56.16 12.54
12/15/2020 6:00:00 PM 5.76 42.368 0.535 8.15 50.44 12.49
12/15/2020 6:15:00 PM 5.72 42.296 0.535 8.15 57.78 12.45
12/15/2020 6:30:00 PM 5.68 42.224 0.535 8.15 56.94 12.39
12/15/2020 6:45:00 PM 5.63 42.134 0.535 8.14 63.14 12.31
12/15/2020 7:00:00 PM 5.59 42.062 0.535 8.14 62.13 12.26
12/15/2020 7:15:00 PM 5.55 41.99 0.532 8.14 55.18 12.21
12/15/2020 7:30:00 PM 5.5 41.9 0.532 8.13 66.76 12.17
12/15/2020 7:45:00 PM 5.46 41.828 0.534 8.13 55.18 12.12
12/15/2020 8:00:00 PM 5.42 41.756 0.533 8.13 44.56 12.06
12/15/2020 8:15:00 PM 5.37 41.666 0.523 8.12 51.18 12.03
12/15/2020 8:30:00 PM 5.33 41.594 0.535 8.12 42.76 11.97
12/15/2020 8:45:00 PM 5.28 41.504 0.535 8.11 60.42 11.92
12/15/2020 9:00:00 PM 5.24 41.432 0.535 8.1 59.18 11.89
12/15/2020 9:15:00 PM 5.19 41.342 0.535 8.1 52.83 11.84
12/15/2020 9:30:00 PM 5.15 41.27 0.536 8.09 47.58 11.82
12/15/2020 9:45:00 PM 5.1 41.18 0.53 8.09 45.12 11.8
12/15/2020 10:00:00 PM 5.06 41.108 0.533 8.08 58.13 11.77
12/15/2020 10:15:00 PM 5.02 41.036 0.534 8.08 59.7 11.75
12/15/2020 10:30:00 PM 4.98 40.964 0.532 8.07 60.63 11.71
12/15/2020 10:45:00 PM 4.93 40.874 0.525 8.07 58.16 11.69
12/15/2020 11:00:00 PM 4.89 40.802 0.537 8.06 53.83 11.66
12/15/2020 11:15:00 PM 4.85 40.73 0.536 8.05 55.04 11.64
12/15/2020 11:30:00 PM 4.82 40.676 0.536 8.05 62.09 11.63
12/15/2020 11:45:00 PM 4.77 40.586 0.536 8.04 65.77 11.62
12/16/2020 12:00:00 AM 4.74 40.532 0.536 8.04 55.4 11.62
12/16/2020 12:15:00 AM 4.71 40.478 0.534 8.04 54.33 11.61
12/16/2020 12:30:00 AM 4.67 40.406 0.532 8.03 68.45 11.63
12/16/2020 12:45:00 AM 4.63 40.334 0.536 8.03 65.03 11.6
12/16/2020 1:00:00 AM 4.59 40.262 0.536 8.02 67.69 11.6
12/16/2020 1:15:00 AM 4.55 40.19 0.536 8.02 65.04 11.61
12/16/2020 1:30:00 AM 4.52 40.136 0.536 8.02 70.25 11.61
12/16/2020 1:45:00 AM 4.49 40.082 0.536 8.02 53.52 11.61
12/16/2020 2:00:00 AM 4.45 40.01 0.536 8.01 61.57 11.6
12/16/2020 2:15:00 AM 4.41 39.938 0.535 8.01 59.12 11.61
12/16/2020 2:30:00 AM 4.38 39.884 0.535 8.01 57.05 11.63
12/16/2020 2:45:00 AM 4.34 39.812 0.535 8 67.3 11.64
12/16/2020 3:00:00 AM 4.31 39.758 0.535 8 59.64 11.66
12/16/2020 3:15:00 AM 4.27 39.686 0.535 8 64.18 11.66
12/16/2020 3:30:00 AM 4.24 39.632 0.535 8 62.14 11.67
12/16/2020 3:45:00 AM 4.22 39.596 0.515 8 54.33 11.69
12/16/2020 4:00:00 AM 4.19 39.542 0.538 8 54.65 11.7
12/16/2020 4:15:00 AM 4.16 39.488 0.537 8 56.57 11.71
12/16/2020 4:30:00 AM 4.14 39.452 0.536 8 57.65 11.72
12/16/2020 4:45:00 AM 4.11 39.398 0.537 8 53.8 11.74
12/16/2020 5:00:00 AM 4.08 39.344 0.537 7.99 54.03 11.73
12/16/2020 5:15:00 AM 4.06 39.308 0.537 8 61.94 11.74
12/16/2020 5:30:00 AM 4.04 39.272 0.537 7.99 66.06 11.75
12/16/2020 5:45:00 AM 4.03 39.254 0.538 7.99 50.64 11.78
12/16/2020 6:00:00 AM 4.02 39.236 0.539 7.99 61.62 11.78
12/16/2020 6:15:00 AM 4.01 39.218 0.539 7.99 69.03 11.79
12/16/2020 6:30:00 AM 4 39.2 0.54 7.99 52.9 11.8
12/16/2020 6:45:00 AM 3.99 39.182 0.54 7.99 70.52 11.82
12/16/2020 7:00:00 AM 3.98 39.164 0.538 7.99 58.43 11.82
12/16/2020 7:15:00 AM 3.97 39.146 0.536 7.99 54.57 11.82
12/16/2020 7:30:00 AM 3.96 39.128 0.541 7.99 55.81 11.82
12/16/2020 7:45:00 AM 3.95 39.11 0.542 7.99 68.12 11.84
12/16/2020 8:00:00 AM 3.95 39.11 0.543 7.99 59.16 11.86
12/16/2020 8:15:00 AM 3.95 39.11 0.544 7.99 56.49 11.87
12/16/2020 8:30:00 AM 3.95 39.11 0.544 7.99 63.52 11.9
12/16/2020 8:45:00 AM 3.95 39.11 0.545 7.99 70.99 11.93
12/16/2020 9:00:00 AM 3.95 39.11 0.546 7.99 64.87 11.97
12/16/2020 9:15:00 AM 3.95 39.11 0.546 7.99 68.39 12.01
12/16/2020 9:30:00 AM 3.95 39.11 0.547 8 53.5 12.03
12/16/2020 9:45:00 AM 3.95 39.11 0.547 8 65.24 12.05
12/16/2020 10:00:00 AM 3.96 39.128 0.548 8 56.8 12.08
12/16/2020 10:15:00 AM 3.97 39.146 0.548 8 72.08 12.12
12/16/2020 10:30:00 AM 3.99 39.182 0.549 8 62.64 12.16
12/16/2020 10:45:00 AM 4 39.2 0.55 8.01 68.35 12.2
12/16/2020 11:00:00 AM 4.02 39.236 0.55 8.01 70.27 12.23
12/16/2020 11:15:00 AM 4.02 39.236 0.55 8.01 57.84 12.24
12/16/2020 11:30:00 AM 4.02 39.236 0.551 8.01 65.86 12.29
12/16/2020 11:45:00 AM 4.03 39.254 0.551 8.02 59.65 12.32
12/16/2020 12:00:00 PM 4.04 39.272 0.551 8.02 53.74 12.36
12/16/2020 12:15:00 PM 4.04 39.272 0.551 8.02 57.01 12.38
12/16/2020 12:30:00 PM 3.99 39.182 0.551 8.03 58.76 12.41
12/16/2020 12:45:00 PM 3.95 39.11 0.546 8.03 59.2 12.45
12/16/2020 1:00:00 PM 3.92 39.056 0.545 8.04 59.83 12.48
12/16/2020 1:15:00 PM 3.9 39.02 0.55 8.04 63.86 12.56
12/16/2020 1:30:00 PM 3.85 38.93 0.551 8.05 61.1 12.58
12/16/2020 1:45:00 PM 3.76 38.768 0.55 8.05 64.4 12.58
12/16/2020 2:00:00 PM 3.68 38.624 0.55 8.06 58.55 12.59
12/16/2020 2:15:00 PM 3.61 38.498 0.551 8.06 54.85 12.6
12/16/2020 2:30:00 PM 3.53 38.354 0.552 8.06 56.64 12.61
12/16/2020 2:45:00 PM 3.44 38.192 0.551 8.07 51.97 12.63
12/16/2020 3:00:00 PM 3.39 38.102 0.551 8.07 52.78 12.63
12/16/2020 3:15:00 PM 3.3 37.94 0.551 8.08 59.47 12.64
12/16/2020 3:30:00 PM 3.09 37.562 0.549 8.08 55.49 12.64
12/16/2020 3:45:00 PM 2.98 37.364 0.548 8.09 54.95 12.65
12/16/2020 4:00:00 PM 2.83 37.094 0.548 8.09 52.16 12.66
12/16/2020 4:15:00 PM 2.57 36.626 0.548 8.1 52.49 12.64
12/16/2020 4:30:00 PM 2.28 36.104 0.548 8.1 63.74 12.66
12/16/2020 4:45:00 PM 2.02 35.636 0.54 8.11 65.69 12.66
12/16/2020 5:00:00 PM 2.09 35.762 0.543 8.11 57.76 12.66
12/16/2020 5:15:00 PM 2.02 35.636 0.548 8.11 49.56 12.66
12/16/2020 5:30:00 PM 2.01 35.618 0.548 8.11 67.33 12.67
12/16/2020 5:45:00 PM 1.87 35.366 0.547 8.12 54.3 12.67
12/16/2020 6:00:00 PM 1.88 35.384 0.548 8.12 72.31 12.69
12/16/2020 6:15:00 PM 1.89 35.402 0.548 8.12 59.82 12.7
12/16/2020 6:30:00 PM 1.77 35.186 0.548 8.11 40.9 12.7
12/16/2020 6:45:00 PM 1.7 35.06 0.549 8.11 55.1 12.68
12/16/2020 7:00:00 PM 1.73 35.114 0.549 8.1 55.16 12.71
12/16/2020 7:15:00 PM 1.7 35.06 0.55 8.1 54.16 12.72
12/16/2020 7:30:00 PM 1.58 34.844 0.547 8.1 52.79 12.74
12/16/2020 7:45:00 PM 1.48 34.664 0.551 8.1 55.95 12.75
12/16/2020 8:00:00 PM 1.47 34.646 0.55 8.1 48.19 12.75
12/16/2020 8:15:00 PM 1.37 34.466 0.551 8.1 58.99 12.77
12/16/2020 8:30:00 PM 1.19 34.142 0.552 8.09 66.5 12.78
12/16/2020 8:45:00 PM 1.23 34.214 0.547 8.09 54.12 12.78
12/16/2020 9:00:00 PM 1.26 34.268 0.549 8.09 62.8 12.79
12/16/2020 9:15:00 PM 1.22 34.196 0.554 8.09 70.58 12.81
12/16/2020 9:30:00 PM 1.21 34.178 0.543 8.09 50.66 12.8
12/16/2020 9:45:00 PM 1.2 34.16 0.556 8.09 58.88 12.82
12/16/2020 10:00:00 PM 1.17 34.106 0.556 8.08 55.43 12.83
12/16/2020 10:15:00 PM 1.12 34.016 0.557 8.08 51.38 12.84
12/16/2020 10:30:00 PM 1.11 33.998 0.557 8.08 57.33 12.86
12/16/2020 10:45:00 PM 1.01 33.818 0.558 8.07 54.57 12.89
12/16/2020 11:00:00 PM 0.85 33.53 0.558 8.07 58.75 12.91
12/16/2020 11:15:00 PM 0.59 33.062 0.558 8.08 48.63 12.9
12/16/2020 11:30:00 PM 0.45 32.81 0.558 8.08 59.37 12.9
12/16/2020 11:45:00 PM 0.46 32.828 0.533 8.08 55.57 12.92
12/17/2020 12:00:00 AM 0.41 32.738 0.559 8.08 72.31 12.94
12/17/2020 12:15:00 AM 0.27 32.486 0.56 8.08 54.41 12.95
12/17/2020 12:30:00 AM 0.25 32.45 0.56 8.08 60.68 12.98
12/17/2020 12:45:00 AM 0.22 32.396 0.561 8.08 52.32 13
12/17/2020 1:00:00 AM 0.14 32.252 0.562 8.09 48.47 13
12/17/2020 1:15:00 AM 0.11 32.198 0.562 8.08 45.99 13.04
12/17/2020 1:30:00 AM 0.05 32.09 0.562 8.08 42.98 13.07
12/17/2020 1:45:00 AM 0.06 32.108 0.563 8.09 42.74 13.07
12/17/2020 2:00:00 AM 0.03 32.054 0.563 8.09 36.6 13.09
12/17/2020 2:15:00 AM 0.05 32.09 0.564 8.09 43.39 13.08
12/17/2020 2:30:00 AM 0.04 32.072 0.556 8.09 41.35 13.13
12/17/2020 2:45:00 AM 0.03 32.054 0.555 8.09 43.79 13.15
12/17/2020 3:00:00 AM 0.03 32.054 0.555 8.09 41.88 13.16
12/17/2020 3:15:00 AM 0.06 32.108 0.56 8.09 44.25 13.17
12/17/2020 3:30:00 AM 0.11 32.198 0.567 8.09 43.23 13.18
12/17/2020 3:45:00 AM 0.14 32.252 0.564 8.08 49.61 13.22
12/17/2020 4:00:00 AM 0.17 32.306 0.565 8.09 41.47 13.19
12/17/2020 4:15:00 AM 0.2 32.36 0.57 8.09 46.47 13.22
12/17/2020 4:30:00 AM 0.22 32.396 0.571 8.09 53.36 13.25
12/17/2020 4:45:00 AM 0.23 32.414 0.572 8.09 52.01 13.26
12/17/2020 5:00:00 AM 0.25 32.45 0.573 8.09 47.11 13.27
12/17/2020 5:15:00 AM 0.26 32.468 0.57 8.08 53.26 13.29
12/17/2020 5:30:00 AM 0.27 32.486 0.574 8.09 44.78 13.31
12/17/2020 5:45:00 AM 0.28 32.504 0.569 8.09 55.84 13.32
12/17/2020 6:00:00 AM 0.28 32.504 0.575 8.09 49 13.34
12/17/2020 6:15:00 AM 0.28 32.504 0.576 8.09 55.06 13.34
12/17/2020 6:30:00 AM 0.28 32.504 0.577 8.08 56.26 13.38
12/17/2020 6:45:00 AM 0.27 32.486 0.578 8.09 51.57 13.38
12/17/2020 7:00:00 AM 0.27 32.486 0.578 8.09 53.71 13.39
12/17/2020 7:15:00 AM 0.27 32.486 0.579 8.09 46.75 13.4
12/17/2020 7:30:00 AM 0.28 32.504 0.58 8.09 57.43 13.43
12/17/2020 7:45:00 AM 0.28 32.504 0.581 8.08 44.02 13.43
12/17/2020 8:00:00 AM 0.29 32.522 0.58 8.09 53.96 13.45
12/17/2020 8:15:00 AM 0.31 32.558 0.577 8.09 49.69 13.48
12/17/2020 8:30:00 AM 0.34 32.612 0.578 8.09 50.78 13.51
12/17/2020 8:45:00 AM 0.37 32.666 0.578 8.09 48.95 13.53
12/17/2020 9:00:00 AM 0.41 32.738 0.582 8.09 56.79 13.56
12/17/2020 9:15:00 AM 0.45 32.81 0.58 8.09 55.97 13.57
12/17/2020 9:30:00 AM 0.52 32.936 0.58 8.09 51.96 13.59
12/17/2020 9:45:00 AM 0.59 33.062 0.581 8.09 52.72 13.61
12/17/2020 10:00:00 AM 0.68 33.224 0.582 8.09 54.97 13.67
12/17/2020 10:15:00 AM 0.8 33.44 0.583 8.09 50.74 13.71
12/17/2020 10:30:00 AM 0.92 33.656 0.582 8.09 50.16 13.75
12/17/2020 10:45:00 AM 1.05 33.89 0.587 8.09 50.46 13.77
12/17/2020 11:00:00 AM 1.18 34.124 0.59 8.09 49.38 13.82
12/17/2020 11:15:00 AM 1.29 34.322 0.591 8.1 54.65 13.86
12/17/2020 11:30:00 AM 1.39 34.502 0.587 8.1 61.92 13.89
12/17/2020 11:45:00 AM 1.47 34.646 0.595 8.1 63.43 13.89
12/17/2020 12:00:00 PM 1.54 34.772 0.596 8.1 54.66 13.91
12/17/2020 12:15:00 PM 1.61 34.898 0.595 8.1 37.48 13.94
12/17/2020 12:30:00 PM 1.66 34.988 0.596 8.1 48.63 14
12/17/2020 12:45:00 PM 1.74 35.132 0.596 8.1 50.43 14.02
12/17/2020 1:00:00 PM 1.8 35.24 0.592 8.1 57.22 14.04
12/17/2020 1:15:00 PM 1.87 35.366 0.593 8.11 50.53 14.05
12/17/2020 1:30:00 PM 1.94 35.492 0.594 8.11 45.84 14.09
12/17/2020 1:45:00 PM 1.99 35.582 0.594 8.11 41.21 14.1
12/17/2020 2:00:00 PM 2.03 35.654 0.595 8.12 51.71 14.12
12/17/2020 2:15:00 PM 2.07 35.726 0.595 8.15 53.08 14.14
12/17/2020 2:30:00 PM 2.1 35.78 0.596 8.14 50.15 14.15
12/17/2020 2:45:00 PM 2.11 35.798 0.596 8.15 51.25 14.15
12/17/2020 3:00:00 PM 2.13 35.834 0.598 8.15 57.14 14.14
12/17/2020 3:15:00 PM 2.15 35.87 0.6 8.16 40.92 14.14
12/17/2020 3:30:00 PM 2.16 35.888 0.601 8.16 42.18 14.13
12/17/2020 3:45:00 PM 2.19 35.942 0.602 8.17 48.46 14.11
12/17/2020 4:00:00 PM 2.21 35.978 0.602 8.17 57.51 14.1
12/17/2020 4:15:00 PM 2.22 35.996 0.602 8.18 51.19 14.08
12/17/2020 4:30:00 PM 2.21 35.978 0.603 8.18 53.98 14.04
12/17/2020 4:45:00 PM 2.2 35.96 0.602 8.18 47.67 14.01
12/17/2020 5:00:00 PM 2.19 35.942 0.602 8.18 58.1 13.95
12/17/2020 5:15:00 PM 2.17 35.906 0.604 8.18 61.47 13.93
12/17/2020 5:30:00 PM 2.15 35.87 0.604 8.19 57.1 13.88
12/17/2020 5:45:00 PM 2.13 35.834 0.605 8.19 48.32 13.86
12/17/2020 6:00:00 PM 2.1 35.78 0.606 8.19 49.91 13.84
12/17/2020 6:15:00 PM 2.09 35.762 0.607 8.19 46.09 13.81
12/17/2020 6:30:00 PM 2.07 35.726 0.608 8.19 44.01 13.77
12/17/2020 6:45:00 PM 2.05 35.69 0.608 8.19 47.07 13.71
12/17/2020 7:00:00 PM 2.03 35.654 0.604 8.19 52.17 13.66
12/17/2020 7:15:00 PM 2 35.6 0.597 8.19 56.46 13.63
12/17/2020 7:30:00 PM 1.97 35.546 0.612 8.19 63.05 13.59
12/17/2020 7:45:00 PM 1.95 35.51 0.586 8.19 46.71 13.55
12/17/2020 8:00:00 PM 1.92 35.456 0.613 8.19 46.41 13.51
12/17/2020 8:15:00 PM 1.9 35.42 0.614 8.19 47.64 13.48
12/17/2020 8:30:00 PM 1.87 35.366 0.615 8.18 43.44 13.43
12/17/2020 8:45:00 PM 1.84 35.312 0.616 8.18 48.82 13.43
12/17/2020 9:00:00 PM 1.81 35.258 0.617 8.18 47.73 13.4
12/17/2020 9:15:00 PM 1.78 35.204 0.617 8.18 43.56 13.37
12/17/2020 9:30:00 PM 1.74 35.132 0.618 8.17 46.29 13.35
12/17/2020 9:45:00 PM 1.7 35.06 0.618 8.17 47.16 13.34
12/17/2020 10:00:00 PM 1.67 35.006 0.619 8.17 40.41 13.3
12/17/2020 10:15:00 PM 1.64 34.952 0.62 8.16 41.05 13.31
12/17/2020 10:30:00 PM 1.61 34.898 0.62 8.16 45.62 13.3
12/17/2020 10:45:00 PM 1.57 34.826 0.62 8.16 40.04 13.27
12/17/2020 11:00:00 PM 1.52 34.736 0.621 8.16 40.67 13.28
12/17/2020 11:15:00 PM 1.48 34.664 0.621 8.15 43.01 13.28
12/17/2020 11:30:00 PM 1.46 34.628 0.622 8.15 45.25 13.26
12/17/2020 11:45:00 PM 1.42 34.556 0.622 8.15 41.79 13.27
12/18/2020 12:00:00 AM 1.4 34.52 0.623 8.15 35.22 13.27
12/18/2020 12:15:00 AM 1.37 34.466 0.623 8.15 34.49 13.28
12/18/2020 12:30:00 AM 1.35 34.43 0.623 8.14 35.74 13.29
12/18/2020 12:45:00 AM 1.32 34.376 0.624 8.14 34.16 13.28
12/18/2020 1:00:00 AM 1.3 34.34 0.625 8.14 41.77 13.29
12/18/2020 1:15:00 AM 1.27 34.286 0.626 8.14 43.46 13.31
12/18/2020 1:30:00 AM 1.25 34.25 0.627 8.13 41.55 13.29
12/18/2020 1:45:00 AM 1.22 34.196 0.614 8.13 41.68 13.31
12/18/2020 2:00:00 AM 1.18 34.124 0.635 8.13 36.16 13.3
12/18/2020 2:15:00 AM 1.15 34.07 0.634 8.13 42.97 13.3
12/18/2020 2:30:00 AM 1.12 34.016 0.639 8.13 44.11 13.31
12/18/2020 2:45:00 AM 1.09 33.962 0.643 8.12 34.73 13.32
12/18/2020 3:00:00 AM 1.06 33.908 0.647 8.13 46.93 13.33
12/18/2020 3:15:00 AM 1.04 33.872 0.651 8.13 45.65 13.33
12/18/2020 3:30:00 AM 1.01 33.818 0.654 8.12 45.34 13.34
12/18/2020 3:45:00 AM 1 33.8 0.657 8.12 51.9 13.34
12/18/2020 4:00:00 AM 0.99 33.782 0.66 8.12 38.11 13.35
12/18/2020 4:15:00 AM 1 33.8 0.664 8.12 49.63 13.37
12/18/2020 4:30:00 AM 0.99 33.782 0.666 8.12 36.51 13.36
12/18/2020 4:45:00 AM 0.97 33.746 0.669 8.12 38.64 13.35
12/18/2020 5:00:00 AM 0.96 33.728 0.671 8.12 39.18 13.38
12/18/2020 5:15:00 AM 0.95 33.71 0.673 8.11 36.87 13.39
12/18/2020 5:30:00 AM 0.93 33.674 0.675 8.11 40.84 13.36
12/18/2020 5:45:00 AM 0.91 33.638 0.677 8.11 43.48 13.39
12/18/2020 6:00:00 AM 0.9 33.62 0.678 8.11 44.32 13.4
12/18/2020 6:15:00 AM 0.89 33.602 0.679 8.11 32.81 13.4
12/18/2020 6:30:00 AM 0.88 33.584 0.68 8.11 39.2 13.39
12/18/2020 6:45:00 AM 0.88 33.584 0.681 8.11 40.27 13.4
12/18/2020 7:00:00 AM 0.88 33.584 0.68 8.11 47.35 13.41
12/18/2020 7:15:00 AM 0.88 33.584 0.681 8.11 42.19 13.42
12/18/2020 7:30:00 AM 0.88 33.584 0.681 8.11 34.94 13.43
12/18/2020 7:45:00 AM 0.89 33.602 0.68 8.11 42.93 13.44
12/18/2020 8:00:00 AM 0.89 33.602 0.679 8.11 42.52 13.47
12/18/2020 8:15:00 AM 0.91 33.638 0.679 8.11 38.06 13.49
12/18/2020 8:30:00 AM 0.93 33.674 0.677 8.11 42.45 13.53
12/18/2020 8:45:00 AM 0.97 33.746 0.676 8.11 37.23 13.55
12/18/2020 9:00:00 AM 1.01 33.818 0.674 8.12 39.56 13.61
12/18/2020 9:15:00 AM 1.05 33.89 0.673 8.11 37.4 13.66
12/18/2020 9:30:00 AM 1.1 33.98 0.671 8.12 36.93 13.71
12/18/2020 9:45:00 AM 1.16 34.088 0.669 8.12 44.59 13.74
12/18/2020 10:00:00 AM 1.2 34.16 0.668 8.13 39.36 13.79
12/18/2020 10:15:00 AM 1.26 34.268 0.666 8.12 37.25 13.84
12/18/2020 10:30:00 AM 1.36 34.448 0.664 8.13 40.07 13.89
12/18/2020 10:45:00 AM 1.49 34.682 0.662 8.13 44.56 13.92
12/18/2020 11:00:00 AM 1.61 34.898 0.66 8.13 29.72 13.97
12/18/2020 11:15:00 AM 1.67 35.006 0.658 8.13 32.53 14
12/18/2020 11:30:00 AM 1.74 35.132 0.656 8.14 52.68 14.03
12/18/2020 11:45:00 AM 1.8 35.24 0.655 8.14 40.78 14.07
12/18/2020 12:00:00 PM 1.87 35.366 0.653 8.14 49.17 14.09
12/18/2020 12:15:00 PM 1.93 35.474 0.652 8.15 37.19 14.12
12/18/2020 12:30:00 PM 2 35.6 0.65 8.15 47.55 14.16
12/18/2020 12:45:00 PM 2.08 35.744 0.649 8.16 58.22 14.2
12/18/2020 1:00:00 PM 2.15 35.87 0.648 8.16 47.61 14.21
12/18/2020 1:15:00 PM 2.23 36.014 0.647 8.16 40.06 14.23
12/18/2020 1:30:00 PM 2.31 36.158 0.646 8.17 38.85 14.27
12/18/2020 1:45:00 PM 2.35 36.23 0.645 8.17 50.08 14.27
12/18/2020 2:00:00 PM 2.41 36.338 0.645 8.18 49.73 14.28
12/18/2020 2:15:00 PM 2.46 36.428 0.644 8.18 41.62 14.27
12/18/2020 2:30:00 PM 2.5 36.5 0.644 8.19 53.82 14.28
12/18/2020 2:45:00 PM 2.51 36.518 0.644 8.19 37.5 14.26
12/18/2020 3:00:00 PM 2.52 36.536 0.643 8.19 46.84 14.25
12/18/2020 3:15:00 PM 2.52 36.536 0.643 8.2 46.4 14.22
12/18/2020 3:30:00 PM 2.55 36.59 0.643 8.2 50.33 14.19
12/18/2020 3:45:00 PM 2.59 36.662 0.643 8.2 47.68 14.2
12/18/2020 4:00:00 PM 2.61 36.698 0.643 8.21 40.35 14.19
12/18/2020 4:15:00 PM 2.64 36.752 0.644 8.21 36.02 14.15
12/18/2020 4:30:00 PM 2.66 36.788 0.645 8.22 40.09 14.12
12/18/2020 4:45:00 PM 2.66 36.788 0.645 8.22 46.12 14.06
12/18/2020 5:00:00 PM 2.67 36.806 0.646 8.22 39.63 14.01
12/18/2020 5:15:00 PM 2.67 36.806 0.646 8.22 36.89 13.98
12/18/2020 5:30:00 PM 2.66 36.788 0.647 8.23 46.92 13.93
12/18/2020 5:45:00 PM 2.65 36.77 0.648 8.23 50.78 13.89
12/18/2020 6:00:00 PM 2.64 36.752 0.649 8.23 49.97 13.85
12/18/2020 6:15:00 PM 2.61 36.698 0.65 8.23 38.87 13.81
12/18/2020 6:30:00 PM 2.58 36.644 0.651 8.23 60.39 13.78
12/18/2020 6:45:00 PM 2.54 36.572 0.652 8.23 29.59 13.73
12/18/2020 7:00:00 PM 2.5 36.5 0.653 8.23 40.28 13.69
12/18/2020 7:15:00 PM 2.46 36.428 0.653 8.23 43.72 13.64
12/18/2020 7:30:00 PM 2.41 36.338 0.654 8.23 52.35 13.61
12/18/2020 7:45:00 PM 2.38 36.284 0.655 8.23 61.95 13.55
12/18/2020 8:00:00 PM 2.34 36.212 0.656 8.23 58.66 13.51
12/18/2020 8:15:00 PM 2.3 36.14 0.657 8.22 51.55 13.5
12/18/2020 8:30:00 PM 2.26 36.068 0.658 8.22 37.28 13.45
12/18/2020 8:45:00 PM 2.21 35.978 0.658 8.22 39.52 13.43
12/18/2020 9:00:00 PM 2.17 35.906 0.658 8.22 44.33 13.41
12/18/2020 9:15:00 PM 2.12 35.816 0.659 8.21 42.36 13.38
12/18/2020 9:30:00 PM 2.07 35.726 0.658 8.21 41.12 13.34
12/18/2020 9:45:00 PM 2.02 35.636 0.658 8.21 36.77 13.32
12/18/2020 10:00:00 PM 1.97 35.546 0.658 8.21 37.04 13.31
12/18/2020 10:15:00 PM 1.92 35.456 0.657 8.2 36.36 13.29
12/18/2020 10:30:00 PM 1.87 35.366 0.654 8.2 37.92 13.28
12/18/2020 10:45:00 PM 1.82 35.276 0.654 8.2 38.62 13.27
12/18/2020 11:00:00 PM 1.77 35.186 0.655 8.19 36.38 13.26
12/18/2020 11:15:00 PM 1.72 35.096 0.653 8.19 42.55 13.25
12/18/2020 11:30:00 PM 1.67 35.006 0.652 8.19 39.18 13.26
12/18/2020 11:45:00 PM 1.62 34.916 0.652 8.19 40.13 13.24
12/19/2020 12:00:00 AM 1.57 34.826 0.652 8.18 30.08 13.24
12/19/2020 12:15:00 AM 1.52 34.736 0.652 8.18 43.23 13.24
12/19/2020 12:30:00 AM 1.46 34.628 0.651 8.18 44.42 13.24
12/19/2020 12:45:00 AM 1.41 34.538 0.651 8.18 37.37 13.25
12/19/2020 1:00:00 AM 1.37 34.466 0.651 8.18 41.78 13.25
12/19/2020 1:15:00 AM 1.32 34.376 0.65 8.17 34.88 13.26
12/19/2020 1:30:00 AM 1.27 34.286 0.65 8.17 34.98 13.25
12/19/2020 1:45:00 AM 1.23 34.214 0.65 8.17 31.97 13.26
12/19/2020 2:00:00 AM 1.19 34.142 0.649 8.16 33.6 13.28
12/19/2020 2:15:00 AM 1.15 34.07 0.65 8.16 37.58 13.3
12/19/2020 2:30:00 AM 1.1 33.98 0.649 8.16 38.21 13.31
12/19/2020 2:45:00 AM 1.07 33.926 0.649 8.16 39.22 13.31
12/19/2020 3:00:00 AM 1.03 33.854 0.649 8.16 29.19 13.32
12/19/2020 3:15:00 AM 0.99 33.782 0.649 8.16 38.96 13.34
12/19/2020 3:30:00 AM 0.95 33.71 0.648 8.16 40.96 13.35
12/19/2020 3:45:00 AM 0.92 33.656 0.648 8.16 33.93 13.37
12/19/2020 4:00:00 AM 0.87 33.566 0.648 8.16 33.1 13.36
12/19/2020 4:15:00 AM 0.83 33.494 0.648 8.16 36.75 13.38
12/19/2020 4:30:00 AM 0.8 33.44 0.648 8.16 36.88 13.41
12/19/2020 4:45:00 AM 0.76 33.368 0.647 8.16 31.16 13.42
12/19/2020 5:00:00 AM 0.72 33.296 0.647 8.16 33.01 13.41
12/19/2020 5:15:00 AM 0.69 33.242 0.645 8.16 39.8 13.44
12/19/2020 5:30:00 AM 0.65 33.17 0.645 8.15 32.78 13.47
12/19/2020 5:45:00 AM 0.62 33.116 0.646 8.16 31.61 13.48
12/19/2020 6:00:00 AM 0.59 33.062 0.646 8.16 31.52 13.48
12/19/2020 6:15:00 AM 0.54 32.972 0.646 8.16 39.6 13.5
12/19/2020 6:30:00 AM 0.51 32.918 0.647 8.15 33.21 13.53
12/19/2020 6:45:00 AM 0.48 32.864 0.647 8.16 35.64 13.52
12/19/2020 7:00:00 AM 0.45 32.81 0.648 8.15 30.95 13.55
12/19/2020 7:15:00 AM 0.42 32.756 0.648 8.16 30.2 13.57
12/19/2020 7:30:00 AM 0.39 32.702 0.649 8.15 33.15 13.58
12/19/2020 7:45:00 AM 0.36 32.648 0.649 8.15 26.57 13.6
12/19/2020 8:00:00 AM 0.34 32.612 0.65 8.15 31.08 13.63
12/19/2020 8:15:00 AM 0.33 32.594 0.65 8.15 36.92 13.67
12/19/2020 8:30:00 AM 0.32 32.576 0.649 8.15 31.16 13.71
12/19/2020 8:45:00 AM 0.32 32.576 0.65 8.16 35.31 13.75
12/19/2020 9:00:00 AM 0.33 32.594 0.65 8.16 33.06 13.8
12/19/2020 9:15:00 AM 0.35 32.63 0.65 8.16 51.58 13.83
12/19/2020 9:30:00 AM 0.38 32.684 0.65 8.16 38.28 13.89
12/19/2020 9:45:00 AM 0.43 32.774 0.65 8.16 41.26 13.94
12/19/2020 10:00:00 AM 0.49 32.882 0.649 8.16 32.43 13.98
12/19/2020 10:15:00 AM 0.56 33.008 0.648 8.16 28.13 14.03
12/19/2020 10:30:00 AM 0.64 33.152 0.647 8.16 35.65 14.08
12/19/2020 10:45:00 AM 0.72 33.296 0.647 8.16 33.61 14.1
12/19/2020 11:00:00 AM 0.81 33.458 0.646 8.17 32.02 14.15
12/19/2020 11:15:00 AM 0.9 33.62 0.645 8.17 30.27 14.18
12/19/2020 11:30:00 AM 0.99 33.782 0.644 8.17 29.6 14.22
12/19/2020 11:45:00 AM 1.09 33.962 0.642 8.17 33.44 14.26
12/19/2020 12:00:00 PM 1.18 34.124 0.641 8.18 40.47 14.28
12/19/2020 12:15:00 PM 1.27 34.286 0.641 8.18 33.48 14.31
12/19/2020 12:30:00 PM 1.37 34.466 0.64 8.18 35.68 14.35
12/19/2020 12:45:00 PM 1.46 34.628 0.639 8.18 31.76 14.37
12/19/2020 1:00:00 PM 1.56 34.808 0.638 8.19 28.96 14.37
12/19/2020 1:15:00 PM 1.65 34.97 0.637 8.19 30.46 14.42
12/19/2020 1:30:00 PM 1.74 35.132 0.636 8.2 28.57 14.43
12/19/2020 1:45:00 PM 1.82 35.276 0.634 8.2 32.9 14.45
12/19/2020 2:00:00 PM 1.9 35.42 0.633 8.2 33.14 14.46
12/19/2020 2:15:00 PM 1.98 35.564 0.632 8.21 29.72 14.47
12/19/2020 2:30:00 PM 2.05 35.69 0.631 8.21 28.52 14.48
12/19/2020 2:45:00 PM 2.11 35.798 0.631 8.22 33.86 14.48
12/19/2020 3:00:00 PM 2.17 35.906 0.63 8.22 33.95 14.47
12/19/2020 3:15:00 PM 2.23 36.014 0.629 8.23 33.87 14.47
12/19/2020 3:30:00 PM 2.28 36.104 0.628 8.23 30.28 14.46
12/19/2020 3:45:00 PM 2.31 36.158 0.628 8.23 31.62 14.42
12/19/2020 4:00:00 PM 2.34 36.212 0.626 8.24 34.7 14.4
12/19/2020 4:15:00 PM 2.35 36.23 0.626 8.24 29.13 14.36
12/19/2020 4:30:00 PM 2.37 36.266 0.626 8.25 29.65 14.3
12/19/2020 4:45:00 PM 2.38 36.284 0.625 8.25 33.17 14.26
12/19/2020 5:00:00 PM 2.39 36.302 0.625 8.25 33.07 14.19
12/19/2020 5:15:00 PM 2.41 36.338 0.624 8.26 36.16 14.13
12/19/2020 5:30:00 PM 2.42 36.356 0.624 8.26 32.04 14.1
12/19/2020 5:45:00 PM 2.42 36.356 0.622 8.26 31.59 14.06
12/19/2020 6:00:00 PM 2.41 36.338 0.622 8.26 40.2 13.99
12/19/2020 6:15:00 PM 2.39 36.302 0.621 8.26 33.16 13.94
12/19/2020 6:30:00 PM 2.37 36.266 0.62 8.26 31.62 13.91
12/19/2020 6:45:00 PM 2.35 36.23 0.62 8.26 40.15 13.84
12/19/2020 7:00:00 PM 2.33 36.194 0.62 8.26 31.75 13.8
12/19/2020 7:15:00 PM 2.3 36.14 0.62 8.26 28.88 13.74
12/19/2020 7:30:00 PM 2.28 36.104 0.62 8.26 33.64 13.67
12/19/2020 7:45:00 PM 2.25 36.05 0.62 8.26 35.18 13.64
12/19/2020 8:00:00 PM 2.22 35.996 0.62 8.26 36.04 13.59
12/19/2020 8:15:00 PM 2.21 35.978 0.621 8.26 32.74 13.55
12/19/2020 8:30:00 PM 2.2 35.96 0.62 8.26 32.59 13.54
12/19/2020 8:45:00 PM 2.18 35.924 0.62 8.26 28.8 13.49
12/19/2020 9:00:00 PM 2.14 35.852 0.62 8.26 27.74 13.47
12/19/2020 9:15:00 PM 2.1 35.78 0.621 8.25 30.46 13.43
12/19/2020 9:30:00 PM 2.08 35.744 0.621 8.25 27.54 13.38
12/19/2020 9:45:00 PM 2.05 35.69 0.621 8.24 28.86 13.37
12/19/2020 10:00:00 PM 2.01 35.618 0.622 8.24 36.17 13.34
12/19/2020 10:15:00 PM 1.98 35.564 0.622 8.24 31.12 13.34
12/19/2020 10:30:00 PM 1.95 35.51 0.622 8.24 31.41 13.32
12/19/2020 10:45:00 PM 1.92 35.456 0.622 8.23 29.01 13.3
12/19/2020 11:00:00 PM 1.88 35.384 0.622 8.23 31.34 13.28
12/19/2020 11:15:00 PM 1.83 35.294 0.623 8.22 28.6 13.23
12/19/2020 11:30:00 PM 1.79 35.222 0.623 8.22 28.46 13.22
12/19/2020 11:45:00 PM 1.75 35.15 0.623 8.21 29.03 13.21
12/20/2020 12:00:00 AM 1.72 35.096 0.623 8.21 27.65 13.23
12/20/2020 12:15:00 AM 1.71 35.078 0.623 8.2 32.85 13.23
12/20/2020 12:30:00 AM 1.69 35.042 0.623 8.2 30.67 13.21
12/20/2020 12:45:00 AM 1.68 35.024 0.623 8.2 28.77 13.18
12/20/2020 1:00:00 AM 1.66 34.988 0.623 8.19 30.18 13.2
12/20/2020 1:15:00 AM 1.65 34.97 0.623 8.19 35.99 13.18
12/20/2020 1:30:00 AM 1.64 34.952 0.624 8.19 27.77 13.19
12/20/2020 1:45:00 AM 1.63 34.934 0.624 8.19 27.02 13.19
12/20/2020 2:00:00 AM 1.62 34.916 0.624 8.18 28.72 13.17
12/20/2020 2:15:00 AM 1.62 34.916 0.624 8.18 28.79 13.17
12/20/2020 2:30:00 AM 1.61 34.898 0.624 8.18 27.89 13.17
12/20/2020 2:45:00 AM 1.61 34.898 0.624 8.18 30.29 13.16
12/20/2020 3:00:00 AM 1.62 34.916 0.624 8.17 25.41 13.16
12/20/2020 3:15:00 AM 1.62 34.916 0.624 8.17 50.19 13.14
12/20/2020 3:30:00 AM 1.64 34.952 0.624 8.17 22.44 13.14
12/20/2020 3:45:00 AM 1.64 34.952 0.624 8.17 26.98 13.15
12/20/2020 4:00:00 AM 1.66 34.988 0.624 8.17 26.83 13.14
12/20/2020 4:15:00 AM 1.67 35.006 0.624 8.17 26.96 13.13
12/20/2020 4:30:00 AM 1.69 35.042 0.625 8.17 29.81 13.14
12/20/2020 4:45:00 AM 1.71 35.078 0.624 8.16 29.43 13.1
12/20/2020 5:00:00 AM 1.72 35.096 0.625 8.16 26.33 13.11
12/20/2020 5:15:00 AM 1.74 35.132 0.625 8.16 27.17 13.11
12/20/2020 5:30:00 AM 1.76 35.168 0.625 8.16 35.5 13.11
12/20/2020 5:45:00 AM 1.78 35.204 0.623 8.16 30.79 13.09
12/20/2020 6:00:00 AM 1.79 35.222 0.624 8.16 28.76 13.08
12/20/2020 6:15:00 AM 1.81 35.258 0.623 8.16 33.77 13.09
12/20/2020 6:30:00 AM 1.83 35.294 0.624 8.16 44.52 13.05
12/20/2020 6:45:00 AM 1.84 35.312 0.624 8.16 31.67 13.07
12/20/2020 7:00:00 AM 1.86 35.348 0.624 8.16 29.22 13.07
12/20/2020 7:15:00 AM 1.88 35.384 0.624 8.16 30.83 13.06
12/20/2020 7:30:00 AM 1.9 35.42 0.621 8.16 26.61 13.03
12/20/2020 7:45:00 AM 1.91 35.438 0.623 8.15 23.4 13.05
12/20/2020 8:00:00 AM 1.94 35.492 0.622 8.15 28.28 13.05
12/20/2020 8:15:00 AM 1.96 35.528 0.622 8.15 30.88 13.05
12/20/2020 8:30:00 AM 1.99 35.582 0.622 8.15 30.01 13.08
12/20/2020 8:45:00 AM 2.02 35.636 0.622 8.15 26.47 13.12
12/20/2020 9:00:00 AM 2.06 35.708 0.621 8.15 31.24 13.14
12/20/2020 9:15:00 AM 2.1 35.78 0.62 8.16 31.84 13.18
12/20/2020 9:30:00 AM 2.14 35.852 0.62 8.16 34.4 13.2
12/20/2020 9:45:00 AM 2.18 35.924 0.619 8.16 32.24 13.24
12/20/2020 10:00:00 AM 2.23 36.014 0.619 8.16 30.82 13.27
12/20/2020 10:15:00 AM 2.29 36.122 0.619 8.16 34.18 13.31
12/20/2020 10:30:00 AM 2.36 36.248 0.618 8.16 25.82 13.33
12/20/2020 10:45:00 AM 2.44 36.392 0.618 8.16 26.7 13.39
12/20/2020 11:00:00 AM 2.51 36.518 0.618 8.16 23.89 13.43
12/20/2020 11:15:00 AM 2.55 36.59 0.617 8.17 29.06 13.44
12/20/2020 11:30:00 AM 2.62 36.716 0.617 8.17 29.84 13.46
12/20/2020 11:45:00 AM 2.74 36.932 0.617 8.17 28.37 13.49
12/20/2020 12:00:00 PM 2.81 37.058 0.616 8.17 30.06 13.55
12/20/2020 12:15:00 PM 2.91 37.238 0.616 8.18 33.12 13.55
12/20/2020 12:30:00 PM 2.99 37.382 0.615 8.18 35.75 13.59
12/20/2020 12:45:00 PM 3.09 37.562 0.616 8.18 30.45 13.65
12/20/2020 1:00:00 PM 3.23 37.814 0.616 8.19 32.27 13.68
12/20/2020 1:15:00 PM 3.31 37.958 0.616 8.19 30.25 13.71
12/20/2020 1:30:00 PM 3.37 38.066 0.616 8.19 27.63 13.72
12/20/2020 1:45:00 PM 3.43 38.174 0.616 8.2 40.59 13.74
12/20/2020 2:00:00 PM 3.5 38.3 0.616 8.2 34.03 13.73
12/20/2020 2:15:00 PM 3.58 38.444 0.616 8.2 32.46 13.74
12/20/2020 2:30:00 PM 3.64 38.552 0.616 8.21 31.12 13.78
12/20/2020 2:45:00 PM 3.71 38.678 0.617 8.21 31.42 13.78
12/20/2020 3:00:00 PM 3.77 38.786 0.617 8.22 30.79 13.79
12/20/2020 3:15:00 PM 3.82 38.876 0.616 8.22 30.17 13.77
12/20/2020 3:30:00 PM 3.86 38.948 0.612 8.23 21.77 13.77
12/20/2020 3:45:00 PM 3.9 39.02 0.609 8.23 30.38 13.72
12/20/2020 4:00:00 PM 3.93 39.074 0.616 8.23 32.27 13.71
12/20/2020 4:15:00 PM 3.94 39.092 0.618 8.24 30.16 13.69
12/20/2020 4:30:00 PM 3.94 39.092 0.618 8.24 32.53 13.62
12/20/2020 4:45:00 PM 3.96 39.128 0.618 8.24 36.46 13.57
12/20/2020 5:00:00 PM 3.96 39.128 0.619 8.25 39.08 13.52
12/20/2020 5:15:00 PM 3.95 39.11 0.617 8.25 31.86 13.46
12/20/2020 5:30:00 PM 3.94 39.092 0.62 8.25 30.56 13.41
12/20/2020 5:45:00 PM 3.93 39.074 0.618 8.25 32.54 13.36
12/20/2020 6:00:00 PM 3.92 39.056 0.62 8.25 34.99 13.3
12/20/2020 6:15:00 PM 3.91 39.038 0.621 8.25 29.95 13.26
12/20/2020 6:30:00 PM 3.91 39.038 0.621 8.26 29.64 13.22
12/20/2020 6:45:00 PM 3.91 39.038 0.622 8.26 35.58 13.15
12/20/2020 7:00:00 PM 3.91 39.038 0.623 8.26 24.85 13.11
12/20/2020 7:15:00 PM 3.9 39.02 0.625 8.26 22.63 13.07
12/20/2020 7:30:00 PM 3.88 38.984 0.625 8.26 30.27 12.99
12/20/2020 7:45:00 PM 3.88 38.984 0.621 8.25 35.67 12.96
12/20/2020 8:00:00 PM 3.87 38.966 0.622 8.25 33.6 12.91
12/20/2020 8:15:00 PM 3.86 38.948 0.625 8.25 25.15 12.86
12/20/2020 8:30:00 PM 3.85 38.93 0.626 8.25 37.25 12.82
12/20/2020 8:45:00 PM 3.84 38.912 0.627 8.24 26.14 12.75
12/20/2020 9:00:00 PM 3.84 38.912 0.627 8.24 27.33 12.73
12/20/2020 9:15:00 PM 3.83 38.894 0.628 8.24 36.01 12.68
12/20/2020 9:30:00 PM 3.82 38.876 0.63 8.23 36.31 12.64
12/20/2020 9:45:00 PM 3.8 38.84 0.632 8.23 30.76 12.6
12/20/2020 10:00:00 PM 3.78 38.804 0.631 8.22 40.06 12.57
12/20/2020 10:15:00 PM 3.75 38.75 0.632 8.22 25.61 12.53
12/20/2020 10:30:00 PM 3.72 38.696 0.631 8.21 39.73 12.5
12/20/2020 10:45:00 PM 3.71 38.678 0.632 8.21 34.17 12.47
12/20/2020 11:00:00 PM 3.7 38.66 0.633 8.2 32.18 12.46
12/20/2020 11:15:00 PM 3.69 38.642 0.632 8.2 31.35 12.43
12/20/2020 11:30:00 PM 3.68 38.624 0.634 8.19 30.44 12.4
12/20/2020 11:45:00 PM 3.67 38.606 0.636 8.19 35.08 12.39
12/21/2020 12:00:00 AM 3.65 38.57 0.637 8.18 43.97 12.36
12/21/2020 12:15:00 AM 3.64 38.552 0.637 8.18 39.77 12.35
12/21/2020 12:30:00 AM 3.63 38.534 0.638 8.18 43.73 12.32
12/21/2020 12:45:00 AM 3.62 38.516 0.638 8.17 52 12.32
12/21/2020 1:00:00 AM 3.62 38.516 0.636 8.17 41.71 12.29
12/21/2020 1:15:00 AM 3.62 38.516 0.638 8.16 33.11 12.28
12/21/2020 1:30:00 AM 3.61 38.498 0.638 8.16 31.09 12.26
12/21/2020 1:45:00 AM 3.62 38.516 0.638 8.16 44.11 12.25
12/21/2020 2:00:00 AM 3.62 38.516 0.639 8.15 35.06 12.24
12/21/2020 2:15:00 AM 3.62 38.516 0.639 8.15 28.43 12.23
12/21/2020 2:30:00 AM 3.63 38.534 0.639 8.15 40.26 12.22
12/21/2020 2:45:00 AM 3.64 38.552 0.639 8.15 34.34 12.22
12/21/2020 3:00:00 AM 3.65 38.57 0.64 8.14 31.78 12.19
12/21/2020 3:15:00 AM 3.66 38.588 0.64 8.14 31.46 12.18
12/21/2020 3:30:00 AM 3.68 38.624 0.64 8.14 37.53 12.17
12/21/2020 3:45:00 AM 3.69 38.642 0.641 8.14 25.26 12.17
12/21/2020 4:00:00 AM 3.71 38.678 0.641 8.14 35.06 12.16
12/21/2020 4:15:00 AM 3.72 38.696 0.641 8.14 32.91 12.15
12/21/2020 4:30:00 AM 3.74 38.732 0.641 8.14 27.42 12.14
12/21/2020 4:45:00 AM 3.75 38.75 0.642 8.14 27.13 12.12
12/21/2020 5:00:00 AM 3.77 38.786 0.642 8.14 42.03 12.13
12/21/2020 5:15:00 AM 3.79 38.822 0.642 8.13 32.84 12.1
12/21/2020 5:30:00 AM 3.81 38.858 0.642 8.13 25.97 12.08
12/21/2020 5:45:00 AM 3.83 38.894 0.643 8.13 35.18 12.1
12/21/2020 6:00:00 AM 3.84 38.912 0.643 8.13 34.66 12.06
12/21/2020 6:15:00 AM 3.86 38.948 0.643 8.13 24.41 12.07
12/21/2020 6:30:00 AM 3.87 38.966 0.643 8.13 30.4 12.06
12/21/2020 6:45:00 AM 3.89 39.002 0.644 8.13 28.5 12.05
12/21/2020 7:00:00 AM 3.9 39.02 0.644 8.13 37.02 12.05
12/21/2020 7:15:00 AM 3.92 39.056 0.644 8.13 44.14 12.04
12/21/2020 7:30:00 AM 3.93 39.074 0.644 8.13 32.66 12.03
12/21/2020 7:45:00 AM 3.95 39.11 0.644 8.13 24.37 12.01
12/21/2020 8:00:00 AM 3.97 39.146 0.644 8.13 33.23 12.02
12/21/2020 8:15:00 AM 4 39.2 0.644 8.13 24.34 12.04
12/21/2020 8:30:00 AM 4.02 39.236 0.644 8.13 26.29 12.07
12/21/2020 8:45:00 AM 4.04 39.272 0.645 8.13 25.44 12.09
12/21/2020 9:00:00 AM 4.07 39.326 0.645 8.13 34.09 12.11
12/21/2020 9:15:00 AM 4.1 39.38 0.644 8.13 35.4 12.13
12/21/2020 9:30:00 AM 4.14 39.452 0.644 8.13 36.96 12.16
12/21/2020 9:45:00 AM 4.16 39.488 0.644 8.13 29.63 12.21
12/21/2020 10:00:00 AM 4.19 39.542 0.644 8.13 35.22 12.22
12/21/2020 10:15:00 AM 4.23 39.614 0.644 8.13 33.22 12.24
12/21/2020 10:30:00 AM 4.28 39.704 0.644 8.13 29.75 12.3
12/21/2020 10:45:00 AM 4.33 39.794 0.644 8.14 40.08 12.38
12/21/2020 11:00:00 AM 4.38 39.884 0.644 8.14 42.11 12.43
12/21/2020 11:15:00 AM 4.43 39.974 0.643 8.14 41.1 12.47
12/21/2020 11:30:00 AM 4.49 40.082 0.643 8.14 24.48 12.51
12/21/2020 11:45:00 AM 4.55 40.19 0.643 8.14 33.58 12.55
12/21/2020 12:00:00 PM 4.62 40.316 0.643 8.15 37.26 12.61
12/21/2020 12:15:00 PM 4.68 40.424 0.642 8.15 36.82 12.63
12/21/2020 12:30:00 PM 4.74 40.532 0.641 8.15 36.15 12.7
12/21/2020 12:45:00 PM 4.78 40.604 0.641 8.16 45.02 12.72
12/21/2020 1:00:00 PM 4.82 40.676 0.641 8.16 40.52 12.75
12/21/2020 1:15:00 PM 4.88 40.784 0.64 8.17 38.57 12.76
12/21/2020 1:30:00 PM 4.94 40.892 0.64 8.17 45.14 12.79
12/21/2020 1:45:00 PM 4.99 40.982 0.641 8.17 38.6 12.84
12/21/2020 2:00:00 PM 5.06 41.108 0.641 8.18 39.7 12.89
12/21/2020 2:15:00 PM 5.11 41.198 0.64 8.18 35.11 12.9
12/21/2020 2:30:00 PM 5.17 41.306 0.64 8.19 24.79 12.94
12/21/2020 2:45:00 PM 5.22 41.396 0.64 8.19 36.28 12.93
12/21/2020 3:00:00 PM 5.25 41.45 0.64 8.2 43.25 12.95
12/21/2020 3:15:00 PM 5.28 41.504 0.639 8.2 41.06 12.96
12/21/2020 3:30:00 PM 5.3 41.54 0.639 8.21 35.37 12.95
12/21/2020 3:45:00 PM 5.33 41.594 0.639 8.21 43.87 12.96
12/21/2020 4:00:00 PM 5.34 41.612 0.639 8.21 46.03 12.89
12/21/2020 4:15:00 PM 5.34 41.612 0.639 8.22 44.43 12.86
12/21/2020 4:30:00 PM 5.35 41.63 0.639 8.22 44.54 12.8
12/21/2020 4:45:00 PM 5.34 41.612 0.639 8.22 33.79 12.73
12/21/2020 5:00:00 PM 5.34 41.612 0.639 8.22 38.19 12.71
12/21/2020 5:15:00 PM 5.34 41.612 0.639 8.22 51.24 12.67
12/21/2020 5:30:00 PM 5.34 41.612 0.639 8.22 32.08 12.62
12/21/2020 5:45:00 PM 5.34 41.612 0.639 8.23 35.15 12.58
12/21/2020 6:00:00 PM 5.34 41.612 0.639 8.23 29.55 12.53
12/21/2020 6:15:00 PM 5.34 41.612 0.64 8.23 33.36 12.46
12/21/2020 6:30:00 PM 5.34 41.612 0.64 8.23 40.45 12.44
12/21/2020 6:45:00 PM 5.34 41.612 0.64 8.23 35.01 12.39
12/21/2020 7:00:00 PM 5.33 41.594 0.64 8.23 34.47 12.33
12/21/2020 7:15:00 PM 5.32 41.576 0.641 8.23 38.69 12.28
12/21/2020 7:30:00 PM 5.31 41.558 0.641 8.22 37.96 12.21
12/21/2020 7:45:00 PM 5.28 41.504 0.641 8.22 36.67 12.16
12/21/2020 8:00:00 PM 5.26 41.468 0.642 8.22 34.13 12.1
12/21/2020 8:15:00 PM 5.25 41.45 0.642 8.21 33.87 12.05
12/21/2020 8:30:00 PM 5.25 41.45 0.643 8.21 33.73 11.99
12/21/2020 8:45:00 PM 5.24 41.432 0.643 8.21 37.75 11.96
12/21/2020 9:00:00 PM 5.23 41.414 0.644 8.2 36.73 11.91
12/21/2020 9:15:00 PM 5.22 41.396 0.644 8.2 29.67 11.86
12/21/2020 9:30:00 PM 5.2 41.36 0.645 8.19 35.49 11.81
12/21/2020 9:45:00 PM 5.19 41.342 0.645 8.19 35.6 11.8
12/21/2020 10:00:00 PM 5.18 41.324 0.645 8.18 33.06 11.77
12/21/2020 10:15:00 PM 5.17 41.306 0.646 8.18 38.26 11.72
12/21/2020 10:30:00 PM 5.16 41.288 0.647 8.17 38.2 11.67
12/21/2020 10:45:00 PM 5.14 41.252 0.647 8.17 34.76 11.65
12/21/2020 11:00:00 PM 5.13 41.234 0.648 8.16 34.85 11.62
12/21/2020 11:15:00 PM 5.11 41.198 0.648 8.15 30.93 11.59
12/21/2020 11:30:00 PM 5.1 41.18 0.649 8.15 30.93 11.57
12/21/2020 11:45:00 PM 5.09 41.162 0.649 8.14 30.76 11.55
12/22/2020 12:00:00 AM 5.09 41.162 0.649 8.14 32.86 11.51
12/22/2020 12:15:00 AM 5.08 41.144 0.65 8.13 32.01 11.49
12/22/2020 12:30:00 AM 5.07 41.126 0.65 8.13 27.71 11.48
12/22/2020 12:45:00 AM 5.07 41.126 0.65 8.12 34.47 11.46
12/22/2020 1:00:00 AM 5.07 41.126 0.65 8.12 31.98 11.44
12/22/2020 1:15:00 AM 5.07 41.126 0.651 8.11 32.88 11.43
12/22/2020 1:30:00 AM 5.06 41.108 0.651 8.11 29.07 11.4
12/22/2020 1:45:00 AM 5.05 41.09 0.651 8.11 33.76 11.39
12/22/2020 2:00:00 AM 5.05 41.09 0.651 8.1 28 11.39
12/22/2020 2:15:00 AM 5.06 41.108 0.652 8.1 29.25 11.38
12/22/2020 2:30:00 AM 5.07 41.126 0.652 8.1 30.97 11.36
12/22/2020 2:45:00 AM 5.07 41.126 0.652 8.1 31.82 11.35
12/22/2020 3:00:00 AM 5.08 41.144 0.653 8.09 29.98 11.35
12/22/2020 3:15:00 AM 5.08 41.144 0.653 8.09 31.73 11.34
12/22/2020 3:30:00 AM 5.09 41.162 0.653 8.09 26.39 11.34
12/22/2020 3:45:00 AM 5.1 41.18 0.653 8.09 23.19 11.31
12/22/2020 4:00:00 AM 5.11 41.198 0.653 8.09 30.4 11.32
12/22/2020 4:15:00 AM 5.12 41.216 0.654 8.09 40.97 11.31
12/22/2020 4:30:00 AM 5.12 41.216 0.654 8.09 27.47 11.31
12/22/2020 4:45:00 AM 5.14 41.252 0.654 8.08 29.18 11.3
12/22/2020 5:00:00 AM 5.14 41.252 0.655 8.08 31.32 11.31
12/22/2020 5:15:00 AM 5.16 41.288 0.655 8.08 37.17 11.3
12/22/2020 5:30:00 AM 5.17 41.306 0.656 8.08 33.42 11.31
12/22/2020 5:45:00 AM 5.18 41.324 0.656 8.08 32.99 11.29
12/22/2020 6:00:00 AM 5.18 41.324 0.656 8.08 33.4 11.27
12/22/2020 6:15:00 AM 5.18 41.324 0.657 8.07 31.28 11.29
12/22/2020 6:30:00 AM 5.19 41.342 0.657 8.07 26.24 11.27
12/22/2020 6:45:00 AM 5.2 41.36 0.658 8.07 32.27 11.28
12/22/2020 7:00:00 AM 5.21 41.378 0.658 8.07 37.37 11.27
12/22/2020 7:15:00 AM 5.22 41.396 0.658 8.07 34.23 11.27
12/22/2020 7:30:00 AM 5.23 41.414 0.657 8.07 26.38 11.27
12/22/2020 7:45:00 AM 5.24 41.432 0.657 8.07 29.96 11.27
12/22/2020 8:00:00 AM 5.25 41.45 0.657 8.07 34.17 11.29
12/22/2020 8:15:00 AM 5.27 41.486 0.657 8.07 32.12 11.3
12/22/2020 8:30:00 AM 5.29 41.522 0.656 8.07 32.25 11.31
12/22/2020 8:45:00 AM 5.32 41.576 0.655 8.07 26.53 11.34
12/22/2020 9:00:00 AM 5.35 41.63 0.655 8.07 35.83 11.37
12/22/2020 9:15:00 AM 5.39 41.702 0.654 8.07 33.35 11.46
12/22/2020 9:30:00 AM 5.41 41.738 0.654 8.07 36.66 11.51
12/22/2020 9:45:00 AM 5.45 41.81 0.653 8.07 36.77 11.55
12/22/2020 10:00:00 AM 5.5 41.9 0.653 8.08 36.83 11.6
12/22/2020 10:15:00 AM 5.55 41.99 0.653 8.08 39.05 11.64
12/22/2020 10:30:00 AM 5.58 42.044 0.652 8.08 30.5 11.69
12/22/2020 10:45:00 AM 5.61 42.098 0.651 8.08 33.14 11.73
12/22/2020 11:00:00 AM 5.66 42.188 0.65 8.09 23.07 11.76
12/22/2020 11:15:00 AM 5.72 42.296 0.65 8.09 38.87 11.85
12/22/2020 11:30:00 AM 5.88 42.584 0.649 8.09 31.44 11.92
12/22/2020 11:45:00 AM 6.02 42.836 0.648 8.1 40.47 11.99
12/22/2020 12:00:00 PM 6.07 42.926 0.648 8.1 34.36 12.04
12/22/2020 12:15:00 PM 6.09 42.962 0.647 8.1 29.79 12.06
12/22/2020 12:30:00 PM 6.09 42.962 0.647 8.11 28.11 12.09
12/22/2020 12:45:00 PM 6.12 43.016 0.647 8.11 37.24 12.13
12/22/2020 1:00:00 PM 6.17 43.106 0.646 8.12 35.94 12.15
12/22/2020 1:15:00 PM 6.31 43.358 0.646 8.12 31.83 12.21
12/22/2020 1:30:00 PM 6.39 43.502 0.647 8.13 38.63 12.29
12/22/2020 1:45:00 PM 6.39 43.502 0.647 8.13 39.06 12.34
12/22/2020 2:00:00 PM 6.41 43.538 0.647 8.14 40.01 12.38
12/22/2020 2:15:00 PM 6.43 43.574 0.647 8.14 27.8 12.38
12/22/2020 2:30:00 PM 6.47 43.646 0.648 8.15 36.88 12.39
12/22/2020 2:45:00 PM 6.49 43.682 0.648 8.15 36.5 12.41
12/22/2020 3:00:00 PM 6.52 43.736 0.648 8.16 28.51 12.4
12/22/2020 3:15:00 PM 6.55 43.79 0.648 8.16 33.71 12.4
12/22/2020 3:30:00 PM 6.6 43.88 0.649 8.16 37.63 12.41
12/22/2020 3:45:00 PM 6.61 43.898 0.649 8.17 31.26 12.39
12/22/2020 4:00:00 PM 6.49 43.682 0.649 8.17 34.61 12.39
12/22/2020 4:15:00 PM 6.34 43.412 0.641 8.17 42.75 12.35
12/22/2020 4:30:00 PM 6.3 43.34 0.638 8.17 43.25 12.34
12/22/2020 4:45:00 PM 6.3 43.34 0.638 8.17 33.59 12.29
12/22/2020 5:00:00 PM 6.23 43.214 0.638 8.17 47.54 12.26
12/22/2020 5:15:00 PM 6.41 43.538 0.64 8.17 41.61 12.17
12/22/2020 5:30:00 PM 6.29 43.322 0.637 8.17 42.46 12.13
12/22/2020 5:45:00 PM 6.25 43.25 0.636 8.16 38.56 12.08
12/22/2020 6:00:00 PM 6.2 43.16 0.629 8.16 37.71 12
12/22/2020 6:15:00 PM 6.17 43.106 0.632 8.16 39.59 11.97
12/22/2020 6:30:00 PM 6.21 43.178 0.631 8.15 39.59 11.89
12/22/2020 6:45:00 PM 6.18 43.124 0.629 8.14 39.85 11.85
12/22/2020 7:00:00 PM 6.12 43.016 0.625 8.14 39.11 11.81
12/22/2020 7:15:00 PM 6.18 43.124 0.624 8.13 43.98 11.77
12/22/2020 7:30:00 PM 6.16 43.088 0.624 8.12 34.67 11.72
12/22/2020 7:45:00 PM 6.08 42.944 0.623 8.12 33.51 11.69
12/22/2020 8:00:00 PM 6.07 42.926 0.622 8.11 40.53 11.63
12/22/2020 8:15:00 PM 6.01 42.818 0.62 8.11 38.27 11.63
12/22/2020 8:30:00 PM 6 42.8 0.62 8.1 40.52 11.58
12/22/2020 8:45:00 PM 6.01 42.818 0.619 8.1 48.98 11.55
12/22/2020 9:00:00 PM 5.95 42.71 0.618 8.09 37.49 11.53
12/22/2020 9:15:00 PM 5.95 42.71 0.616 8.09 42.27 11.48
12/22/2020 9:30:00 PM 5.9 42.62 0.615 8.08 38.17 11.46
12/22/2020 9:45:00 PM 5.88 42.584 0.615 8.07 43.01 11.43
12/22/2020 10:00:00 PM 5.85 42.53 0.615 8.07 40.11 11.42
12/22/2020 10:15:00 PM 5.83 42.494 0.614 8.06 37.24 11.39
12/22/2020 10:30:00 PM 5.82 42.476 0.614 8.06 43.85 11.35
12/22/2020 10:45:00 PM 5.8 42.44 0.614 8.06 40.57 11.35
12/22/2020 11:00:00 PM 5.77 42.386 0.613 8.05 30.78 11.33
12/22/2020 11:15:00 PM 5.75 42.35 0.614 8.05 43.76 11.31
12/22/2020 11:30:00 PM 5.72 42.296 0.614 8.05 35.35 11.31
12/22/2020 11:45:00 PM 5.71 42.278 0.614 8.04 37.93 11.32
12/23/2020 12:00:00 AM 5.7 42.26 0.614 8.04 40.06 11.31
12/23/2020 12:15:00 AM 5.68 42.224 0.615 8.04 38.91 11.29
12/23/2020 12:30:00 AM 5.66 42.188 0.615 8.04 34.62 11.3
12/23/2020 12:45:00 AM 5.64 42.152 0.616 8.03 37.29 11.3
12/23/2020 1:00:00 AM 5.63 42.134 0.616 8.03 34.04 11.31
12/23/2020 1:15:00 AM 5.61 42.098 0.616 8.03 39.01 11.3
12/23/2020 1:30:00 AM 5.58 42.044 0.616 8.03 44.03 11.31
12/23/2020 1:45:00 AM 5.56 42.008 0.616 8.03 40.9 11.3
12/23/2020 2:00:00 AM 5.54 41.972 0.615 8.03 38.22 11.32
12/23/2020 2:15:00 AM 5.52 41.936 0.614 8.03 39.69 11.33
12/23/2020 2:30:00 AM 5.5 41.9 0.613 8.02 39.7 11.32
12/23/2020 2:45:00 AM 5.47 41.846 0.611 8.02 34.07 11.32
12/23/2020 3:00:00 AM 5.45 41.81 0.609 8.02 42.21 11.35
12/23/2020 3:15:00 AM 5.42 41.756 0.607 8.02 35.99 11.35
12/23/2020 3:30:00 AM 5.4 41.72 0.605 8.02 38.82 11.36
12/23/2020 3:45:00 AM 5.37 41.666 0.603 8.02 34.77 11.36
12/23/2020 4:00:00 AM 5.33 41.594 0.601 8.02 37.03 11.38
12/23/2020 4:15:00 AM 5.3 41.54 0.599 8.02 36.21 11.37
12/23/2020 4:30:00 AM 5.27 41.486 0.597 8.02 33.47 11.4
12/23/2020 4:45:00 AM 5.24 41.432 0.596 8.01 36.71 11.4
12/23/2020 5:00:00 AM 5.21 41.378 0.595 8.01 42.62 11.41
12/23/2020 5:15:00 AM 5.19 41.342 0.594 8.01 46.83 11.43
12/23/2020 5:30:00 AM 5.16 41.288 0.593 8.01 41.73 11.43
12/23/2020 5:45:00 AM 5.13 41.234 0.592 8.01 33.61 11.45
12/23/2020 6:00:00 AM 5.1 41.18 0.592 8.01 40.46 11.45
12/23/2020 6:15:00 AM 5.06 41.108 0.592 8.01 44.6 11.47
12/23/2020 6:30:00 AM 5.04 41.072 0.592 8.01 39.66 11.48
12/23/2020 6:45:00 AM 5.01 41.018 0.592 8.01 36.25 11.49
12/23/2020 7:00:00 AM 4.99 40.982 0.592 8.01 34.81 11.51
12/23/2020 7:15:00 AM 4.96 40.928 0.593 8.01 35.64 11.52
12/23/2020 7:30:00 AM 4.95 40.91 0.594 8.01 33.88 11.53
12/23/2020 7:45:00 AM 4.93 40.874 0.594 8.02 34.81 11.54
12/23/2020 8:00:00 AM 4.92 40.856 0.595 8.02 39.21 11.56
12/23/2020 8:15:00 AM 4.91 40.838 0.596 8.02 35.26 11.59
12/23/2020 8:30:00 AM 4.91 40.838 0.597 8.02 41.6 11.61
12/23/2020 8:45:00 AM 4.91 40.838 0.599 8.02 35.43 11.65
12/23/2020 9:00:00 AM 4.91 40.838 0.599 8.02 34.11 11.68
12/23/2020 9:15:00 AM 4.92 40.856 0.601 8.02 41.05 11.72
12/23/2020 9:30:00 AM 4.94 40.892 0.602 8.03 41.04 11.75
12/23/2020 9:45:00 AM 4.97 40.946 0.603 8.03 38.88 11.82
12/23/2020 10:00:00 AM 5.02 41.036 0.605 8.03 35.7 11.87
12/23/2020 10:15:00 AM 5.09 41.162 0.606 8.03 31.7 11.94
12/23/2020 10:30:00 AM 5.17 41.306 0.607 8.04 45.56 12.02
12/23/2020 10:45:00 AM 5.22 41.396 0.608 8.04 38.31 12.06
12/23/2020 11:00:00 AM 5.28 41.504 0.609 8.04 37.3 12.14
12/23/2020 11:15:00 AM 5.35 41.63 0.61 8.04 45.62 12.17
12/23/2020 11:30:00 AM 5.44 41.792 0.611 8.05 40.62 12.24
12/23/2020 11:45:00 AM 5.48 41.864 0.612 8.05 34.51 12.33
12/23/2020 12:00:00 PM 5.52 41.936 0.613 8.05 36.93 12.4
12/23/2020 12:15:00 PM 5.58 42.044 0.614 8.06 42.86 12.45
12/23/2020 12:30:00 PM 5.64 42.152 0.615 8.06 44.18 12.49
12/23/2020 12:45:00 PM 5.7 42.26 0.616 8.07 51.25 12.54
12/23/2020 1:00:00 PM 5.75 42.35 0.617 8.07 39.32 12.59
12/23/2020 1:15:00 PM 5.81 42.458 0.618 8.08 44.36 12.64
12/23/2020 1:30:00 PM 5.89 42.602 0.618 8.08 37.59 12.69
12/23/2020 1:45:00 PM 5.94 42.692 0.619 8.09 32.92 12.75
12/23/2020 2:00:00 PM 5.96 42.728 0.62 8.1 42.92 12.78
12/23/2020 2:15:00 PM 6.01 42.818 0.62 8.1 49.65 12.83
12/23/2020 2:30:00 PM 6.08 42.944 0.621 8.11 42.84 12.86
12/23/2020 2:45:00 PM 6.11 42.998 0.621 8.12 45.78 12.91
12/23/2020 3:00:00 PM 6.14 43.052 0.622 8.12 44.14 12.9
12/23/2020 3:15:00 PM 6.18 43.124 0.622 8.13 35.83 12.9
12/23/2020 3:30:00 PM 6.21 43.178 0.623 8.13 32.06 12.91
12/23/2020 3:45:00 PM 6.23 43.214 0.623 8.14 47.4 12.89
12/23/2020 4:00:00 PM 6.25 43.25 0.623 8.15 42.42 12.89
12/23/2020 4:15:00 PM 6.26 43.268 0.623 8.15 35.45 12.85
12/23/2020 4:30:00 PM 6.25 43.25 0.623 8.15 34.77 12.82
12/23/2020 4:45:00 PM 6.25 43.25 0.623 8.16 32.59 12.76
12/23/2020 5:00:00 PM 6.24 43.232 0.623 8.16 40.88 12.72
12/23/2020 5:15:00 PM 6.23 43.214 0.623 8.16 44.63 12.66
12/23/2020 5:30:00 PM 6.21 43.178 0.622 8.16 46.16 12.61
12/23/2020 5:45:00 PM 6.19 43.142 0.622 8.17 30.87 12.54
12/23/2020 6:00:00 PM 6.16 43.088 0.621 8.17 32.81 12.46
12/23/2020 6:15:00 PM 6.13 43.034 0.621 8.17 40.29 12.4
12/23/2020 6:30:00 PM 6.11 42.998 0.62 8.16 44.72 12.33
12/23/2020 6:45:00 PM 6.09 42.962 0.62 8.16 40.69 12.26
12/23/2020 7:00:00 PM 6.06 42.908 0.619 8.16 37.44 12.19
12/23/2020 7:15:00 PM 6.03 42.854 0.619 8.16 43.69 12.13
12/23/2020 7:30:00 PM 6 42.8 0.618 8.15 30.55 12.06
12/23/2020 7:45:00 PM 5.98 42.764 0.617 8.15 44.93 11.98
12/23/2020 8:00:00 PM 5.95 42.71 0.616 8.14 29.75 11.93
12/23/2020 8:15:00 PM 5.92 42.656 0.615 8.13 41.91 11.87
12/23/2020 8:30:00 PM 5.89 42.602 0.615 8.13 41.54 11.82
12/23/2020 8:45:00 PM 5.86 42.548 0.613 8.12 56.48 11.77
12/23/2020 9:00:00 PM 5.83 42.494 0.612 8.11 35.58 11.73
12/23/2020 9:15:00 PM 5.8 42.44 0.611 8.11 48.96 11.65
12/23/2020 9:30:00 PM 5.78 42.404 0.61 8.1 35.83 11.63
12/23/2020 9:45:00 PM 5.75 42.35 0.609 8.09 41.71 11.59
12/23/2020 10:00:00 PM 5.72 42.296 0.608 8.09 39.61 11.54
12/23/2020 10:15:00 PM 5.7 42.26 0.607 8.08 27.4 11.5
12/23/2020 10:30:00 PM 5.67 42.206 0.606 8.07 38.37 11.49
12/23/2020 10:45:00 PM 5.66 42.188 0.605 8.07 44.06 11.45
12/23/2020 11:00:00 PM 5.64 42.152 0.605 8.06 53.88 11.42
12/23/2020 11:15:00 PM 5.63 42.134 0.604 8.06 45.24 11.4
12/23/2020 11:30:00 PM 5.61 42.098 0.603 8.05 37.3 11.39
12/23/2020 11:45:00 PM 5.59 42.062 0.602 8.05 35.27 11.37
12/24/2020 12:00:00 AM 5.58 42.044 0.602 8.04 33.66 11.35
12/24/2020 12:15:00 AM 5.57 42.026 0.601 8.04 30.8 11.35
12/24/2020 12:30:00 AM 5.56 42.008 0.601 8.03 32.94 11.33
12/24/2020 12:45:00 AM 5.56 42.008 0.6 8.03 40.75 11.31
12/24/2020 1:00:00 AM 5.56 42.008 0.6 8.03 48.53 11.31
12/24/2020 1:15:00 AM 5.57 42.026 0.6 8.03 36.8 11.31
12/24/2020 1:30:00 AM 5.58 42.044 0.6 8.02 48.3 11.29
12/24/2020 1:45:00 AM 5.59 42.062 0.599 8.02 41.29 11.3
12/24/2020 2:00:00 AM 5.59 42.062 0.599 8.02 42.45 11.29
12/24/2020 2:15:00 AM 5.6 42.08 0.598 8.01 34.13 11.28
12/24/2020 2:30:00 AM 5.61 42.098 0.598 8.01 51.86 11.25
12/24/2020 2:45:00 AM 5.62 42.116 0.597 8.01 43.19 11.27
12/24/2020 3:00:00 AM 5.63 42.134 0.596 8.01 29.9 11.25
12/24/2020 3:15:00 AM 5.64 42.152 0.596 8.01 40.87 11.27
12/24/2020 3:30:00 AM 5.65 42.17 0.595 8.01 30.1 11.26
12/24/2020 3:45:00 AM 5.65 42.17 0.595 8.01 34.96 11.26
12/24/2020 4:00:00 AM 5.67 42.206 0.594 8.01 46.58 11.25
12/24/2020 4:15:00 AM 5.67 42.206 0.594 8 50.59 11.24
12/24/2020 4:30:00 AM 5.68 42.224 0.594 8 44.62 11.25
12/24/2020 4:45:00 AM 5.68 42.224 0.594 8 52.92 11.24
12/24/2020 5:00:00 AM 5.67 42.206 0.594 8 44.31 11.24
12/24/2020 5:15:00 AM 5.67 42.206 0.594 8 43.56 11.24
12/24/2020 5:30:00 AM 5.67 42.206 0.594 8 46.99 11.23
12/24/2020 5:45:00 AM 5.69 42.242 0.594 8 46.8 11.24
12/24/2020 6:00:00 AM 5.7 42.26 0.595 8 42.1 11.22
12/24/2020 6:15:00 AM 5.71 42.278 0.595 8 37.3 11.22
12/24/2020 6:30:00 AM 5.72 42.296 0.595 7.99 48.52 11.21
12/24/2020 6:45:00 AM 5.73 42.314 0.595 7.99 54.38 11.21
12/24/2020 7:00:00 AM 5.75 42.35 0.595 7.99 56.75 11.21
12/24/2020 7:15:00 AM 5.77 42.386 0.595 7.99 41.28 11.21
12/24/2020 7:30:00 AM 5.78 42.404 0.595 7.99 51.6 11.2
12/24/2020 7:45:00 AM 5.8 42.44 0.595 7.99 46.27 11.2
12/24/2020 8:00:00 AM 5.83 42.494 0.595 7.99 52.03 11.2
12/24/2020 8:15:00 AM 5.86 42.548 0.595 7.99 34.89 11.23
12/24/2020 8:30:00 AM 5.88 42.584 0.595 7.99 47.15 11.22
12/24/2020 8:45:00 AM 5.91 42.638 0.596 8 40.61 11.23
12/24/2020 9:00:00 AM 5.94 42.692 0.596 8 29.88 11.24
12/24/2020 9:15:00 AM 5.98 42.764 0.596 8 47.6 11.26
12/24/2020 9:30:00 AM 6.01 42.818 0.596 8 55.87 11.27
12/24/2020 9:45:00 AM 6.04 42.872 0.596 8 43.9 11.3
12/24/2020 10:00:00 AM 6.09 42.962 0.596 8 49.85 11.32
12/24/2020 10:15:00 AM 6.14 43.052 0.595 8 41.57 11.38
12/24/2020 10:30:00 AM 6.21 43.178 0.6 8.01 45.98 11.47
12/24/2020 10:45:00 AM 6.3 43.34 0.593 8.01 40.15 11.54
12/24/2020 11:00:00 AM 6.35 43.43 0.593 8.02 46.2 11.57
12/24/2020 11:15:00 AM 6.39 43.502 0.593 8.02 44.97 11.61
12/24/2020 11:30:00 AM 6.44 43.592 0.594 8.02 41.56 11.63
12/24/2020 11:45:00 AM 6.5 43.7 0.593 8.02 38.52 11.67
12/24/2020 12:00:00 PM 6.54 43.772 0.593 8.03 46.43 11.69
12/24/2020 12:15:00 PM 6.6 43.88 0.592 8.03 45.22 11.71
12/24/2020 12:30:00 PM 6.64 43.952 0.591 8.03 52.75 11.75
12/24/2020 12:45:00 PM 6.68 44.024 0.588 8.04 52.62 11.78
12/24/2020 1:00:00 PM 6.7 44.06 0.586 8.04 45.74 11.81
12/24/2020 1:15:00 PM 6.75 44.15 0.583 8.04 46.11 11.79
12/24/2020 1:30:00 PM 6.79 44.222 0.583 8.04 46.05 11.8
12/24/2020 1:45:00 PM 6.86 44.348 0.58 8.05 44.48 11.84
12/24/2020 2:00:00 PM 6.92 44.456 0.577 8.05 40.62 11.83
12/24/2020 2:15:00 PM 6.96 44.528 0.577 8.05 50.18 11.83
12/24/2020 2:30:00 PM 7.05 44.69 0.573 8.05 40.74 11.82
12/24/2020 2:45:00 PM 6.94 44.492 0.568 8.06 52 11.79
12/24/2020 3:00:00 PM 6.9 44.42 0.562 8.06 45.36 11.75
12/24/2020 3:15:00 PM 6.91 44.438 0.559 8.06 51.13 11.75
12/24/2020 3:30:00 PM 6.9 44.42 0.548 8.06 60.59 11.7
12/24/2020 3:45:00 PM 6.58 43.844 0.528 8.06 72.7 11.74
12/24/2020 4:00:00 PM 6.94 44.492 0.531 8.05 44.86 11.61
12/24/2020 4:15:00 PM 6.54 43.772 0.512 8.05 71.17 11.64
12/24/2020 4:30:00 PM 6.66 43.988 0.503 8.05 75.99 11.57
12/24/2020 4:45:00 PM 7.07 44.726 0.505 8.04 67.81 11.44
12/24/2020 5:00:00 PM 7.22 44.996 0.494 8.03 88.23 11.38
12/24/2020 5:15:00 PM 7.44 45.392 0.489 8.02 78.23 11.28
12/24/2020 5:30:00 PM 7.67 45.806 0.491 8.01 70.12 11.17
12/24/2020 5:45:00 PM 7.78 46.004 0.482 8 71.28 11.07
12/24/2020 6:00:00 PM 7.9 46.22 0.48 7.98 78.08 10.99
12/24/2020 6:15:00 PM 7.95 46.31 0.464 7.97 110.3 10.92
12/24/2020 6:30:00 PM 8.03 46.454 0.457 7.95 117.1 10.85
12/24/2020 6:45:00 PM 8.11 46.598 0.446 7.94 128.6 10.78
12/24/2020 7:00:00 PM 8.13 46.634 0.433 7.92 174.1 10.71
12/24/2020 7:15:00 PM 8.2 46.76 0.421 7.9 186.4 10.69
12/24/2020 7:30:00 PM 8.24 46.832 0.412 7.89 185.5 10.65
12/24/2020 7:45:00 PM 8.28 46.904 0.408 7.87 185.9 10.62
12/24/2020 8:00:00 PM 8.38 47.084 0.406 7.86 246.9 10.6
12/24/2020 8:15:00 PM 8.46 47.228 0.401 7.85 218.2 10.55
12/24/2020 8:30:00 PM 8.55 47.39 0.396 7.84 233.2 10.52
12/24/2020 8:45:00 PM 8.62 47.516 0.393 7.83 191.2 10.49
12/24/2020 9:00:00 PM 8.68 47.624 0.39 7.82 219.1 10.48
12/24/2020 9:15:00 PM 8.71 47.678 0.389 7.81 206.5 10.48
12/24/2020 9:30:00 PM 8.74 47.732 0.389 7.79 187.6 10.48
12/24/2020 9:45:00 PM 8.77 47.786 0.386 7.79 185.5 10.47
12/24/2020 10:00:00 PM 8.86 47.948 0.384 7.78 148.9 10.45
12/24/2020 10:15:00 PM 8.9 48.02 0.38 7.77 144.8 10.44
12/24/2020 10:30:00 PM 8.97 48.146 0.379 7.76 133.8 10.39
12/24/2020 10:45:00 PM 9.06 48.308 0.378 7.75 138.7 10.36
12/24/2020 11:00:00 PM 9.09 48.362 0.376 7.74 139 10.35
12/24/2020 11:15:00 PM 9.2 48.56 0.374 7.74 144.4 10.31
12/24/2020 11:30:00 PM 9.33 48.794 0.371 7.73 165.3 10.27
12/24/2020 11:45:00 PM 9.5 49.1 0.367 7.73 190.6 10.21
12/25/2020 12:00:00 AM 9.61 49.298 0.364 7.71 204.9 10.17
12/25/2020 12:15:00 AM 9.68 49.424 0.362 7.71 209.1 10.13
12/25/2020 12:30:00 AM 9.72 49.496 0.36 7.7 221.2 10.12
12/25/2020 12:45:00 AM 9.75 49.55 0.359 7.71 199.3 10.12
12/25/2020 1:00:00 AM 9.88 49.784 0.359 7.7 201.3 10.12
12/25/2020 1:15:00 AM 10.13 50.234 0.357 7.71 246.7 10.07
12/25/2020 1:30:00 AM 10.02 50.036 0.357 7.7 197.3 10.08
12/25/2020 1:45:00 AM 10.08 50.144 0.355 7.71 234.8 10.05
12/25/2020 2:00:00 AM 10.09 50.162 0.355 7.7 242.2 10.04
12/25/2020 2:15:00 AM 10.37 50.666 0.353 7.69 431.1 9.89
12/25/2020 2:30:00 AM 10.77 51.386 0.35 7.68 631.8 9.64
12/25/2020 2:45:00 AM 10.91 51.638 0.347 7.67 571.4 9.59
12/25/2020 3:00:00 AM 10.9 51.62 0.344 7.65 528.3 9.63
12/25/2020 3:15:00 AM 10.85 51.53 0.342 7.65 472.4 9.64
12/25/2020 3:30:00 AM 10.8 51.44 0.34 7.65 396.6 9.71
12/25/2020 3:45:00 AM 10.71 51.278 0.339 7.65 311.4 9.75
12/25/2020 4:00:00 AM 10.66 51.188 0.34 7.65 310.5 9.77
12/25/2020 4:15:00 AM 10.66 51.188 0.34 7.66 301.7 9.78
12/25/2020 4:30:00 AM 10.67 51.206 0.34 7.66 280.9 9.78
12/25/2020 4:45:00 AM 10.74 51.332 0.338 7.66 306.2 9.74
12/25/2020 5:00:00 AM 10.77 51.386 0.337 7.65 281.7 9.7
12/25/2020 5:15:00 AM 10.77 51.386 0.336 7.66 323.7 9.67
12/25/2020 5:30:00 AM 10.75 51.35 0.338 7.65 303.6 9.66
12/25/2020 5:45:00 AM 10.73 51.314 0.338 7.66 294.3 9.62
12/25/2020 6:00:00 AM 10.69 51.242 0.34 7.66 284.7 9.63
12/25/2020 6:15:00 AM 10.68 51.224 0.342 7.66 297.5 9.61
12/25/2020 6:30:00 AM 10.66 51.188 0.354 7.66 261.1 9.61
12/25/2020 6:45:00 AM 10.65 51.17 0.354 7.66 241.3 9.62
12/25/2020 7:00:00 AM 10.67 51.206 0.344 7.66 243.9 9.61
12/25/2020 7:15:00 AM 10.67 51.206 0.337 7.66 242.2 9.62
12/25/2020 7:30:00 AM 10.67 51.206 0.329 7.66 227.1 9.63
12/25/2020 7:45:00 AM 10.66 51.188 0.325 7.65 218.4 9.64
12/25/2020 8:00:00 AM 10.64 51.152 0.318 7.65 224.8 9.63
12/25/2020 8:15:00 AM 10.62 51.116 0.316 7.64 198.3 9.64
12/25/2020 8:30:00 AM 10.61 51.098 0.312 7.64 226.9 9.63
12/25/2020 8:45:00 AM 10.6 51.08 0.306 7.64 203.3 9.63
12/25/2020 9:00:00 AM 10.58 51.044 0.3 7.63 212 9.63
12/25/2020 9:15:00 AM 10.58 51.044 0.293 7.62 233.2 9.64
12/25/2020 9:30:00 AM 10.57 51.026 0.285 7.62 213.4 9.64
12/25/2020 9:45:00 AM 10.56 51.008 0.278 7.62 246.3 9.64
12/25/2020 10:00:00 AM 10.54 50.972 0.274 7.61 237.2 9.64
12/25/2020 10:15:00 AM 10.53 50.954 0.267 7.61 233.7 9.64
12/25/2020 10:30:00 AM 10.51 50.918 0.263 7.61 234.1 9.64
12/25/2020 10:45:00 AM 10.48 50.864 0.259 7.6 245.2 9.66
12/25/2020 11:00:00 AM 10.45 50.81 0.255 7.6 235.5 9.68
12/25/2020 11:15:00 AM 10.4 50.72 0.253 7.6 239.1 9.69
12/25/2020 11:30:00 AM 10.36 50.648 0.251 7.59 240.9 9.7
12/25/2020 11:45:00 AM 10.31 50.558 0.249 7.59 238.7 9.74
12/25/2020 12:00:00 PM 10.27 50.486 0.248 7.59 231.4 9.73
12/25/2020 12:15:00 PM 10.23 50.414 0.247 7.58 244.1 9.76
12/25/2020 12:30:00 PM 10.19 50.342 0.246 7.57 235.4 9.78
12/25/2020 12:45:00 PM 10.14 50.252 0.246 7.57 224.2 9.79
12/25/2020 1:00:00 PM 10.09 50.162 0.246 7.57 231 9.81
12/25/2020 1:15:00 PM 10.04 50.072 0.247 7.56 223.5 9.84
12/25/2020 1:30:00 PM 10 50 0.247 7.56 215.8 9.86
12/25/2020 1:45:00 PM 9.94 49.892 0.248 7.56 196.2 9.86
12/25/2020 2:00:00 PM 9.88 49.784 0.249 7.56 204.6 9.9
12/25/2020 2:15:00 PM 9.83 49.694 0.249 7.56 186.1 9.93
12/25/2020 2:30:00 PM 9.79 49.622 0.251 7.56 179.6 9.95
12/25/2020 2:45:00 PM 9.73 49.514 0.252 7.55 203.5 9.98
12/25/2020 3:00:00 PM 9.68 49.424 0.253 7.55 190.9 9.99
12/25/2020 3:15:00 PM 9.63 49.334 0.254 7.55 183.1 10.01
12/25/2020 3:30:00 PM 9.56 49.208 0.255 7.56 181.5 10.03
12/25/2020 3:45:00 PM 9.5 49.1 0.256 7.56 177 10.07
12/25/2020 4:00:00 PM 9.44 48.992 0.257 7.55 171.5 10.09
12/25/2020 4:15:00 PM 9.37 48.866 0.258 7.55 174.7 10.1
12/25/2020 4:30:00 PM 9.3 48.74 0.259 7.55 168.7 10.13
12/25/2020 4:45:00 PM 9.24 48.632 0.261 7.56 159.7 10.15
12/25/2020 5:00:00 PM 9.17 48.506 0.263 7.56 161.8 10.17
12/25/2020 5:15:00 PM 9.1 48.38 0.264 7.56 168.8 10.19
12/25/2020 5:30:00 PM 9.02 48.236 0.267 7.56 166.1 10.22
12/25/2020 5:45:00 PM 8.95 48.11 0.268 7.56 157.8 10.24
12/25/2020 6:00:00 PM 8.88 47.984 0.27 7.56 157.9 10.25
12/25/2020 6:15:00 PM 8.8 47.84 0.27 7.56 149.7 10.29
12/25/2020 6:30:00 PM 8.72 47.696 0.273 7.57 147.8 10.31
12/25/2020 6:45:00 PM 8.65 47.57 0.275 7.57 152.3 10.34
12/25/2020 7:00:00 PM 8.57 47.426 0.277 7.57 141.5 10.36
12/25/2020 7:15:00 PM 8.49 47.282 0.279 7.57 135.6 10.38
12/25/2020 7:30:00 PM 8.4 47.12 0.281 7.57 133.1 10.4
12/25/2020 7:45:00 PM 8.32 46.976 0.283 7.58 141 10.43
12/25/2020 8:00:00 PM 8.22 46.796 0.285 7.58 132.2 10.46
12/25/2020 8:15:00 PM 8.14 46.652 0.288 7.58 130.1 10.47
12/25/2020 8:30:00 PM 8.06 46.508 0.291 7.59 125.3 10.51
12/25/2020 8:45:00 PM 7.96 46.328 0.293 7.59 134.5 10.53
12/25/2020 9:00:00 PM 7.87 46.166 0.295 7.6 127.1 10.56
12/25/2020 9:15:00 PM 7.78 46.004 0.297 7.6 129.9 10.58
12/25/2020 9:30:00 PM 7.7 45.86 0.299 7.6 118.7 10.61
12/25/2020 9:45:00 PM 7.61 45.698 0.299 7.6 116.6 10.62
12/25/2020 10:00:00 PM 7.52 45.536 0.302 7.61 117.6 10.66
12/25/2020 10:15:00 PM 7.43 45.374 0.305 7.61 108.1 10.69
12/25/2020 10:30:00 PM 7.35 45.23 0.308 7.61 109.6 10.71
12/25/2020 10:45:00 PM 7.28 45.104 0.311 7.62 110.1 10.73
12/25/2020 11:00:00 PM 7.2 44.96 0.311 7.62 109.7 10.77
12/25/2020 11:15:00 PM 7.12 44.816 0.314 7.62 107 10.79
12/25/2020 11:30:00 PM 7.05 44.69 0.315 7.63 102.8 10.81
12/25/2020 11:45:00 PM 6.98 44.564 0.317 7.63 104.4 10.84
12/26/2020 12:00:00 AM 6.9 44.42 0.315 7.63 103.5 10.87
12/26/2020 12:15:00 AM 6.82 44.276 0.321 7.64 104.6 10.88
12/26/2020 12:30:00 AM 6.74 44.132 0.324 7.64 107.5 10.92
12/26/2020 12:45:00 AM 6.66 43.988 0.325 7.65 95.78 10.94
12/26/2020 1:00:00 AM 6.58 43.844 0.326 7.65 95.21 10.95
12/26/2020 1:15:00 AM 6.5 43.7 0.329 7.65 93.28 10.98
12/26/2020 1:30:00 AM 6.42 43.556 0.33 7.65 99.26 11
12/26/2020 1:45:00 AM 6.35 43.43 0.33 7.66 91.23 11.04
12/26/2020 2:00:00 AM 6.28 43.304 0.333 7.66 119.2 11.06
12/26/2020 2:15:00 AM 6.2 43.16 0.335 7.67 81.65 11.1
12/26/2020 2:30:00 AM 6.13 43.034 0.338 7.67 112.4 11.12
12/26/2020 2:45:00 AM 6.06 42.908 0.339 7.67 84.48 11.14
12/26/2020 3:00:00 AM 5.99 42.782 0.342 7.67 83.93 11.17
12/26/2020 3:15:00 AM 5.92 42.656 0.342 7.67 79.68 11.19
12/26/2020 3:30:00 AM 5.84 42.512 0.344 7.67 79.77 11.2
12/26/2020 3:45:00 AM 5.77 42.386 0.344 7.68 82.77 11.24
12/26/2020 4:00:00 AM 5.71 42.278 0.347 7.68 80.37 11.27
12/26/2020 4:15:00 AM 5.64 42.152 0.347 7.68 74.63 11.28
12/26/2020 4:30:00 AM 5.57 42.026 0.349 7.69 79.8 11.31
12/26/2020 4:45:00 AM 5.51 41.918 0.352 7.69 80 11.34
12/26/2020 5:00:00 AM 5.45 41.81 0.353 7.69 75.76 11.37
12/26/2020 5:15:00 AM 5.4 41.72 0.355 7.7 77.4 11.38
12/26/2020 5:30:00 AM 5.34 41.612 0.357 7.7 76.74 11.42
12/26/2020 5:45:00 AM 5.29 41.522 0.359 7.7 70.68 11.43
12/26/2020 6:00:00 AM 5.24 41.432 0.36 7.7 75.72 11.46
12/26/2020 6:15:00 AM 5.19 41.342 0.362 7.7 76.45 11.48
12/26/2020 6:30:00 AM 5.13 41.234 0.364 7.71 75.02 11.5
12/26/2020 6:45:00 AM 5.07 41.126 0.36 7.71 71.08 11.53
12/26/2020 7:00:00 AM 5.01 41.018 0.367 7.71 71.61 11.54
12/26/2020 7:15:00 AM 4.95 40.91 0.369 7.71 72.68 11.57
12/26/2020 7:30:00 AM 4.9 40.82 0.37 7.71 69.28 11.59
12/26/2020 7:45:00 AM 4.85 40.73 0.374 7.72 69.08 11.61
12/26/2020 8:00:00 AM 4.8 40.64 0.374 7.72 85.48 11.64
12/26/2020 8:15:00 AM 4.77 40.586 0.376 7.72 71.37 11.66
12/26/2020 8:30:00 AM 4.73 40.514 0.377 7.72 66.53 11.69
12/26/2020 8:45:00 AM 4.71 40.478 0.38 7.72 66.33 11.71
12/26/2020 9:00:00 AM 4.68 40.424 0.382 7.73 65.6 11.74
12/26/2020 9:15:00 AM 4.65 40.37 0.384 7.73 67.76 11.78
12/26/2020 9:30:00 AM 4.62 40.316 0.385 7.73 67.05 11.8
12/26/2020 9:45:00 AM 4.58 40.244 0.387 7.74 64.21 11.82
12/26/2020 10:00:00 AM 4.58 40.244 0.388 7.74 68.31 11.86
12/26/2020 10:15:00 AM 4.6 40.28 0.389 7.74 62.94 11.9
12/26/2020 10:30:00 AM 4.6 40.28 0.391 7.75 62.71 11.92
12/26/2020 10:45:00 AM 4.61 40.298 0.392 7.75 59.11 11.97
12/26/2020 11:00:00 AM 4.6 40.28 0.394 7.75 60.05 11.98
12/26/2020 11:15:00 AM 4.62 40.316 0.396 7.76 57.06 12.01
12/26/2020 11:30:00 AM 4.64 40.352 0.398 7.76 60.34 12.05
12/26/2020 11:45:00 AM 4.66 40.388 0.399 7.76 58.02 12.07
12/26/2020 12:00:00 PM 4.67 40.406 0.401 7.77 59.21 12.09
12/26/2020 12:15:00 PM 4.71 40.478 0.403 7.77 59.16 12.14
12/26/2020 12:30:00 PM 4.73 40.514 0.405 7.78 55.82 12.17
12/26/2020 12:45:00 PM 4.73 40.514 0.407 7.78 58.48 12.18
12/26/2020 1:00:00 PM 4.76 40.568 0.409 7.78 59.97 12.19
12/26/2020 1:15:00 PM 4.78 40.604 0.411 7.79 55.94 12.21
12/26/2020 1:30:00 PM 4.78 40.604 0.413 7.79 54.64 12.25
12/26/2020 1:45:00 PM 4.78 40.604 0.414 7.79 51.88 12.24
12/26/2020 2:00:00 PM 4.78 40.604 0.416 7.8 49.65 12.27
12/26/2020 2:15:00 PM 4.77 40.586 0.418 7.8 48.84 12.27
12/26/2020 2:30:00 PM 4.76 40.568 0.42 7.8 51.95 12.27
12/26/2020 2:45:00 PM 4.75 40.55 0.422 7.81 48.58 12.27
12/26/2020 3:00:00 PM 4.74 40.532 0.424 7.81 51.14 12.28
12/26/2020 3:15:00 PM 4.73 40.514 0.425 7.81 49.5 12.27
12/26/2020 3:30:00 PM 4.71 40.478 0.428 7.82 51.72 12.28
12/26/2020 3:45:00 PM 4.69 40.442 0.43 7.82 49.27 12.27
12/26/2020 4:00:00 PM 4.67 40.406 0.432 7.82 50.56 12.26
12/26/2020 4:15:00 PM 4.65 40.37 0.434 7.83 51.72 12.25
12/26/2020 4:30:00 PM 4.63 40.334 0.435 7.83 49.33 12.24
12/26/2020 4:45:00 PM 4.6 40.28 0.437 7.83 49.5 12.23
12/26/2020 5:00:00 PM 4.57 40.226 0.436 7.83 52.33 12.22
12/26/2020 5:15:00 PM 4.54 40.172 0.439 7.83 48.7 12.2
12/26/2020 5:30:00 PM 4.51 40.118 0.442 7.83 47.28 12.2
12/26/2020 5:45:00 PM 4.48 40.064 0.444 7.84 47.55 12.18
12/26/2020 6:00:00 PM 4.45 40.01 0.446 7.84 47.59 12.17
12/26/2020 6:15:00 PM 4.41 39.938 0.447 7.84 48.98 12.16
12/26/2020 6:30:00 PM 4.38 39.884 0.448 7.84 48.17 12.15
12/26/2020 6:45:00 PM 4.33 39.794 0.446 7.84 46.86 12.14
12/26/2020 7:00:00 PM 4.29 39.722 0.452 7.84 47.36 12.15
12/26/2020 7:15:00 PM 4.25 39.65 0.449 7.84 47.43 12.14
12/26/2020 7:30:00 PM 4.2 39.56 0.453 7.84 45.89 12.14
12/26/2020 7:45:00 PM 4.16 39.488 0.452 7.84 46.19 12.14
12/26/2020 8:00:00 PM 4.12 39.416 0.453 7.85 46.42 12.13
12/26/2020 8:15:00 PM 4.09 39.362 0.454 7.85 48.73 12.14
12/26/2020 8:30:00 PM 4.06 39.308 0.454 7.85 48.91 12.14
12/26/2020 8:45:00 PM 4.02 39.236 0.462 7.85 46.75 12.13
12/26/2020 9:00:00 PM 3.98 39.164 0.455 7.85 48.82 12.14
12/26/2020 9:15:00 PM 3.95 39.11 0.456 7.85 46.3 12.15
12/26/2020 9:30:00 PM 3.91 39.038 0.456 7.86 50.02 12.14
12/26/2020 9:45:00 PM 3.87 38.966 0.461 7.86 47.71 12.17
12/26/2020 10:00:00 PM 3.84 38.912 0.462 7.86 45.55 12.18
12/26/2020 10:15:00 PM 3.81 38.858 0.461 7.86 48.51 12.18
12/26/2020 10:30:00 PM 3.78 38.804 0.468 7.86 45.99 12.19
12/26/2020 10:45:00 PM 3.74 38.732 0.47 7.86 47.41 12.21
12/26/2020 11:00:00 PM 3.72 38.696 0.471 7.86 44.45 12.21
12/26/2020 11:15:00 PM 3.69 38.642 0.47 7.86 45.34 12.23
12/26/2020 11:30:00 PM 3.66 38.588 0.472 7.87 42.67 12.24
12/26/2020 11:45:00 PM 3.64 38.552 0.471 7.87 44.71 12.25
12/27/2020 12:00:00 AM 3.61 38.498 0.472 7.87 47.41 12.26
12/27/2020 12:15:00 AM 3.59 38.462 0.476 7.87 45.4 12.29
12/27/2020 12:30:00 AM 3.56 38.408 0.476 7.88 46.59 12.27
12/27/2020 12:45:00 AM 3.54 38.372 0.479 7.88 45.23 12.3
12/27/2020 1:00:00 AM 3.52 38.336 0.479 7.88 45.26 12.3
12/27/2020 1:15:00 AM 3.5 38.3 0.477 7.88 43.21 12.31
12/27/2020 1:30:00 AM 3.48 38.264 0.481 7.88 44.56 12.32
12/27/2020 1:45:00 AM 3.47 38.246 0.482 7.88 44.07 12.32
12/27/2020 2:00:00 AM 3.43 38.174 0.481 7.89 48.09 12.34
12/27/2020 2:15:00 AM 3.42 38.156 0.483 7.89 45.78 12.36
12/27/2020 2:30:00 AM 3.4 38.12 0.477 7.89 45.61 12.35
12/27/2020 2:45:00 AM 3.38 38.084 0.478 7.89 43.16 12.37
12/27/2020 3:00:00 AM 3.36 38.048 0.487 7.89 40.27 12.37
12/27/2020 3:15:00 AM 3.35 38.03 0.48 7.89 41.82 12.38
12/27/2020 3:30:00 AM 3.33 37.994 0.483 7.89 42.19 12.4
12/27/2020 3:45:00 AM 3.3 37.94 0.487 7.89 42.44 12.39
12/27/2020 4:00:00 AM 3.28 37.904 0.49 7.89 42.91 12.41
12/27/2020 4:15:00 AM 3.26 37.868 0.492 7.9 43.48 12.41
12/27/2020 4:30:00 AM 3.23 37.814 0.487 7.9 44.01 12.42
12/27/2020 4:45:00 AM 3.21 37.778 0.487 7.9 46.19 12.46
12/27/2020 5:00:00 AM 3.18 37.724 0.488 7.9 45.19 12.45
12/27/2020 5:15:00 AM 3.15 37.67 0.493 7.9 46.69 12.48
12/27/2020 5:30:00 AM 3.13 37.634 0.497 7.9 44.84 12.48
12/27/2020 5:45:00 AM 3.11 37.598 0.498 7.91 45.31 12.49
12/27/2020 6:00:00 AM 3.08 37.544 0.491 7.91 45.18 12.51
12/27/2020 6:15:00 AM 3.06 37.508 0.494 7.91 46.52 12.51
12/27/2020 6:30:00 AM 3.04 37.472 0.491 7.91 44.88 12.53
12/27/2020 6:45:00 AM 3.01 37.418 0.502 7.91 47.17 12.53
12/27/2020 7:00:00 AM 3 37.4 0.5 7.91 46.97 12.54
12/27/2020 7:15:00 AM 2.97 37.346 0.499 7.91 46 12.56
12/27/2020 7:30:00 AM 2.95 37.31 0.499 7.91 64.1 12.57
12/27/2020 7:45:00 AM 2.94 37.292 0.499 7.92 46.06 12.58
12/27/2020 8:00:00 AM 2.93 37.274 0.499 7.92 46.07 12.6
12/27/2020 8:15:00 AM 2.92 37.256 0.5 7.92 45.39 12.61
12/27/2020 8:30:00 AM 2.92 37.256 0.5 7.92 45.2 12.64
12/27/2020 8:45:00 AM 2.92 37.256 0.498 7.92 45.4 12.67
12/27/2020 9:00:00 AM 2.93 37.274 0.499 7.92 44.95 12.69
12/27/2020 9:15:00 AM 2.96 37.328 0.5 7.92 45.32 12.71
12/27/2020 9:30:00 AM 3 37.4 0.499 7.93 44.57 12.76
12/27/2020 9:45:00 AM 3.04 37.472 0.5 7.93 44.06 12.79
12/27/2020 10:00:00 AM 3.1 37.58 0.5 7.93 44.27 12.81
12/27/2020 10:15:00 AM 3.18 37.724 0.496 7.93 47.49 12.83
12/27/2020 10:30:00 AM 3.26 37.868 0.499 7.94 44.12 12.87
12/27/2020 10:45:00 AM 3.34 38.012 0.504 7.94 45.32 12.89
12/27/2020 11:00:00 AM 3.44 38.192 0.503 7.94 43.47 12.9
12/27/2020 11:15:00 AM 3.52 38.336 0.51 7.94 43.44 12.93
12/27/2020 11:30:00 AM 3.58 38.444 0.501 7.94 43.1 12.96
12/27/2020 11:45:00 AM 3.65 38.57 0.501 7.94 44.11 12.98
12/27/2020 12:00:00 PM 3.72 38.696 0.502 7.95 44.66 12.97
12/27/2020 12:15:00 PM 3.78 38.804 0.502 7.95 42.34 13
12/27/2020 12:30:00 PM 3.85 38.93 0.502 7.95 42.63 13.01
12/27/2020 12:45:00 PM 3.93 39.074 0.503 7.95 42.87 13
12/27/2020 1:00:00 PM 4 39.2 0.502 7.96 43.75 13.03
12/27/2020 1:15:00 PM 4.08 39.344 0.502 7.96 44.42 13.01
12/27/2020 1:30:00 PM 4.16 39.488 0.502 7.96 41.47 13.03
12/27/2020 1:45:00 PM 4.22 39.596 0.505 7.96 42.27 13.02
12/27/2020 2:00:00 PM 4.28 39.704 0.504 7.96 42.37 13.02
12/27/2020 2:15:00 PM 4.34 39.812 0.507 7.97 43.54 13
12/27/2020 2:30:00 PM 4.39 39.902 0.51 7.97 45.78 12.98
12/27/2020 2:45:00 PM 4.43 39.974 0.509 7.97 43.28 12.97
12/27/2020 3:00:00 PM 4.47 40.046 0.51 7.97 42.82 12.92
12/27/2020 3:15:00 PM 4.5 40.1 0.51 7.98 44.24 12.9
12/27/2020 3:30:00 PM 4.52 40.136 0.51 7.98 42.62 12.89
12/27/2020 3:45:00 PM 4.55 40.19 0.51 7.98 44.93 12.86
12/27/2020 4:00:00 PM 4.57 40.226 0.511 7.98 41.58 12.83
12/27/2020 4:15:00 PM 4.58 40.244 0.511 7.98 43.75 12.81
12/27/2020 4:30:00 PM 4.58 40.244 0.511 7.98 42.25 12.77
12/27/2020 4:45:00 PM 4.57 40.226 0.511 7.98 43.69 12.73
12/27/2020 5:00:00 PM 4.55 40.19 0.512 7.98 41.76 12.7
12/27/2020 5:15:00 PM 4.53 40.154 0.512 7.98 41.42 12.66
12/27/2020 5:30:00 PM 4.5 40.1 0.511 7.98 42.72 12.63
12/27/2020 5:45:00 PM 4.48 40.064 0.51 7.98 41.8 12.6
12/27/2020 6:00:00 PM 4.46 40.028 0.514 7.98 41.67 12.55
12/27/2020 6:15:00 PM 4.43 39.974 0.514 7.97 41.2 12.52
12/27/2020 6:30:00 PM 4.41 39.938 0.515 7.98 41.66 12.5
12/27/2020 6:45:00 PM 4.39 39.902 0.515 7.98 42.49 12.46
12/27/2020 7:00:00 PM 4.36 39.848 0.516 7.98 41.3 12.41
12/27/2020 7:15:00 PM 4.34 39.812 0.516 7.97 41.52 12.43
12/27/2020 7:30:00 PM 4.32 39.776 0.517 7.97 41.48 12.39
12/27/2020 7:45:00 PM 4.29 39.722 0.518 7.97 44.17 12.38
12/27/2020 8:00:00 PM 4.27 39.686 0.518 7.97 41.13 12.38
12/27/2020 8:15:00 PM 4.25 39.65 0.519 7.97 41.69 12.35
12/27/2020 8:30:00 PM 4.22 39.596 0.519 7.97 46.39 12.32
12/27/2020 8:45:00 PM 4.2 39.56 0.522 7.96 42.02 12.32
12/27/2020 9:00:00 PM 4.18 39.524 0.519 7.96 44.2 12.31
12/27/2020 9:15:00 PM 4.16 39.488 0.519 7.96 41.65 12.3
12/27/2020 9:30:00 PM 4.14 39.452 0.52 7.96 46.4 12.27
12/27/2020 9:45:00 PM 4.13 39.434 0.524 7.96 42.93 12.29
12/27/2020 10:00:00 PM 4.12 39.416 0.525 7.96 42.66 12.29
12/27/2020 10:15:00 PM 4.12 39.416 0.526 7.96 43.09 12.28
12/27/2020 10:30:00 PM 4.11 39.398 0.521 7.96 44.28 12.27
12/27/2020 10:45:00 PM 4.09 39.362 0.524 7.96 43.67 12.27
12/27/2020 11:00:00 PM 4.09 39.362 0.521 7.96 44.63 12.27
12/27/2020 11:15:00 PM 4.09 39.362 0.525 7.96 43.52 12.27
12/27/2020 11:30:00 PM 4.08 39.344 0.528 7.96 48.95 12.26
12/27/2020 11:45:00 PM 4.08 39.344 0.528 7.96 46.5 12.25
12/28/2020 12:00:00 AM 4.09 39.362 0.521 7.96 41.55 12.24
12/28/2020 12:15:00 AM 4.09 39.362 0.53 7.96 42.52 12.26
12/28/2020 12:30:00 AM 4.1 39.38 0.53 7.96 41.52 12.23
12/28/2020 12:45:00 AM 4.12 39.416 0.531 7.96 43.7 12.25
12/28/2020 1:00:00 AM 4.13 39.434 0.531 7.96 44.16 12.23
12/28/2020 1:15:00 AM 4.14 39.452 0.532 7.96 43.73 12.23
12/28/2020 1:30:00 AM 4.15 39.47 0.532 7.96 44.92 12.22
12/28/2020 1:45:00 AM 4.17 39.506 0.532 7.96 43.76 12.21
12/28/2020 2:00:00 AM 4.18 39.524 0.533 7.96 42.33 12.2
12/28/2020 2:15:00 AM 4.19 39.542 0.533 7.96 42.35 12.19
12/28/2020 2:30:00 AM 4.21 39.578 0.533 7.96 42.11 12.21
12/28/2020 2:45:00 AM 4.22 39.596 0.533 7.96 43.8 12.19
12/28/2020 3:00:00 AM 4.23 39.614 0.533 7.96 43.27 12.18
12/28/2020 3:15:00 AM 4.24 39.632 0.534 7.96 43.74 12.17
12/28/2020 3:30:00 AM 4.26 39.668 0.534 7.96 43.52 12.18
12/28/2020 3:45:00 AM 4.28 39.704 0.534 7.96 45.75 12.15
12/28/2020 4:00:00 AM 4.3 39.74 0.534 7.96 44.45 12.14
12/28/2020 4:15:00 AM 4.32 39.776 0.534 7.96 45.75 12.14
12/28/2020 4:30:00 AM 4.34 39.812 0.534 7.96 44.01 12.13
12/28/2020 4:45:00 AM 4.36 39.848 0.531 7.96 46 12.13
12/28/2020 5:00:00 AM 4.37 39.866 0.534 7.96 45.61 12.13
12/28/2020 5:15:00 AM 4.4 39.92 0.535 7.96 49.16 12.11
12/28/2020 5:30:00 AM 4.42 39.956 0.535 7.96 45.88 12.1
12/28/2020 5:45:00 AM 4.44 39.992 0.535 7.96 46.39 12.09
12/28/2020 6:00:00 AM 4.46 40.028 0.532 7.96 46.91 12.08
12/28/2020 6:15:00 AM 4.49 40.082 0.53 7.96 45.79 12.07
12/28/2020 6:30:00 AM 4.51 40.118 0.534 7.96 45.11 12.06
12/28/2020 6:45:00 AM 4.53 40.154 0.538 7.96 46.47 12.06
12/28/2020 7:00:00 AM 4.56 40.208 0.534 7.96 46.27 12.06
12/28/2020 7:15:00 AM 4.58 40.244 0.534 7.96 48.19 12.05
12/28/2020 7:30:00 AM 4.6 40.28 0.534 7.96 48.24 12.05
12/28/2020 7:45:00 AM 4.62 40.316 0.534 7.96 48.05 12.03
12/28/2020 8:00:00 AM 4.64 40.352 0.534 7.96 48.12 12.05
12/28/2020 8:15:00 AM 4.66 40.388